PWSweather.com
Personal Weather Stations
Station Observations
DL5ARK
SonnebergDE

SonnebergDE

Lat: 50.34904861, Lon: 11.18112087

Elevation: 1214

Station Type: Selfmade

http://www.sumbarg.de

High Low Average
Temperature 83.5°F28.6°C 46.1°F7.8°C 66.3°F19.1°C
Dew Point 67.7°F19.8°C 49.7°F9.8°C 61.0°F16.1°C
Winds 6.8 mph 10.9 kmh Calm Calm 1.0 mph S1.6 kmh S
Wind Gusts 6.8 mph10.9 kmh -- 1.0 mph1.6 kmh
Humidity 83% 39% 60%
Pressure 30.23 in1023.7 mb 30.12 in1020.0 mb -
Precipitation 0.00 in0.0 mm - -
Hour Temp Dew Point Humidity Winds Wind Gusts Pressure Precip Precip Rate Daily Precip Total
12:00 AM 51.2°F10.7°C 54.9°F12.7°C 75% Calm Calm -- 30.24 in1024.0 mb 0.00 in0.0 mm 0.00 in0.0 mm 0.00 in0.0 mm
12:02 AM 51.8°F11.0°C 55.3°F12.9°C 77% Calm Calm -- 30.23 in1023.7 mb 0.00 in0.0 mm 0.00 in0.0 mm 0.00 in0.0 mm
12:03 AM 51.9°F11.1°C 55.4°F13.0°C 77% Calm Calm -- 30.24 in1024.0 mb 0.00 in0.0 mm 0.00 in0.0 mm 0.00 in0.0 mm
12:05 AM 50.9°F10.5°C 55.1°F12.8°C 76% Calm Calm -- 30.24 in1024.0 mb 0.00 in0.0 mm 0.00 in0.0 mm 0.00 in0.0 mm
12:06 AM 50.9°F10.5°C 55.0°F12.8°C 76% Calm Calm -- 30.24 in1024.0 mb 0.00 in0.0 mm 0.00 in0.0 mm 0.00 in0.0 mm
12:08 AM 50.9°F10.5°C 54.8°F12.7°C 76% Calm Calm -- 30.24 in1024.0 mb 0.00 in0.0 mm 0.00 in0.0 mm 0.00 in0.0 mm
12:09 AM 51.0°F10.6°C 54.7°F12.6°C 76% Calm Calm -- 30.24 in1024.0 mb 0.00 in0.0 mm 0.00 in0.0 mm 0.00 in0.0 mm
12:11 AM 50.8°F10.4°C 54.7°F12.6°C 76% Calm Calm -- 30.24 in1024.0 mb 0.00 in0.0 mm 0.00 in0.0 mm 0.00 in0.0 mm
12:12 AM 50.8°F10.4°C 54.9°F12.7°C 76% Calm Calm -- 30.23 in1023.7 mb 0.00 in0.0 mm 0.00 in0.0 mm 0.00 in0.0 mm
12:14 AM 50.8°F10.4°C 54.5°F12.5°C 76% Calm Calm -- 30.23 in1023.7 mb 0.00 in0.0 mm 0.00 in0.0 mm 0.00 in0.0 mm
12:15 AM 50.9°F10.5°C 54.8°F12.7°C 76% Calm Calm -- 30.23 in1023.7 mb 0.00 in0.0 mm 0.00 in0.0 mm 0.00 in0.0 mm
12:17 AM 50.9°F10.5°C 54.6°F12.6°C 76% Calm Calm -- 30.23 in1023.7 mb 0.00 in0.0 mm 0.00 in0.0 mm 0.00 in0.0 mm
12:18 AM 50.9°F10.5°C 54.2°F12.3°C 76% Calm Calm -- 30.23 in1023.7 mb 0.00 in0.0 mm 0.00 in0.0 mm 0.00 in0.0 mm
12:20 AM 50.7°F10.4°C 54.3°F12.4°C 76% Calm Calm -- 30.23 in1023.7 mb 0.00 in0.0 mm 0.00 in0.0 mm 0.00 in0.0 mm
12:21 AM 50.7°F10.4°C 54.0°F12.2°C 76% Calm Calm -- 30.24 in1024.0 mb 0.00 in0.0 mm 0.00 in0.0 mm 0.00 in0.0 mm
12:23 AM 50.7°F10.4°C 54.2°F12.3°C 75% Calm Calm -- 30.23 in1023.7 mb 0.00 in0.0 mm 0.00 in0.0 mm 0.00 in0.0 mm
12:24 AM 50.7°F10.4°C 54.1°F12.3°C 76% Calm Calm -- 30.23 in1023.7 mb 0.00 in0.0 mm 0.00 in0.0 mm 0.00 in0.0 mm
12:26 AM 50.7°F10.4°C 54.1°F12.3°C 75% Calm Calm -- 30.23 in1023.7 mb 0.00 in0.0 mm 0.00 in0.0 mm 0.00 in0.0 mm
12:27 AM 50.8°F10.4°C 54.0°F12.2°C 75% Calm Calm -- 30.23 in1023.7 mb 0.00 in0.0 mm 0.00 in0.0 mm 0.00 in0.0 mm
12:29 AM 50.5°F10.3°C 53.9°F12.2°C 75% Calm Calm -- 30.23 in1023.7 mb 0.00 in0.0 mm 0.00 in0.0 mm 0.00 in0.0 mm
12:30 AM 50.5°F10.3°C 53.7°F12.1°C 75% Calm Calm -- 30.23 in1023.7 mb 0.00 in0.0 mm 0.00 in0.0 mm 0.00 in0.0 mm
12:32 AM 50.6°F10.3°C 53.6°F12.0°C 74% Calm Calm -- 30.23 in1023.7 mb 0.00 in0.0 mm 0.00 in0.0 mm 0.00 in0.0 mm
12:33 AM 50.7°F10.4°C 53.5°F11.9°C 75% Calm Calm -- 30.23 in1023.7 mb 0.00 in0.0 mm 0.00 in0.0 mm 0.00 in0.0 mm
12:35 AM 50.5°F10.3°C 53.8°F12.1°C 75% Calm Calm -- 30.23 in1023.7 mb 0.00 in0.0 mm 0.00 in0.0 mm 0.00 in0.0 mm
12:36 AM 50.5°F10.3°C 53.8°F12.1°C 75% Calm Calm -- 30.23 in1023.7 mb 0.00 in0.0 mm 0.00 in0.0 mm 0.00 in0.0 mm
12:38 AM 50.7°F10.4°C 53.5°F11.9°C 75% Calm Calm -- 30.23 in1023.7 mb 0.00 in0.0 mm 0.00 in0.0 mm 0.00 in0.0 mm
12:39 AM 50.7°F10.4°C 53.8°F12.1°C 75% Calm Calm -- 30.23 in1023.7 mb 0.00 in0.0 mm 0.00 in0.0 mm 0.00 in0.0 mm
12:41 AM 50.0°F10.0°C 53.4°F11.9°C 75% Calm Calm -- 30.23 in1023.7 mb 0.00 in0.0 mm 0.00 in0.0 mm 0.00 in0.0 mm
12:44 AM 49.9°F9.9°C 53.5°F11.9°C 75% Calm Calm -- 30.23 in1023.7 mb 0.00 in0.0 mm 0.00 in0.0 mm 0.00 in0.0 mm
12:45 AM 49.9°F9.9°C 53.4°F11.9°C 75% Calm Calm -- 30.23 in1023.7 mb 0.00 in0.0 mm 0.00 in0.0 mm 0.00 in0.0 mm
12:47 AM 50.7°F10.4°C 53.4°F11.9°C 75% Calm Calm -- 30.23 in1023.7 mb 0.00 in0.0 mm 0.00 in0.0 mm 0.00 in0.0 mm
12:48 AM 50.8°F10.4°C 53.5°F11.9°C 75% Calm Calm -- 30.23 in1023.7 mb 0.00 in0.0 mm 0.00 in0.0 mm 0.00 in0.0 mm
12:50 AM 50.9°F10.5°C 53.9°F12.2°C 76% Calm Calm -- 30.23 in1023.7 mb 0.00 in0.0 mm 0.00 in0.0 mm 0.00 in0.0 mm
12:51 AM 50.9°F10.5°C 53.8°F12.1°C 76% Calm Calm -- 30.23 in1023.7 mb 0.00 in0.0 mm 0.00 in0.0 mm 0.00 in0.0 mm
12:53 AM 51.1°F10.6°C 53.9°F12.2°C 77% Calm Calm -- 30.23 in1023.7 mb 0.00 in0.0 mm 0.00 in0.0 mm 0.00 in0.0 mm
12:54 AM 51.1°F10.6°C 53.9°F12.2°C 77% Calm Calm -- 30.23 in1023.7 mb 0.00 in0.0 mm 0.00 in0.0 mm 0.00 in0.0 mm
12:56 AM 49.4°F9.7°C 54.0°F12.2°C 77% Calm Calm -- 30.23 in1023.7 mb 0.00 in0.0 mm 0.00 in0.0 mm 0.00 in0.0 mm
12:57 AM 49.4°F9.7°C 53.7°F12.1°C 76% Calm Calm -- 30.23 in1023.7 mb 0.00 in0.0 mm 0.00 in0.0 mm 0.00 in0.0 mm
12:59 AM 50.3°F10.2°C 53.9°F12.2°C 77% Calm Calm -- 30.23 in1023.7 mb 0.00 in0.0 mm 0.00 in0.0 mm 0.00 in0.0 mm
01:00 AM 50.2°F10.1°C 54.0°F12.2°C 78% Calm Calm -- 30.23 in1023.7 mb 0.00 in0.0 mm 0.00 in0.0 mm 0.00 in0.0 mm
01:02 AM 50.1°F10.1°C 53.7°F12.1°C 77% Calm Calm -- 30.23 in1023.7 mb 0.00 in0.0 mm 0.00 in0.0 mm 0.00 in0.0 mm
01:03 AM 50.2°F10.1°C 53.8°F12.1°C 77% Calm Calm -- 30.23 in1023.7 mb 0.00 in0.0 mm 0.00 in0.0 mm 0.00 in0.0 mm
01:05 AM 49.4°F9.7°C 53.1°F11.7°C 76% Calm Calm -- 30.23 in1023.7 mb 0.00 in0.0 mm 0.00 in0.0 mm 0.00 in0.0 mm
01:06 AM 49.4°F9.7°C 53.2°F11.8°C 76% Calm Calm -- 30.23 in1023.7 mb 0.00 in0.0 mm 0.00 in0.0 mm 0.00 in0.0 mm
01:08 AM 49.8°F9.9°C 53.3°F11.8°C 76% Calm Calm -- 30.23 in1023.7 mb 0.00 in0.0 mm 0.00 in0.0 mm 0.00 in0.0 mm
01:09 AM 49.8°F9.9°C 53.5°F11.9°C 77% Calm Calm -- 30.23 in1023.7 mb 0.00 in0.0 mm 0.00 in0.0 mm 0.00 in0.0 mm
01:11 AM 49.8°F9.9°C 53.3°F11.8°C 77% Calm Calm -- 30.23 in1023.7 mb 0.00 in0.0 mm 0.00 in0.0 mm 0.00 in0.0 mm
01:12 AM 49.8°F9.9°C 53.2°F11.8°C 76% Calm Calm -- 30.23 in1023.7 mb 0.00 in0.0 mm 0.00 in0.0 mm 0.00 in0.0 mm
01:14 AM 49.9°F9.9°C 53.4°F11.9°C 77% Calm Calm -- 30.23 in1023.7 mb 0.00 in0.0 mm 0.00 in0.0 mm 0.00 in0.0 mm
01:15 AM 49.9°F9.9°C 53.4°F11.9°C 77% Calm Calm -- 30.23 in1023.7 mb 0.00 in0.0 mm 0.00 in0.0 mm 0.00 in0.0 mm
01:17 AM 49.9°F9.9°C 53.5°F11.9°C 77% Calm Calm -- 30.23 in1023.7 mb 0.00 in0.0 mm 0.00 in0.0 mm 0.00 in0.0 mm
01:18 AM 49.9°F9.9°C 53.4°F11.9°C 77% Calm Calm -- 30.23 in1023.7 mb 0.00 in0.0 mm 0.00 in0.0 mm 0.00 in0.0 mm
01:20 AM 49.3°F9.6°C 53.2°F11.8°C 77% Calm Calm -- 30.23 in1023.7 mb 0.00 in0.0 mm 0.00 in0.0 mm 0.00 in0.0 mm
01:21 AM 49.4°F9.7°C 53.2°F11.8°C 77% Calm Calm -- 30.23 in1023.7 mb 0.00 in0.0 mm 0.00 in0.0 mm 0.00 in0.0 mm
01:23 AM 49.3°F9.6°C 53.3°F11.8°C 77% Calm Calm -- 30.23 in1023.7 mb 0.00 in0.0 mm 0.00 in0.0 mm 0.00 in0.0 mm
01:24 AM 49.3°F9.6°C 53.5°F11.9°C 77% Calm Calm -- 30.23 in1023.7 mb 0.00 in0.0 mm 0.00 in0.0 mm 0.00 in0.0 mm
01:26 AM 49.6°F9.8°C 53.3°F11.8°C 78% Calm Calm -- 30.23 in1023.7 mb 0.00 in0.0 mm 0.00 in0.0 mm 0.00 in0.0 mm
01:27 AM 49.6°F9.8°C 53.3°F11.8°C 77% Calm Calm -- 30.23 in1023.7 mb 0.00 in0.0 mm 0.00 in0.0 mm 0.00 in0.0 mm
01:29 AM 49.1°F9.5°C 53.5°F11.9°C 78% Calm Calm -- 30.23 in1023.7 mb 0.00 in0.0 mm 0.00 in0.0 mm 0.00 in0.0 mm
01:30 AM 49.2°F9.6°C 53.2°F11.8°C 77% Calm Calm -- 30.23 in1023.7 mb 0.00 in0.0 mm 0.00 in0.0 mm 0.00 in0.0 mm
01:32 AM 49.2°F9.6°C 53.4°F11.9°C 78% Calm Calm -- 30.23 in1023.7 mb 0.00 in0.0 mm 0.00 in0.0 mm 0.00 in0.0 mm
01:33 AM 49.2°F9.6°C 53.1°F11.7°C 78% Calm Calm -- 30.23 in1023.7 mb 0.00 in0.0 mm 0.00 in0.0 mm 0.00 in0.0 mm
01:35 AM 48.9°F9.4°C 52.9°F11.6°C 77% Calm Calm -- 30.23 in1023.7 mb 0.00 in0.0 mm 0.00 in0.0 mm 0.00 in0.0 mm
01:36 AM 48.9°F9.4°C 53.0°F11.7°C 77% Calm Calm -- 30.23 in1023.7 mb 0.00 in0.0 mm 0.00 in0.0 mm 0.00 in0.0 mm
01:38 AM 48.5°F9.2°C 52.8°F11.6°C 77% Calm Calm -- 30.23 in1023.7 mb 0.00 in0.0 mm 0.00 in0.0 mm 0.00 in0.0 mm
01:39 AM 48.7°F9.3°C 52.6°F11.4°C 77% Calm Calm -- 30.23 in1023.7 mb 0.00 in0.0 mm 0.00 in0.0 mm 0.00 in0.0 mm
01:41 AM 49.0°F9.4°C 52.7°F11.5°C 77% Calm Calm -- 30.23 in1023.7 mb 0.00 in0.0 mm 0.00 in0.0 mm 0.00 in0.0 mm
01:42 AM 49.0°F9.4°C 52.5°F11.4°C 77% Calm Calm -- 30.23 in1023.7 mb 0.00 in0.0 mm 0.00 in0.0 mm 0.00 in0.0 mm
01:44 AM 48.9°F9.4°C 53.1°F11.7°C 78% Calm Calm -- 30.23 in1023.7 mb 0.00 in0.0 mm 0.00 in0.0 mm 0.00 in0.0 mm
01:45 AM 48.9°F9.4°C 52.6°F11.4°C 77% Calm Calm -- 30.23 in1023.7 mb 0.00 in0.0 mm 0.00 in0.0 mm 0.00 in0.0 mm
01:47 AM 48.9°F9.4°C 52.7°F11.5°C 77% Calm Calm -- 30.23 in1023.7 mb 0.00 in0.0 mm 0.00 in0.0 mm 0.00 in0.0 mm
01:48 AM 48.9°F9.4°C 52.8°F11.6°C 77% Calm Calm -- 30.23 in1023.7 mb 0.00 in0.0 mm 0.00 in0.0 mm 0.00 in0.0 mm
01:50 AM 49.0°F9.4°C 52.7°F11.5°C 78% Calm Calm -- 30.23 in1023.7 mb 0.00 in0.0 mm 0.00 in0.0 mm 0.00 in0.0 mm
01:51 AM 49.0°F9.4°C 52.8°F11.6°C 78% Calm Calm -- 30.23 in1023.7 mb 0.00 in0.0 mm 0.00 in0.0 mm 0.00 in0.0 mm
01:53 AM 48.9°F9.4°C 52.6°F11.4°C 77% Calm Calm -- 30.23 in1023.7 mb 0.00 in0.0 mm 0.00 in0.0 mm 0.00 in0.0 mm
01:54 AM 48.9°F9.4°C 52.7°F11.5°C 78% Calm Calm -- 30.23 in1023.7 mb 0.00 in0.0 mm 0.00 in0.0 mm 0.00 in0.0 mm
01:56 AM 48.8°F9.3°C 52.6°F11.4°C 77% Calm Calm -- 30.23 in1023.7 mb 0.00 in0.0 mm 0.00 in0.0 mm 0.00 in0.0 mm
01:57 AM 48.8°F9.3°C 52.4°F11.3°C 77% Calm Calm -- 30.23 in1023.7 mb 0.00 in0.0 mm 0.00 in0.0 mm 0.00 in0.0 mm
01:59 AM 48.7°F9.3°C 52.4°F11.3°C 77% Calm Calm -- 30.23 in1023.7 mb 0.00 in0.0 mm 0.00 in0.0 mm 0.00 in0.0 mm
02:00 AM 48.7°F9.3°C 52.5°F11.4°C 78% Calm Calm -- 30.23 in1023.7 mb 0.00 in0.0 mm 0.00 in0.0 mm 0.00 in0.0 mm
02:02 AM 48.5°F9.2°C 51.8°F11.0°C 76% Calm Calm -- 30.23 in1023.7 mb 0.00 in0.0 mm 0.00 in0.0 mm 0.00 in0.0 mm
02:03 AM 48.5°F9.2°C 52.2°F11.2°C 77% Calm Calm -- 30.23 in1023.7 mb 0.00 in0.0 mm 0.00 in0.0 mm 0.00 in0.0 mm
02:05 AM 48.4°F9.1°C 52.2°F11.2°C 77% Calm Calm -- 30.23 in1023.7 mb 0.00 in0.0 mm 0.00 in0.0 mm 0.00 in0.0 mm
02:06 AM 48.4°F9.1°C 52.3°F11.3°C 78% Calm Calm -- 30.23 in1023.7 mb 0.00 in0.0 mm 0.00 in0.0 mm 0.00 in0.0 mm
02:08 AM 48.4°F9.1°C 52.3°F11.3°C 77% Calm Calm -- 30.23 in1023.7 mb 0.00 in0.0 mm 0.00 in0.0 mm 0.00 in0.0 mm
02:09 AM 48.4°F9.1°C 52.0°F11.1°C 77% Calm Calm -- 30.23 in1023.7 mb 0.00 in0.0 mm 0.00 in0.0 mm 0.00 in0.0 mm
02:11 AM 48.9°F9.4°C 52.0°F11.1°C 77% Calm Calm -- 30.23 in1023.7 mb 0.00 in0.0 mm 0.00 in0.0 mm 0.00 in0.0 mm
02:12 AM 49.0°F9.4°C 52.0°F11.1°C 77% Calm Calm -- 30.23 in1023.7 mb 0.00 in0.0 mm 0.00 in0.0 mm 0.00 in0.0 mm
02:14 AM 48.5°F9.2°C 51.8°F11.0°C 77% Calm Calm -- 30.23 in1023.7 mb 0.00 in0.0 mm 0.00 in0.0 mm 0.00 in0.0 mm
02:15 AM 48.5°F9.2°C 52.1°F11.2°C 77% Calm Calm -- 30.23 in1023.7 mb 0.00 in0.0 mm 0.00 in0.0 mm 0.00 in0.0 mm
02:17 AM 48.8°F9.3°C 52.4°F11.3°C 78% Calm Calm -- 30.23 in1023.7 mb 0.00 in0.0 mm 0.00 in0.0 mm 0.00 in0.0 mm
02:18 AM 48.7°F9.3°C 52.1°F11.2°C 78% Calm Calm -- 30.23 in1023.7 mb 0.00 in0.0 mm 0.00 in0.0 mm 0.00 in0.0 mm
02:20 AM 48.2°F9.0°C 52.3°F11.3°C 79% Calm Calm -- 30.23 in1023.7 mb 0.00 in0.0 mm 0.00 in0.0 mm 0.00 in0.0 mm
02:21 AM 48.2°F9.0°C 52.3°F11.3°C 78% Calm Calm -- 30.23 in1023.7 mb 0.00 in0.0 mm 0.00 in0.0 mm 0.00 in0.0 mm
02:23 AM 48.0°F8.9°C 52.0°F11.1°C 78% Calm Calm -- 30.23 in1023.7 mb 0.00 in0.0 mm 0.00 in0.0 mm 0.00 in0.0 mm
02:24 AM 47.9°F8.8°C 52.1°F11.2°C 78% Calm Calm -- 30.23 in1023.7 mb 0.00 in0.0 mm 0.00 in0.0 mm 0.00 in0.0 mm
02:26 AM 47.9°F8.8°C 52.0°F11.1°C 78% Calm Calm -- 30.23 in1023.7 mb 0.00 in0.0 mm 0.00 in0.0 mm 0.00 in0.0 mm
02:27 AM 48.0°F8.9°C 52.0°F11.1°C 78% Calm Calm -- 30.23 in1023.7 mb 0.00 in0.0 mm 0.00 in0.0 mm 0.00 in0.0 mm
02:29 AM 47.9°F8.8°C 51.9°F11.1°C 79% Calm Calm -- 30.23 in1023.7 mb 0.00 in0.0 mm 0.00 in0.0 mm 0.00 in0.0 mm
02:30 AM 47.9°F8.8°C 52.1°F11.2°C 79% Calm Calm -- 30.23 in1023.7 mb 0.00 in0.0 mm 0.00 in0.0 mm 0.00 in0.0 mm
02:32 AM 47.6°F8.7°C 52.0°F11.1°C 79% Calm Calm -- 30.23 in1023.7 mb 0.00 in0.0 mm 0.00 in0.0 mm 0.00 in0.0 mm
02:33 AM 47.6°F8.7°C 51.7°F10.9°C 78% Calm Calm -- 30.23 in1023.7 mb 0.00 in0.0 mm 0.00 in0.0 mm 0.00 in0.0 mm
02:35 AM 47.4°F8.6°C 51.5°F10.8°C 78% Calm Calm -- 30.23 in1023.7 mb 0.00 in0.0 mm 0.00 in0.0 mm 0.00 in0.0 mm
02:36 AM 47.4°F8.6°C 51.7°F10.9°C 78% Calm Calm -- 30.23 in1023.7 mb 0.00 in0.0 mm 0.00 in0.0 mm 0.00 in0.0 mm
02:38 AM 47.6°F8.7°C 51.3°F10.7°C 78% Calm Calm -- 30.23 in1023.7 mb 0.00 in0.0 mm 0.00 in0.0 mm 0.00 in0.0 mm
02:39 AM 47.6°F8.7°C 51.4°F10.8°C 78% Calm Calm -- 30.23 in1023.7 mb 0.00 in0.0 mm 0.00 in0.0 mm 0.00 in0.0 mm
02:41 AM 47.8°F8.8°C 51.5°F10.8°C 78% Calm Calm -- 30.23 in1023.7 mb 0.00 in0.0 mm 0.00 in0.0 mm 0.00 in0.0 mm
02:42 AM 47.8°F8.8°C 51.3°F10.7°C 78% Calm Calm -- 30.23 in1023.7 mb 0.00 in0.0 mm 0.00 in0.0 mm 0.00 in0.0 mm
02:44 AM 47.9°F8.8°C 51.5°F10.8°C 78% Calm Calm -- 30.23 in1023.7 mb 0.00 in0.0 mm 0.00 in0.0 mm 0.00 in0.0 mm
02:45 AM 47.9°F8.8°C 51.5°F10.8°C 78% Calm Calm -- 30.23 in1023.7 mb 0.00 in0.0 mm 0.00 in0.0 mm 0.00 in0.0 mm
02:47 AM 47.6°F8.7°C 51.7°F10.9°C 79% Calm Calm -- 30.23 in1023.7 mb 0.00 in0.0 mm 0.00 in0.0 mm 0.00 in0.0 mm
02:48 AM 47.6°F8.7°C 51.7°F10.9°C 78% Calm Calm -- 30.23 in1023.7 mb 0.00 in0.0 mm 0.00 in0.0 mm 0.00 in0.0 mm
02:50 AM 47.5°F8.6°C 51.5°F10.8°C 78% Calm Calm -- 30.23 in1023.7 mb 0.00 in0.0 mm 0.00 in0.0 mm 0.00 in0.0 mm
02:51 AM 47.5°F8.6°C 51.6°F10.9°C 79% Calm Calm -- 30.23 in1023.7 mb 0.00 in0.0 mm 0.00 in0.0 mm 0.00 in0.0 mm
02:53 AM 47.9°F8.8°C 51.5°F10.8°C 78% Calm Calm -- 30.23 in1023.7 mb 0.00 in0.0 mm 0.00 in0.0 mm 0.00 in0.0 mm
02:54 AM 47.9°F8.8°C 51.3°F10.7°C 78% Calm Calm -- 30.23 in1023.7 mb 0.00 in0.0 mm 0.00 in0.0 mm 0.00 in0.0 mm
02:59 AM 47.4°F8.6°C 51.5°F10.8°C 79% Calm Calm -- 30.23 in1023.7 mb 0.00 in0.0 mm 0.00 in0.0 mm 0.00 in0.0 mm
03:00 AM 47.5°F8.6°C 51.4°F10.8°C 79% Calm Calm -- 30.23 in1023.7 mb 0.00 in0.0 mm 0.00 in0.0 mm 0.00 in0.0 mm
03:02 AM 47.3°F8.5°C 51.8°F11.0°C 80% Calm Calm -- 30.22 in1023.4 mb 0.00 in0.0 mm 0.00 in0.0 mm 0.00 in0.0 mm
03:03 AM 47.3°F8.5°C 51.5°F10.8°C 79% Calm Calm -- 30.23 in1023.7 mb 0.00 in0.0 mm 0.00 in0.0 mm 0.00 in0.0 mm
03:05 AM 47.2°F8.4°C 51.8°F11.0°C 80% Calm Calm -- 30.22 in1023.4 mb 0.00 in0.0 mm 0.00 in0.0 mm 0.00 in0.0 mm
03:06 AM 47.2°F8.4°C 51.8°F11.0°C 80% Calm Calm -- 30.23 in1023.7 mb 0.00 in0.0 mm 0.00 in0.0 mm 0.00 in0.0 mm
03:08 AM 47.0°F8.3°C 51.4°F10.8°C 80% Calm Calm -- 30.23 in1023.7 mb 0.00 in0.0 mm 0.00 in0.0 mm 0.00 in0.0 mm
03:09 AM 47.0°F8.3°C 51.3°F10.7°C 80% Calm Calm -- 30.23 in1023.7 mb 0.00 in0.0 mm 0.00 in0.0 mm 0.00 in0.0 mm
03:11 AM 47.2°F8.4°C 51.2°F10.7°C 80% Calm Calm -- 30.22 in1023.4 mb 0.00 in0.0 mm 0.00 in0.0 mm 0.00 in0.0 mm
03:12 AM 47.3°F8.5°C 51.5°F10.8°C 80% Calm Calm -- 30.23 in1023.7 mb 0.00 in0.0 mm 0.00 in0.0 mm 0.00 in0.0 mm
03:14 AM 46.5°F8.1°C 51.1°F10.6°C 79% Calm Calm -- 30.23 in1023.7 mb 0.00 in0.0 mm 0.00 in0.0 mm 0.00 in0.0 mm
03:15 AM 46.5°F8.1°C 51.1°F10.6°C 79% Calm Calm -- 30.23 in1023.7 mb 0.00 in0.0 mm 0.00 in0.0 mm 0.00 in0.0 mm
03:17 AM 46.9°F8.3°C 50.9°F10.5°C 79% Calm Calm -- 30.23 in1023.7 mb 0.00 in0.0 mm 0.00 in0.0 mm 0.00 in0.0 mm
03:18 AM 46.9°F8.3°C 51.1°F10.6°C 79% Calm Calm -- 30.23 in1023.7 mb 0.00 in0.0 mm 0.00 in0.0 mm 0.00 in0.0 mm
03:20 AM 47.2°F8.4°C 50.8°F10.4°C 79% Calm Calm -- 30.23 in1023.7 mb 0.00 in0.0 mm 0.00 in0.0 mm 0.00 in0.0 mm
03:21 AM 47.2°F8.4°C 50.7°F10.4°C 79% Calm Calm -- 30.23 in1023.7 mb 0.00 in0.0 mm 0.00 in0.0 mm 0.00 in0.0 mm
03:23 AM 47.3°F8.5°C 50.7°F10.4°C 79% Calm Calm -- 30.23 in1023.7 mb 0.00 in0.0 mm 0.00 in0.0 mm 0.00 in0.0 mm
03:24 AM 47.3°F8.5°C 50.8°F10.4°C 79% Calm Calm -- 30.23 in1023.7 mb 0.00 in0.0 mm 0.00 in0.0 mm 0.00 in0.0 mm
03:26 AM 47.0°F8.3°C 50.6°F10.3°C 79% Calm Calm -- 30.23 in1023.7 mb 0.00 in0.0 mm 0.00 in0.0 mm 0.00 in0.0 mm
03:27 AM 47.0°F8.3°C 50.5°F10.3°C 78% Calm Calm -- 30.23 in1023.7 mb 0.00 in0.0 mm 0.00 in0.0 mm 0.00 in0.0 mm
03:29 AM 47.1°F8.4°C 50.8°F10.4°C 78% Calm Calm -- 30.23 in1023.7 mb 0.00 in0.0 mm 0.00 in0.0 mm 0.00 in0.0 mm
03:32 AM 46.6°F8.1°C 50.7°F10.4°C 79% Calm Calm -- 30.23 in1023.7 mb 0.00 in0.0 mm 0.00 in0.0 mm 0.00 in0.0 mm
03:33 AM 46.7°F8.2°C 50.7°F10.4°C 79% Calm Calm -- 30.23 in1023.7 mb 0.00 in0.0 mm 0.00 in0.0 mm 0.00 in0.0 mm
03:35 AM 46.6°F8.1°C 50.3°F10.2°C 77% Calm Calm -- 30.23 in1023.7 mb 0.00 in0.0 mm 0.00 in0.0 mm 0.00 in0.0 mm
03:36 AM 46.6°F8.1°C 50.5°F10.3°C 78% Calm Calm -- 30.23 in1023.7 mb 0.00 in0.0 mm 0.00 in0.0 mm 0.00 in0.0 mm
03:38 AM 46.6°F8.1°C 50.6°F10.3°C 78% Calm Calm -- 30.23 in1023.7 mb 0.00 in0.0 mm 0.00 in0.0 mm 0.00 in0.0 mm
03:39 AM 46.6°F8.1°C 50.4°F10.2°C 78% Calm Calm -- 30.23 in1023.7 mb 0.00 in0.0 mm 0.00 in0.0 mm 0.00 in0.0 mm
03:41 AM 46.9°F8.3°C 51.0°F10.6°C 80% Calm Calm -- 30.23 in1023.7 mb 0.00 in0.0 mm 0.00 in0.0 mm 0.00 in0.0 mm
03:42 AM 46.9°F8.3°C 50.9°F10.5°C 80% Calm Calm -- 30.23 in1023.7 mb 0.00 in0.0 mm 0.00 in0.0 mm 0.00 in0.0 mm
03:44 AM 47.0°F8.3°C 50.9°F10.5°C 80% Calm Calm -- 30.23 in1023.7 mb 0.00 in0.0 mm 0.00 in0.0 mm 0.00 in0.0 mm
03:45 AM 46.9°F8.3°C 51.0°F10.6°C 80% Calm Calm -- 30.23 in1023.7 mb 0.00 in0.0 mm 0.00 in0.0 mm 0.00 in0.0 mm
03:47 AM 46.6°F8.1°C 50.9°F10.5°C 80% Calm Calm -- 30.23 in1023.7 mb 0.00 in0.0 mm 0.00 in0.0 mm 0.00 in0.0 mm
03:48 AM 46.6°F8.1°C 50.9°F10.5°C 80% Calm Calm -- 30.23 in1023.7 mb 0.00 in0.0 mm 0.00 in0.0 mm 0.00 in0.0 mm
03:50 AM 46.5°F8.1°C 50.5°F10.3°C 80% Calm Calm -- 30.23 in1023.7 mb 0.00 in0.0 mm 0.00 in0.0 mm 0.00 in0.0 mm
03:51 AM 46.5°F8.1°C 50.2°F10.1°C 79% Calm Calm -- 30.23 in1023.7 mb 0.00 in0.0 mm 0.00 in0.0 mm 0.00 in0.0 mm
03:53 AM 46.5°F8.1°C 50.4°F10.2°C 80% Calm Calm -- 30.23 in1023.7 mb 0.00 in0.0 mm 0.00 in0.0 mm 0.00 in0.0 mm
03:54 AM 46.6°F8.1°C 50.5°F10.3°C 80% Calm Calm -- 30.23 in1023.7 mb 0.00 in0.0 mm 0.00 in0.0 mm 0.00 in0.0 mm
03:56 AM 46.4°F8.0°C 50.2°F10.1°C 80% Calm Calm -- 30.23 in1023.7 mb 0.00 in0.0 mm 0.00 in0.0 mm 0.00 in0.0 mm
03:57 AM 46.5°F8.1°C 50.2°F10.1°C 80% Calm Calm -- 30.23 in1023.7 mb 0.00 in0.0 mm 0.00 in0.0 mm 0.00 in0.0 mm
03:59 AM 46.5°F8.1°C 50.2°F10.1°C 79% Calm Calm -- 30.23 in1023.7 mb 0.00 in0.0 mm 0.00 in0.0 mm 0.00 in0.0 mm
04:02 AM 46.7°F8.2°C 50.2°F10.1°C 79% Calm Calm -- 30.23 in1023.7 mb 0.00 in0.0 mm 0.00 in0.0 mm 0.00 in0.0 mm
04:03 AM 46.7°F8.2°C 49.9°F9.9°C 79% Calm Calm -- 30.23 in1023.7 mb 0.00 in0.0 mm 0.00 in0.0 mm 0.00 in0.0 mm
04:05 AM 46.9°F8.3°C 50.3°F10.2°C 79% Calm Calm -- 30.23 in1023.7 mb 0.00 in0.0 mm 0.00 in0.0 mm 0.00 in0.0 mm
04:06 AM 46.9°F8.3°C 50.1°F10.1°C 79% Calm Calm -- 30.23 in1023.7 mb 0.00 in0.0 mm 0.00 in0.0 mm 0.00 in0.0 mm
04:08 AM 47.0°F8.3°C 50.1°F10.1°C 79% Calm Calm -- 30.22 in1023.4 mb 0.00 in0.0 mm 0.00 in0.0 mm 0.00 in0.0 mm
04:09 AM 47.1°F8.4°C 50.2°F10.1°C 79% Calm Calm -- 30.23 in1023.7 mb 0.00 in0.0 mm 0.00 in0.0 mm 0.00 in0.0 mm
04:11 AM 46.1°F7.8°C 50.0°F10.0°C 79% Calm Calm -- 30.22 in1023.4 mb 0.00 in0.0 mm 0.00 in0.0 mm 0.00 in0.0 mm
04:12 AM 46.2°F7.9°C 50.0°F10.0°C 79% Calm Calm -- 30.22 in1023.4 mb 0.00 in0.0 mm 0.00 in0.0 mm 0.00 in0.0 mm
04:14 AM 46.2°F7.9°C 49.9°F9.9°C 79% Calm Calm -- 30.22 in1023.4 mb 0.00 in0.0 mm 0.00 in0.0 mm 0.00 in0.0 mm
04:15 AM 46.2°F7.9°C 50.1°F10.1°C 79% Calm Calm -- 30.22 in1023.4 mb 0.00 in0.0 mm 0.00 in0.0 mm 0.00 in0.0 mm
04:17 AM 46.2°F7.9°C 49.9°F9.9°C 79% Calm Calm -- 30.22 in1023.4 mb 0.00 in0.0 mm 0.00 in0.0 mm 0.00 in0.0 mm
04:18 AM 46.2°F7.9°C 50.1°F10.1°C 79% Calm Calm -- 30.22 in1023.4 mb 0.00 in0.0 mm 0.00 in0.0 mm 0.00 in0.0 mm
04:20 AM 46.4°F8.0°C 50.2°F10.1°C 79% Calm Calm -- 30.22 in1023.4 mb 0.00 in0.0 mm 0.00 in0.0 mm 0.00 in0.0 mm
04:21 AM 46.4°F8.0°C 49.8°F9.9°C 79% Calm Calm -- 30.22 in1023.4 mb 0.00 in0.0 mm 0.00 in0.0 mm 0.00 in0.0 mm
04:23 AM 46.4°F8.0°C 50.2°F10.1°C 80% Calm Calm -- 30.22 in1023.4 mb 0.00 in0.0 mm 0.00 in0.0 mm 0.00 in0.0 mm
04:24 AM 46.4°F8.0°C 50.2°F10.1°C 80% Calm Calm -- 30.22 in1023.4 mb 0.00 in0.0 mm 0.00 in0.0 mm 0.00 in0.0 mm
04:26 AM 46.3°F7.9°C 50.4°F10.2°C 80% Calm Calm -- 30.22 in1023.4 mb 0.00 in0.0 mm 0.00 in0.0 mm 0.00 in0.0 mm
04:27 AM 46.4°F8.0°C 50.2°F10.1°C 80% Calm Calm -- 30.22 in1023.4 mb 0.00 in0.0 mm 0.00 in0.0 mm 0.00 in0.0 mm
04:29 AM 46.6°F8.1°C 50.3°F10.2°C 81% Calm Calm -- 30.22 in1023.4 mb 0.00 in0.0 mm 0.00 in0.0 mm 0.00 in0.0 mm
04:30 AM 46.6°F8.1°C 50.2°F10.1°C 81% Calm Calm -- 30.22 in1023.4 mb 0.00 in0.0 mm 0.00 in0.0 mm 0.00 in0.0 mm
04:32 AM 47.1°F8.4°C 50.6°F10.3°C 82% Calm Calm -- 30.22 in1023.4 mb 0.00 in0.0 mm 0.00 in0.0 mm 0.00 in0.0 mm
04:33 AM 47.1°F8.4°C 50.5°F10.3°C 81% Calm Calm -- 30.22 in1023.4 mb 0.00 in0.0 mm 0.00 in0.0 mm 0.00 in0.0 mm
04:35 AM 46.6°F8.1°C 50.5°F10.3°C 81% Calm Calm -- 30.22 in1023.4 mb 0.00 in0.0 mm 0.00 in0.0 mm 0.00 in0.0 mm
04:36 AM 46.5°F8.1°C 50.8°F10.4°C 82% Calm Calm -- 30.22 in1023.4 mb 0.00 in0.0 mm 0.00 in0.0 mm 0.00 in0.0 mm
04:38 AM 46.2°F7.9°C 50.1°F10.1°C 80% Calm Calm -- 30.22 in1023.4 mb 0.00 in0.0 mm 0.00 in0.0 mm 0.00 in0.0 mm
04:39 AM 46.2°F7.9°C 50.1°F10.1°C 80% Calm Calm -- 30.22 in1023.4 mb 0.00 in0.0 mm 0.00 in0.0 mm 0.00 in0.0 mm
04:41 AM 46.3°F7.9°C 50.0°F10.0°C 80% Calm Calm -- 30.22 in1023.4 mb 0.00 in0.0 mm 0.00 in0.0 mm 0.00 in0.0 mm
04:42 AM 46.3°F7.9°C 49.9°F9.9°C 80% Calm Calm -- 30.22 in1023.4 mb 0.00 in0.0 mm 0.00 in0.0 mm 0.00 in0.0 mm
04:44 AM 46.5°F8.1°C 49.9°F9.9°C 80% Calm Calm -- 30.22 in1023.4 mb 0.00 in0.0 mm 0.00 in0.0 mm 0.00 in0.0 mm
04:45 AM 46.5°F8.1°C 49.7°F9.8°C 80% Calm Calm -- 30.22 in1023.4 mb 0.00 in0.0 mm 0.00 in0.0 mm 0.00 in0.0 mm
04:47 AM 47.0°F8.3°C 50.1°F10.1°C 81% Calm Calm -- 30.22 in1023.4 mb 0.00 in0.0 mm 0.00 in0.0 mm 0.00 in0.0 mm
04:48 AM 47.0°F8.3°C 50.1°F10.1°C 81% Calm Calm -- 30.22 in1023.4 mb 0.00 in0.0 mm 0.00 in0.0 mm 0.00 in0.0 mm
04:50 AM 47.0°F8.3°C 50.6°F10.3°C 82% Calm Calm -- 30.22 in1023.4 mb 0.00 in0.0 mm 0.00 in0.0 mm 0.00 in0.0 mm
04:51 AM 47.0°F8.3°C 50.6°F10.3°C 81% Calm Calm -- 30.23 in1023.7 mb 0.00 in0.0 mm 0.00 in0.0 mm 0.00 in0.0 mm
04:53 AM 47.6°F8.7°C 51.4°F10.8°C 83% Calm Calm -- 30.22 in1023.4 mb 0.00 in0.0 mm 0.00 in0.0 mm 0.00 in0.0 mm
04:54 AM 47.6°F8.7°C 51.2°F10.7°C 83% Calm Calm -- 30.22 in1023.4 mb 0.00 in0.0 mm 0.00 in0.0 mm 0.00 in0.0 mm
04:56 AM 47.9°F8.8°C 51.6°F10.9°C 82% Calm Calm -- 30.22 in1023.4 mb 0.00 in0.0 mm 0.00 in0.0 mm 0.00 in0.0 mm
04:57 AM 47.9°F8.8°C 51.6°F10.9°C 82% Calm Calm -- 30.22 in1023.4 mb 0.00 in0.0 mm 0.00 in0.0 mm 0.00 in0.0 mm
04:59 AM 47.5°F8.6°C 52.0°F11.1°C 82% Calm Calm -- 30.23 in1023.7 mb 0.00 in0.0 mm 0.00 in0.0 mm 0.00 in0.0 mm
05:00 AM 47.5°F8.6°C 51.8°F11.0°C 82% Calm Calm -- 30.22 in1023.4 mb 0.00 in0.0 mm 0.00 in0.0 mm 0.00 in0.0 mm
05:02 AM 48.0°F8.9°C 52.1°F11.2°C 80% Calm Calm -- 30.22 in1023.4 mb 0.00 in0.0 mm 0.00 in0.0 mm 0.00 in0.0 mm
05:03 AM 48.0°F8.9°C 52.0°F11.1°C 80% Calm Calm -- 30.22 in1023.4 mb 0.00 in0.0 mm 0.00 in0.0 mm 0.00 in0.0 mm
05:05 AM 49.0°F9.4°C 52.0°F11.1°C 79% Calm Calm -- 30.22 in1023.4 mb 0.00 in0.0 mm 0.00 in0.0 mm 0.00 in0.0 mm
05:06 AM 49.1°F9.5°C 52.0°F11.1°C 79% Calm Calm -- 30.22 in1023.4 mb 0.00 in0.0 mm 0.00 in0.0 mm 0.00 in0.0 mm
05:08 AM 50.2°F10.1°C 52.4°F11.3°C 78% Calm Calm -- 30.23 in1023.7 mb 0.00 in0.0 mm 0.00 in0.0 mm 0.00 in0.0 mm
05:09 AM 50.2°F10.1°C 52.4°F11.3°C 78% Calm Calm -- 30.22 in1023.4 mb 0.00 in0.0 mm 0.00 in0.0 mm 0.00 in0.0 mm
05:11 AM 50.0°F10.0°C 52.6°F11.4°C 77% Calm Calm -- 30.23 in1023.7 mb 0.00 in0.0 mm 0.00 in0.0 mm 0.00 in0.0 mm
05:12 AM 50.0°F10.0°C 52.7°F11.5°C 77% Calm Calm -- 30.23 in1023.7 mb 0.00 in0.0 mm 0.00 in0.0 mm 0.00 in0.0 mm
05:14 AM 50.6°F10.3°C 52.7°F11.5°C 76% Calm Calm -- 30.22 in1023.4 mb 0.00 in0.0 mm 0.00 in0.0 mm 0.00 in0.0 mm
05:15 AM 50.6°F10.3°C 52.6°F11.4°C 76% Calm Calm -- 30.22 in1023.4 mb 0.00 in0.0 mm 0.00 in0.0 mm 0.00 in0.0 mm
05:17 AM 51.8°F11.0°C 53.7°F12.1°C 78% Calm Calm -- 30.22 in1023.4 mb 0.00 in0.0 mm 0.00 in0.0 mm 0.00 in0.0 mm
05:20 AM 52.6°F11.4°C 53.6°F12.0°C 76% Calm Calm -- 30.23 in1023.7 mb 0.00 in0.0 mm 0.00 in0.0 mm 0.00 in0.0 mm
05:21 AM 52.6°F11.4°C 53.6°F12.0°C 76% Calm Calm -- 30.23 in1023.7 mb 0.00 in0.0 mm 0.00 in0.0 mm 0.00 in0.0 mm
05:23 AM 53.8°F12.1°C 54.1°F12.3°C 76% Calm Calm -- 30.23 in1023.7 mb 0.00 in0.0 mm 0.00 in0.0 mm 0.00 in0.0 mm
05:24 AM 53.8°F12.1°C 54.2°F12.3°C 76% Calm Calm -- 30.23 in1023.7 mb 0.00 in0.0 mm 0.00 in0.0 mm 0.00 in0.0 mm
05:26 AM 54.2°F12.3°C 54.4°F12.4°C 75% Calm Calm -- 30.22 in1023.4 mb 0.00 in0.0 mm 0.00 in0.0 mm 0.00 in0.0 mm
05:27 AM 54.2°F12.3°C 54.2°F12.3°C 74% Calm Calm -- 30.23 in1023.7 mb 0.00 in0.0 mm 0.00 in0.0 mm 0.00 in0.0 mm
05:29 AM 54.8°F12.7°C 54.2°F12.3°C 73% Calm Calm -- 30.22 in1023.4 mb 0.00 in0.0 mm 0.00 in0.0 mm 0.00 in0.0 mm
05:30 AM 54.8°F12.7°C 54.4°F12.4°C 73% Calm Calm -- 30.22 in1023.4 mb 0.00 in0.0 mm 0.00 in0.0 mm 0.00 in0.0 mm
05:32 AM 55.1°F12.8°C 54.9°F12.7°C 72% Calm Calm -- 30.23 in1023.7 mb 0.00 in0.0 mm 0.00 in0.0 mm 0.00 in0.0 mm
05:33 AM 55.1°F12.8°C 54.9°F12.7°C 72% Calm Calm -- 30.22 in1023.4 mb 0.00 in0.0 mm 0.00 in0.0 mm 0.00 in0.0 mm
05:35 AM 55.4°F13.0°C 55.3°F12.9°C 71% Calm Calm -- 30.23 in1023.7 mb 0.00 in0.0 mm 0.00 in0.0 mm 0.00 in0.0 mm
05:36 AM 55.5°F13.1°C 55.1°F12.8°C 71% Calm Calm -- 30.22 in1023.4 mb 0.00 in0.0 mm 0.00 in0.0 mm 0.00 in0.0 mm
05:38 AM 56.4°F13.6°C 55.5°F13.1°C 70% Calm Calm -- 30.22 in1023.4 mb 0.00 in0.0 mm 0.00 in0.0 mm 0.00 in0.0 mm
05:39 AM 56.4°F13.6°C 55.3°F12.9°C 70% Calm Calm -- 30.23 in1023.7 mb 0.00 in0.0 mm 0.00 in0.0 mm 0.00 in0.0 mm
05:41 AM 56.6°F13.7°C 55.4°F13.0°C 68% Calm Calm -- 30.23 in1023.7 mb 0.00 in0.0 mm 0.00 in0.0 mm 0.00 in0.0 mm
05:42 AM 56.6°F13.7°C 55.7°F13.2°C 69% Calm Calm -- 30.23 in1023.7 mb 0.00 in0.0 mm 0.00 in0.0 mm 0.00 in0.0 mm
05:44 AM 57.3°F14.1°C 56.2°F13.4°C 69% Calm Calm -- 30.22 in1023.4 mb 0.00 in0.0 mm 0.00 in0.0 mm 0.00 in0.0 mm
05:45 AM 57.4°F14.1°C 56.0°F13.3°C 69% Calm Calm -- 30.23 in1023.7 mb 0.00 in0.0 mm 0.00 in0.0 mm 0.00 in0.0 mm
05:47 AM 58.0°F14.4°C 56.5°F13.6°C 68% Calm Calm -- 30.22 in1023.4 mb 0.00 in0.0 mm 0.00 in0.0 mm 0.00 in0.0 mm
05:48 AM 57.9°F14.4°C 56.4°F13.6°C 68% Calm Calm -- 30.22 in1023.4 mb 0.00 in0.0 mm 0.00 in0.0 mm 0.00 in0.0 mm
05:50 AM 57.7°F14.3°C 56.6°F13.7°C 67% Calm Calm -- 30.23 in1023.7 mb 0.00 in0.0 mm 0.00 in0.0 mm 0.00 in0.0 mm
05:51 AM 57.7°F14.3°C 56.4°F13.6°C 67% Calm Calm -- 30.23 in1023.7 mb 0.00 in0.0 mm 0.00 in0.0 mm 0.00 in0.0 mm
05:53 AM 58.2°F14.6°C 57.3°F14.1°C 67% Calm Calm -- 30.23 in1023.7 mb 0.00 in0.0 mm 0.00 in0.0 mm 0.00 in0.0 mm
05:54 AM 58.3°F14.6°C 57.0°F13.9°C 66% Calm Calm -- 30.23 in1023.7 mb 0.00 in0.0 mm 0.00 in0.0 mm 0.00 in0.0 mm
05:56 AM 59.1°F15.1°C 57.4°F14.1°C 66% Calm Calm -- 30.23 in1023.7 mb 0.00 in0.0 mm 0.00 in0.0 mm 0.00 in0.0 mm
05:57 AM 59.3°F15.2°C 57.5°F14.2°C 66% Calm Calm -- 30.23 in1023.7 mb 0.00 in0.0 mm 0.00 in0.0 mm 0.00 in0.0 mm
05:59 AM 60.9°F16.1°C 57.9°F14.4°C 66% Calm Calm -- 30.23 in1023.7 mb 0.00 in0.0 mm 0.00 in0.0 mm 0.00 in0.0 mm
06:00 AM 60.6°F15.9°C 57.9°F14.4°C 66% Calm Calm -- 30.23 in1023.7 mb 0.00 in0.0 mm 0.00 in0.0 mm 0.00 in0.0 mm
06:02 AM 61.7°F16.5°C 58.3°F14.6°C 66% Calm Calm -- 30.23 in1023.7 mb 0.00 in0.0 mm 0.00 in0.0 mm 0.00 in0.0 mm
06:03 AM 61.7°F16.5°C 58.4°F14.7°C 65% Calm Calm -- 30.23 in1023.7 mb 0.00 in0.0 mm 0.00 in0.0 mm 0.00 in0.0 mm
06:05 AM 61.9°F16.6°C 58.3°F14.6°C 65% Calm Calm -- 30.23 in1023.7 mb 0.00 in0.0 mm 0.00 in0.0 mm 0.00 in0.0 mm
06:06 AM 61.8°F16.6°C 58.6°F14.8°C 65% Calm Calm -- 30.23 in1023.7 mb 0.00 in0.0 mm 0.00 in0.0 mm 0.00 in0.0 mm
06:08 AM 62.5°F16.9°C 59.0°F15.0°C 65% Calm Calm -- 30.23 in1023.7 mb 0.00 in0.0 mm 0.00 in0.0 mm 0.00 in0.0 mm
06:09 AM 62.4°F16.9°C 59.0°F15.0°C 65% Calm Calm -- 30.23 in1023.7 mb 0.00 in0.0 mm 0.00 in0.0 mm 0.00 in0.0 mm
06:11 AM 62.6°F17.0°C 58.8°F14.9°C 64% Calm Calm -- 30.23 in1023.7 mb 0.00 in0.0 mm 0.00 in0.0 mm 0.00 in0.0 mm
06:12 AM 62.6°F17.0°C 59.1°F15.1°C 64% Calm Calm -- 30.23 in1023.7 mb 0.00 in0.0 mm 0.00 in0.0 mm 0.00 in0.0 mm
06:14 AM 62.8°F17.1°C 59.4°F15.2°C 63% Calm Calm -- 30.23 in1023.7 mb 0.00 in0.0 mm 0.00 in0.0 mm 0.00 in0.0 mm
06:15 AM 62.7°F17.1°C 59.2°F15.1°C 63% Calm Calm -- 30.23 in1023.7 mb 0.00 in0.0 mm 0.00 in0.0 mm 0.00 in0.0 mm
06:17 AM 63.6°F17.6°C 59.6°F15.3°C 63% Calm Calm -- 30.23 in1023.7 mb 0.00 in0.0 mm 0.00 in0.0 mm 0.00 in0.0 mm
06:18 AM 63.6°F17.6°C 59.7°F15.4°C 62% Calm Calm -- 30.23 in1023.7 mb 0.00 in0.0 mm 0.00 in0.0 mm 0.00 in0.0 mm
06:20 AM 64.4°F18.0°C 60.0°F15.6°C 62% Calm Calm -- 30.23 in1023.7 mb 0.00 in0.0 mm 0.00 in0.0 mm 0.00 in0.0 mm
06:21 AM 64.4°F18.0°C 59.9°F15.5°C 62% Calm Calm -- 30.23 in1023.7 mb 0.00 in0.0 mm 0.00 in0.0 mm 0.00 in0.0 mm
06:23 AM 64.9°F18.3°C 60.2°F15.7°C 62% Calm Calm -- 30.23 in1023.7 mb 0.00 in0.0 mm 0.00 in0.0 mm 0.00 in0.0 mm
06:24 AM 64.6°F18.1°C 60.3°F15.7°C 62% Calm Calm -- 30.23 in1023.7 mb 0.00 in0.0 mm 0.00 in0.0 mm 0.00 in0.0 mm
06:26 AM 65.9°F18.8°C 60.3°F15.7°C 62% Calm Calm -- 30.23 in1023.7 mb 0.00 in0.0 mm 0.00 in0.0 mm 0.00 in0.0 mm
06:27 AM 65.2°F18.4°C 60.7°F15.9°C 62% Calm Calm -- 30.23 in1023.7 mb 0.00 in0.0 mm 0.00 in0.0 mm 0.00 in0.0 mm
06:29 AM 65.6°F18.7°C 60.9°F16.1°C 62% Calm Calm -- 30.23 in1023.7 mb 0.00 in0.0 mm 0.00 in0.0 mm 0.00 in0.0 mm
06:30 AM 65.6°F18.7°C 60.9°F16.1°C 61% Calm Calm -- 30.23 in1023.7 mb 0.00 in0.0 mm 0.00 in0.0 mm 0.00 in0.0 mm
06:32 AM 65.1°F18.4°C 60.6°F15.9°C 60% Calm Calm -- 30.23 in1023.7 mb 0.00 in0.0 mm 0.00 in0.0 mm 0.00 in0.0 mm
06:33 AM 65.2°F18.4°C 60.5°F15.8°C 60% Calm Calm -- 30.23 in1023.7 mb 0.00 in0.0 mm 0.00 in0.0 mm 0.00 in0.0 mm
06:35 AM 65.6°F18.7°C 60.3°F15.7°C 59% 1.6 mph E2.6 kmh E 1.6 mph2.6 kmh 30.23 in1023.7 mb 0.00 in0.0 mm 0.00 in0.0 mm 0.00 in0.0 mm
06:36 AM 65.8°F18.8°C 60.1°F15.6°C 59% 0.9 mph E1.4 kmh E 1.0 mph1.6 kmh 30.23 in1023.7 mb 0.00 in0.0 mm 0.00 in0.0 mm 0.00 in0.0 mm
06:38 AM 66.0°F18.9°C 61.7°F16.5°C 61% Calm Calm -- 30.23 in1023.7 mb 0.00 in0.0 mm 0.00 in0.0 mm 0.00 in0.0 mm
06:39 AM 66.0°F18.9°C 61.7°F16.5°C 61% Calm Calm -- 30.23 in1023.7 mb 0.00 in0.0 mm 0.00 in0.0 mm 0.00 in0.0 mm
06:41 AM 65.8°F18.8°C 61.3°F16.3°C 59% Calm Calm -- 30.23 in1023.7 mb 0.00 in0.0 mm 0.00 in0.0 mm 0.00 in0.0 mm
06:42 AM 65.8°F18.8°C 61.1°F16.2°C 59% Calm Calm -- 30.23 in1023.7 mb 0.00 in0.0 mm 0.00 in0.0 mm 0.00 in0.0 mm
06:44 AM 65.4°F18.6°C 61.5°F16.4°C 59% Calm Calm -- 30.23 in1023.7 mb 0.00 in0.0 mm 0.00 in0.0 mm 0.00 in0.0 mm
06:45 AM 65.8°F18.8°C 61.4°F16.3°C 59% Calm Calm -- 30.23 in1023.7 mb 0.00 in0.0 mm 0.00 in0.0 mm 0.00 in0.0 mm
06:47 AM 66.3°F19.1°C 61.9°F16.6°C 59% Calm Calm -- 30.23 in1023.7 mb 0.00 in0.0 mm 0.00 in0.0 mm 0.00 in0.0 mm
06:48 AM 66.3°F19.1°C 62.1°F16.7°C 59% Calm Calm -- 30.23 in1023.7 mb 0.00 in0.0 mm 0.00 in0.0 mm 0.00 in0.0 mm
06:50 AM 66.2°F19.0°C 61.3°F16.3°C 58% Calm Calm -- 30.23 in1023.7 mb 0.00 in0.0 mm 0.00 in0.0 mm 0.00 in0.0 mm
06:51 AM 66.3°F19.1°C 61.7°F16.5°C 58% Calm Calm -- 30.23 in1023.7 mb 0.00 in0.0 mm 0.00 in0.0 mm 0.00 in0.0 mm
06:53 AM 66.8°F19.3°C 61.6°F16.4°C 58% Calm Calm -- 30.23 in1023.7 mb 0.00 in0.0 mm 0.00 in0.0 mm 0.00 in0.0 mm
06:54 AM 67.2°F19.6°C 62.1°F16.7°C 59% Calm Calm -- 30.23 in1023.7 mb 0.00 in0.0 mm 0.00 in0.0 mm 0.00 in0.0 mm
06:56 AM 65.9°F18.8°C 62.0°F16.7°C 58% Calm Calm -- 30.23 in1023.7 mb 0.00 in0.0 mm 0.00 in0.0 mm 0.00 in0.0 mm
06:57 AM 66.1°F18.9°C 62.3°F16.8°C 58% Calm Calm -- 30.23 in1023.7 mb 0.00 in0.0 mm 0.00 in0.0 mm 0.00 in0.0 mm
06:59 AM 67.6°F19.8°C 62.3°F16.8°C 58% Calm Calm -- 30.23 in1023.7 mb 0.00 in0.0 mm 0.00 in0.0 mm 0.00 in0.0 mm
07:00 AM 67.8°F19.9°C 62.4°F16.9°C 58% Calm Calm -- 30.23 in1023.7 mb 0.00 in0.0 mm 0.00 in0.0 mm 0.00 in0.0 mm
07:02 AM 66.7°F19.3°C 62.0°F16.7°C 58% Calm Calm -- 30.23 in1023.7 mb 0.00 in0.0 mm 0.00 in0.0 mm 0.00 in0.0 mm
07:03 AM 67.0°F19.4°C 62.1°F16.7°C 58% Calm Calm -- 30.23 in1023.7 mb 0.00 in0.0 mm 0.00 in0.0 mm 0.00 in0.0 mm
07:05 AM 66.2°F19.0°C 62.2°F16.8°C 59% Calm Calm -- 30.23 in1023.7 mb 0.00 in0.0 mm 0.00 in0.0 mm 0.00 in0.0 mm
07:06 AM 66.4°F19.1°C 62.1°F16.7°C 59% Calm Calm -- 30.23 in1023.7 mb 0.00 in0.0 mm 0.00 in0.0 mm 0.00 in0.0 mm
07:08 AM 66.4°F19.1°C 61.4°F16.3°C 58% Calm Calm -- 30.23 in1023.7 mb 0.00 in0.0 mm 0.00 in0.0 mm 0.00 in0.0 mm
07:09 AM 66.7°F19.3°C 61.5°F16.4°C 58% Calm Calm -- 30.23 in1023.7 mb 0.00 in0.0 mm 0.00 in0.0 mm 0.00 in0.0 mm
07:11 AM 66.2°F19.0°C 61.6°F16.4°C 59% Calm Calm -- 30.23 in1023.7 mb 0.00 in0.0 mm 0.00 in0.0 mm 0.00 in0.0 mm
07:12 AM 66.5°F19.2°C 61.9°F16.6°C 59% Calm Calm -- 30.23 in1023.7 mb 0.00 in0.0 mm 0.00 in0.0 mm 0.00 in0.0 mm
07:14 AM 67.4°F19.7°C 61.9°F16.6°C 60% Calm Calm -- 30.23 in1023.7 mb 0.00 in0.0 mm 0.00 in0.0 mm 0.00 in0.0 mm
07:15 AM 67.4°F19.7°C 61.8°F16.6°C 60% Calm Calm -- 30.23 in1023.7 mb 0.00 in0.0 mm 0.00 in0.0 mm 0.00 in0.0 mm
07:17 AM 66.3°F19.1°C 61.8°F16.6°C 59% Calm Calm -- 30.23 in1023.7 mb 0.00 in0.0 mm 0.00 in0.0 mm 0.00 in0.0 mm
07:18 AM 66.4°F19.1°C 61.7°F16.5°C 59% Calm Calm -- 30.23 in1023.7 mb 0.00 in0.0 mm 0.00 in0.0 mm 0.00 in0.0 mm
07:20 AM 66.4°F19.1°C 61.7°F16.5°C 59% Calm Calm -- 30.23 in1023.7 mb 0.00 in0.0 mm 0.00 in0.0 mm 0.00 in0.0 mm
07:21 AM 66.4°F19.1°C 61.9°F16.6°C 59% Calm Calm -- 30.23 in1023.7 mb 0.00 in0.0 mm 0.00 in0.0 mm 0.00 in0.0 mm
07:23 AM 66.7°F19.3°C 61.5°F16.4°C 59% Calm Calm -- 30.23 in1023.7 mb 0.00 in0.0 mm 0.00 in0.0 mm 0.00 in0.0 mm
07:24 AM 66.8°F19.3°C 61.4°F16.3°C 59% Calm Calm -- 30.23 in1023.7 mb 0.00 in0.0 mm 0.00 in0.0 mm 0.00 in0.0 mm
07:26 AM 66.3°F19.1°C 61.5°F16.4°C 59% Calm Calm -- 30.23 in1023.7 mb 0.00 in0.0 mm 0.00 in0.0 mm 0.00 in0.0 mm
07:27 AM 66.7°F19.3°C 61.8°F16.6°C 59% Calm Calm -- 30.23 in1023.7 mb 0.00 in0.0 mm 0.00 in0.0 mm 0.00 in0.0 mm
07:29 AM 66.1°F18.9°C 61.5°F16.4°C 60% Calm Calm -- 30.23 in1023.7 mb 0.00 in0.0 mm 0.00 in0.0 mm 0.00 in0.0 mm
07:30 AM 66.3°F19.1°C 61.5°F16.4°C 60% Calm Calm -- 30.23 in1023.7 mb 0.00 in0.0 mm 0.00 in0.0 mm 0.00 in0.0 mm
07:32 AM 65.5°F18.6°C 61.9°F16.6°C 61% 0.8 mph WSW1.3 kmh WSW 0.8 mph1.3 kmh 30.23 in1023.7 mb 0.00 in0.0 mm 0.00 in0.0 mm 0.00 in0.0 mm
07:33 AM 65.5°F18.6°C 62.2°F16.8°C 62% 0.7 mph WSW1.1 kmh WSW 0.7 mph1.1 kmh 30.23 in1023.7 mb 0.00 in0.0 mm 0.00 in0.0 mm 0.00 in0.0 mm
07:35 AM 65.5°F18.6°C 61.4°F16.3°C 61% Calm Calm -- 30.23 in1023.7 mb 0.00 in0.0 mm 0.00 in0.0 mm 0.00 in0.0 mm
07:36 AM 65.3°F18.5°C 61.9°F16.6°C 61% Calm Calm -- 30.23 in1023.7 mb 0.00 in0.0 mm 0.00 in0.0 mm 0.00 in0.0 mm
07:38 AM 65.8°F18.8°C 61.6°F16.4°C 61% Calm Calm -- 30.23 in1023.7 mb 0.00 in0.0 mm 0.00 in0.0 mm 0.00 in0.0 mm
07:39 AM 66.2°F19.0°C 61.6°F16.4°C 61% Calm Calm -- 30.23 in1023.7 mb 0.00 in0.0 mm 0.00 in0.0 mm 0.00 in0.0 mm
07:41 AM 65.9°F18.8°C 61.4°F16.3°C 61% Calm Calm -- 30.23 in1023.7 mb 0.00 in0.0 mm 0.00 in0.0 mm 0.00 in0.0 mm
07:42 AM 65.8°F18.8°C 61.5°F16.4°C 61% Calm Calm -- 30.23 in1023.7 mb 0.00 in0.0 mm 0.00 in0.0 mm 0.00 in0.0 mm
07:44 AM 65.2°F18.4°C 61.2°F16.2°C 61% Calm Calm -- 30.23 in1023.7 mb 0.00 in0.0 mm 0.00 in0.0 mm 0.00 in0.0 mm
07:45 AM 65.3°F18.5°C 61.7°F16.5°C 61% Calm Calm -- 30.23 in1023.7 mb 0.00 in0.0 mm 0.00 in0.0 mm 0.00 in0.0 mm
07:47 AM 65.3°F18.5°C 62.0°F16.7°C 63% Calm Calm -- 30.23 in1023.7 mb 0.00 in0.0 mm 0.00 in0.0 mm 0.00 in0.0 mm
07:48 AM 65.1°F18.4°C 61.8°F16.6°C 62% Calm Calm -- 30.23 in1023.7 mb 0.00 in0.0 mm 0.00 in0.0 mm 0.00 in0.0 mm
07:50 AM 65.8°F18.8°C 62.0°F16.7°C 63% Calm Calm -- 30.23 in1023.7 mb 0.00 in0.0 mm 0.00 in0.0 mm 0.00 in0.0 mm
07:51 AM 66.1°F18.9°C 62.0°F16.7°C 64% 0.2 mph WSW0.3 kmh WSW 0.2 mph0.3 kmh 30.23 in1023.7 mb 0.00 in0.0 mm 0.00 in0.0 mm 0.00 in0.0 mm
07:53 AM 65.6°F18.7°C 61.6°F16.4°C 63% Calm Calm -- 30.23 in1023.7 mb 0.00 in0.0 mm 0.00 in0.0 mm 0.00 in0.0 mm
07:54 AM 66.1°F18.9°C 61.6°F16.4°C 63% Calm Calm -- 30.23 in1023.7 mb 0.00 in0.0 mm 0.00 in0.0 mm 0.00 in0.0 mm
07:56 AM 65.5°F18.6°C 61.6°F16.4°C 63% Calm Calm -- 30.23 in1023.7 mb 0.00 in0.0 mm 0.00 in0.0 mm 0.00 in0.0 mm
07:57 AM 65.4°F18.6°C 62.0°F16.7°C 63% Calm Calm -- 30.23 in1023.7 mb 0.00 in0.0 mm 0.00 in0.0 mm 0.00 in0.0 mm
07:59 AM 65.9°F18.8°C 62.1°F16.7°C 64% 1.6 mph W2.6 kmh W 1.6 mph2.6 kmh 30.23 in1023.7 mb 0.00 in0.0 mm 0.00 in0.0 mm 0.00 in0.0 mm
08:00 AM 66.0°F18.9°C 61.9°F16.6°C 64% 0.9 mph W1.4 kmh W 1.0 mph1.6 kmh 30.23 in1023.7 mb 0.00 in0.0 mm 0.00 in0.0 mm 0.00 in0.0 mm
08:02 AM 65.5°F18.6°C 61.9°F16.6°C 64% Calm Calm -- 30.23 in1023.7 mb 0.00 in0.0 mm 0.00 in0.0 mm 0.00 in0.0 mm
08:03 AM 65.5°F18.6°C 61.9°F16.6°C 63% Calm Calm -- 30.23 in1023.7 mb 0.00 in0.0 mm 0.00 in0.0 mm 0.00 in0.0 mm
08:05 AM 65.6°F18.7°C 61.9°F16.6°C 64% 1.6 mph W2.6 kmh W 1.6 mph2.6 kmh 30.23 in1023.7 mb 0.00 in0.0 mm 0.00 in0.0 mm 0.00 in0.0 mm
08:06 AM 65.8°F18.8°C 62.3°F16.8°C 65% 1.2 mph W1.9 kmh W 1.3 mph2.1 kmh 30.23 in1023.7 mb 0.00 in0.0 mm 0.00 in0.0 mm 0.00 in0.0 mm
08:11 AM 65.9°F18.8°C 62.1°F16.7°C 65% Calm Calm -- 30.23 in1023.7 mb 0.00 in0.0 mm 0.00 in0.0 mm 0.00 in0.0 mm
08:12 AM 66.1°F18.9°C 61.9°F16.6°C 65% Calm Calm -- 30.23 in1023.7 mb 0.00 in0.0 mm 0.00 in0.0 mm 0.00 in0.0 mm
08:14 AM 65.3°F18.5°C 62.3°F16.8°C 65% 1.1 mph NNW1.8 kmh NNW 1.2 mph1.9 kmh 30.23 in1023.7 mb 0.00 in0.0 mm 0.00 in0.0 mm 0.00 in0.0 mm
08:15 AM 65.6°F18.7°C 62.0°F16.7°C 65% 1.7 mph SW2.7 kmh SW 1.8 mph2.9 kmh 30.23 in1023.7 mb 0.00 in0.0 mm 0.00 in0.0 mm 0.00 in0.0 mm
08:17 AM 65.3°F18.5°C 61.7°F16.5°C 65% 2.4 mph SW3.9 kmh SW 2.4 mph3.9 kmh 30.23 in1023.7 mb 0.00 in0.0 mm 0.00 in0.0 mm 0.00 in0.0 mm
08:18 AM 65.3°F18.5°C 61.8°F16.6°C 65% 2.1 mph SW3.4 kmh SW 2.1 mph3.4 kmh 30.23 in1023.7 mb 0.00 in0.0 mm 0.00 in0.0 mm 0.00 in0.0 mm
08:20 AM 65.3°F18.5°C 61.9°F16.6°C 65% 0.8 mph SW1.3 kmh SW 0.8 mph1.3 kmh 30.23 in1023.7 mb 0.00 in0.0 mm 0.00 in0.0 mm 0.00 in0.0 mm
08:21 AM 65.5°F18.6°C 61.9°F16.6°C 66% Calm Calm -- 30.23 in1023.7 mb 0.00 in0.0 mm 0.00 in0.0 mm 0.00 in0.0 mm
08:23 AM 65.8°F18.8°C 62.0°F16.7°C 66% Calm Calm -- 30.23 in1023.7 mb 0.00 in0.0 mm 0.00 in0.0 mm 0.00 in0.0 mm
08:24 AM 66.1°F18.9°C 61.7°F16.5°C 66% Calm Calm -- 30.23 in1023.7 mb 0.00 in0.0 mm 0.00 in0.0 mm 0.00 in0.0 mm
08:26 AM 65.1°F18.4°C 61.9°F16.6°C 66% Calm Calm -- 30.23 in1023.7 mb 0.00 in0.0 mm 0.00 in0.0 mm 0.00 in0.0 mm
08:27 AM 65.2°F18.4°C 61.7°F16.5°C 66% Calm Calm -- 30.23 in1023.7 mb 0.00 in0.0 mm 0.00 in0.0 mm 0.00 in0.0 mm
08:29 AM 66.2°F19.0°C 62.1°F16.7°C 66% Calm Calm -- 30.23 in1023.7 mb 0.00 in0.0 mm 0.00 in0.0 mm 0.00 in0.0 mm
08:30 AM 66.5°F19.2°C 62.2°F16.8°C 66% Calm Calm -- 30.23 in1023.7 mb 0.00 in0.0 mm 0.00 in0.0 mm 0.00 in0.0 mm
08:32 AM 65.9°F18.8°C 62.1°F16.7°C 66% Calm Calm -- 30.23 in1023.7 mb 0.00 in0.0 mm 0.00 in0.0 mm 0.00 in0.0 mm
08:33 AM 66.0°F18.9°C 62.1°F16.7°C 66% Calm Calm -- 30.23 in1023.7 mb 0.00 in0.0 mm 0.00 in0.0 mm 0.00 in0.0 mm
08:35 AM 65.3°F18.5°C 61.8°F16.6°C 66% 2.4 mph WSW3.9 kmh WSW 2.4 mph3.9 kmh 30.23 in1023.7 mb 0.00 in0.0 mm 0.00 in0.0 mm 0.00 in0.0 mm
08:36 AM 65.5°F18.6°C 61.8°F16.6°C 66% 2.1 mph W3.4 kmh W 2.1 mph3.4 kmh 30.23 in1023.7 mb 0.00 in0.0 mm 0.00 in0.0 mm 0.00 in0.0 mm
08:38 AM 65.5°F18.6°C 62.3°F16.8°C 67% 2.0 mph SW3.2 kmh SW 2.0 mph3.2 kmh 30.23 in1023.7 mb 0.00 in0.0 mm 0.00 in0.0 mm 0.00 in0.0 mm
08:39 AM 65.5°F18.6°C 62.4°F16.9°C 67% 1.3 mph SW2.1 kmh SW 1.3 mph2.1 kmh 30.23 in1023.7 mb 0.00 in0.0 mm 0.00 in0.0 mm 0.00 in0.0 mm
08:41 AM 65.3°F18.5°C 62.1°F16.7°C 67% 0.4 mph SW0.6 kmh SW 0.4 mph0.6 kmh 30.23 in1023.7 mb 0.00 in0.0 mm 0.00 in0.0 mm 0.00 in0.0 mm
08:42 AM 65.4°F18.6°C 62.4°F16.9°C 67% 0.9 mph SW1.4 kmh SW 0.9 mph1.4 kmh 30.23 in1023.7 mb 0.00 in0.0 mm 0.00 in0.0 mm 0.00 in0.0 mm
08:44 AM 66.1°F18.9°C 62.1°F16.7°C 67% Calm Calm -- 30.23 in1023.7 mb 0.00 in0.0 mm 0.00 in0.0 mm 0.00 in0.0 mm
08:45 AM 66.3°F19.1°C 62.3°F16.8°C 68% Calm Calm -- 30.23 in1023.7 mb 0.00 in0.0 mm 0.00 in0.0 mm 0.00 in0.0 mm
08:47 AM 65.9°F18.8°C 61.7°F16.5°C 67% Calm Calm -- 30.23 in1023.7 mb 0.00 in0.0 mm 0.00 in0.0 mm 0.00 in0.0 mm
08:48 AM 66.3°F19.1°C 62.3°F16.8°C 67% Calm Calm -- 30.23 in1023.7 mb 0.00 in0.0 mm 0.00 in0.0 mm 0.00 in0.0 mm
08:50 AM 66.5°F19.2°C 62.2°F16.8°C 67% Calm Calm -- 30.23 in1023.7 mb 0.00 in0.0 mm 0.00 in0.0 mm 0.00 in0.0 mm
08:51 AM 66.5°F19.2°C 62.3°F16.8°C 68% Calm Calm -- 30.23 in1023.7 mb 0.00 in0.0 mm 0.00 in0.0 mm 0.00 in0.0 mm
08:53 AM 66.5°F19.2°C 62.7°F17.1°C 68% 1.5 mph SW2.4 kmh SW 1.5 mph2.4 kmh 30.23 in1023.7 mb 0.00 in0.0 mm 0.00 in0.0 mm 0.00 in0.0 mm
08:54 AM 66.5°F19.2°C 62.5°F16.9°C 68% 1.6 mph SW2.6 kmh SW 1.6 mph2.6 kmh 30.23 in1023.7 mb 0.00 in0.0 mm 0.00 in0.0 mm 0.00 in0.0 mm
08:56 AM 67.1°F19.5°C 63.0°F17.2°C 69% 0.8 mph SW1.3 kmh SW 0.8 mph1.3 kmh 30.23 in1023.7 mb 0.00 in0.0 mm 0.00 in0.0 mm 0.00 in0.0 mm
08:57 AM 67.2°F19.6°C 63.3°F17.4°C 69% 0.9 mph SW1.4 kmh SW 1.0 mph1.6 kmh 30.23 in1023.7 mb 0.00 in0.0 mm 0.00 in0.0 mm 0.00 in0.0 mm
08:59 AM 67.3°F19.6°C 63.3°F17.4°C 69% 0.8 mph W1.3 kmh W 0.8 mph1.3 kmh 30.23 in1023.7 mb 0.00 in0.0 mm 0.00 in0.0 mm 0.00 in0.0 mm
09:02 AM 66.2°F19.0°C 62.8°F17.1°C 69% 0.4 mph WSW0.6 kmh WSW 0.4 mph0.6 kmh 30.23 in1023.7 mb 0.00 in0.0 mm 0.00 in0.0 mm 0.00 in0.0 mm
09:03 AM 66.3°F19.1°C 63.0°F17.2°C 69% 0.5 mph WSW0.8 kmh WSW 0.5 mph0.8 kmh 30.23 in1023.7 mb 0.00 in0.0 mm 0.00 in0.0 mm 0.00 in0.0 mm
09:05 AM 66.5°F19.2°C 62.3°F16.8°C 68% Calm Calm -- 30.23 in1023.7 mb 0.00 in0.0 mm 0.00 in0.0 mm 0.00 in0.0 mm
09:06 AM 66.5°F19.2°C 62.4°F16.9°C 68% 0.3 mph WNW0.5 kmh WNW 0.3 mph0.5 kmh 30.23 in1023.7 mb 0.00 in0.0 mm 0.00 in0.0 mm 0.00 in0.0 mm
09:08 AM 67.0°F19.4°C 62.7°F17.1°C 69% 4.1 mph WSW6.6 kmh WSW 4.1 mph6.6 kmh 30.23 in1023.7 mb 0.00 in0.0 mm 0.00 in0.0 mm 0.00 in0.0 mm
09:09 AM 67.2°F19.6°C 63.1°F17.3°C 69% 4.2 mph WSW6.8 kmh WSW 4.2 mph6.8 kmh 30.23 in1023.7 mb 0.00 in0.0 mm 0.00 in0.0 mm 0.00 in0.0 mm
09:11 AM 66.9°F19.4°C 62.8°F17.1°C 69% 1.9 mph WSW3.1 kmh WSW 2.0 mph3.2 kmh 30.23 in1023.7 mb 0.00 in0.0 mm 0.00 in0.0 mm 0.00 in0.0 mm
09:12 AM 66.9°F19.4°C 63.1°F17.3°C 69% 2.3 mph W3.7 kmh W 2.4 mph3.9 kmh 30.23 in1023.7 mb 0.00 in0.0 mm 0.00 in0.0 mm 0.00 in0.0 mm
09:14 AM 66.7°F19.3°C 63.5°F17.5°C 70% 3.2 mph SSW5.1 kmh SSW 3.2 mph5.1 kmh 30.23 in1023.7 mb 0.00 in0.0 mm 0.00 in0.0 mm 0.00 in0.0 mm
09:15 AM 66.7°F19.3°C 63.2°F17.3°C 69% 2.6 mph SSW4.2 kmh SSW 2.7 mph4.3 kmh 30.23 in1023.7 mb 0.00 in0.0 mm 0.00 in0.0 mm 0.00 in0.0 mm
09:17 AM 66.5°F19.2°C 62.8°F17.1°C 69% 1.6 mph SW2.6 kmh SW 1.6 mph2.6 kmh 30.23 in1023.7 mb 0.00 in0.0 mm 0.00 in0.0 mm 0.00 in0.0 mm
09:18 AM 66.5°F19.2°C 63.1°F17.3°C 69% 2.1 mph SW3.4 kmh SW 2.2 mph3.5 kmh 30.23 in1023.7 mb 0.00 in0.0 mm 0.00 in0.0 mm 0.00 in0.0 mm
09:20 AM 66.7°F19.3°C 63.1°F17.3°C 70% 2.0 mph W3.2 kmh W 2.0 mph3.2 kmh 30.23 in1023.7 mb 0.00 in0.0 mm 0.00 in0.0 mm 0.00 in0.0 mm
09:21 AM 66.9°F19.4°C 63.0°F17.2°C 69% 2.1 mph WSW3.4 kmh WSW 2.1 mph3.4 kmh 30.23 in1023.7 mb 0.00 in0.0 mm 0.00 in0.0 mm 0.00 in0.0 mm
09:23 AM 67.4°F19.7°C 62.9°F17.2°C 69% 0.8 mph WSW1.3 kmh WSW 0.8 mph1.3 kmh 30.23 in1023.7 mb 0.00 in0.0 mm 0.00 in0.0 mm 0.00 in0.0 mm
09:24 AM 67.4°F19.7°C 62.6°F17.0°C 69% 0.5 mph WSW0.8 kmh WSW 0.5 mph0.8 kmh 30.23 in1023.7 mb 0.00 in0.0 mm 0.00 in0.0 mm 0.00 in0.0 mm
09:26 AM 68.0°F20.0°C 63.2°F17.3°C 70% 2.4 mph W3.9 kmh W 2.4 mph3.9 kmh 30.23 in1023.7 mb 0.00 in0.0 mm 0.00 in0.0 mm 0.00 in0.0 mm
09:27 AM 68.1°F20.1°C 62.9°F17.2°C 69% 2.5 mph W4.0 kmh W 2.5 mph4.0 kmh 30.23 in1023.7 mb 0.00 in0.0 mm 0.00 in0.0 mm 0.00 in0.0 mm
09:29 AM 68.2°F20.1°C 63.2°F17.3°C 69% 2.4 mph WSW3.9 kmh WSW 2.4 mph3.9 kmh 30.22 in1023.4 mb 0.00 in0.0 mm 0.00 in0.0 mm 0.00 in0.0 mm
09:30 AM 68.3°F20.2°C 63.5°F17.5°C 69% 3.0 mph W4.8 kmh W 3.1 mph5.0 kmh 30.23 in1023.7 mb 0.00 in0.0 mm 0.00 in0.0 mm 0.00 in0.0 mm
09:32 AM 68.1°F20.1°C 63.4°F17.4°C 70% 4.4 mph SW7.1 kmh SW 4.4 mph7.1 kmh 30.23 in1023.7 mb 0.00 in0.0 mm 0.00 in0.0 mm 0.00 in0.0 mm
09:33 AM 68.1°F20.1°C 63.3°F17.4°C 69% 2.8 mph SW4.5 kmh SW 2.8 mph4.5 kmh 30.22 in1023.4 mb 0.00 in0.0 mm 0.00 in0.0 mm 0.00 in0.0 mm
09:35 AM 69.1°F20.6°C 63.4°F17.4°C 69% 2.4 mph NNW3.9 kmh NNW 2.5 mph4.0 kmh 30.22 in1023.4 mb 0.00 in0.0 mm 0.00 in0.0 mm 0.00 in0.0 mm
09:36 AM 69.2°F20.7°C 63.4°F17.4°C 69% 2.4 mph NW3.9 kmh NW 2.4 mph3.9 kmh 30.22 in1023.4 mb 0.00 in0.0 mm 0.00 in0.0 mm 0.00 in0.0 mm
09:38 AM 68.7°F20.4°C 63.2°F17.3°C 69% 1.6 mph WSW2.6 kmh WSW 1.6 mph2.6 kmh 30.22 in1023.4 mb 0.00 in0.0 mm 0.00 in0.0 mm 0.00 in0.0 mm
09:39 AM 68.7°F20.4°C 63.4°F17.4°C 69% 1.8 mph WSW2.9 kmh WSW 1.9 mph3.1 kmh 30.22 in1023.4 mb 0.00 in0.0 mm 0.00 in0.0 mm 0.00 in0.0 mm
09:41 AM 69.7°F20.9°C 63.9°F17.7°C 69% 3.0 mph W4.8 kmh W 3.2 mph5.1 kmh 30.23 in1023.7 mb 0.00 in0.0 mm 0.00 in0.0 mm 0.00 in0.0 mm
09:42 AM 69.7°F20.9°C 64.0°F17.8°C 70% 2.4 mph W3.9 kmh W 2.6 mph4.2 kmh 30.22 in1023.4 mb 0.00 in0.0 mm 0.00 in0.0 mm 0.00 in0.0 mm
09:44 AM 69.7°F20.9°C 63.6°F17.6°C 69% 1.6 mph W2.6 kmh W 1.6 mph2.6 kmh 30.22 in1023.4 mb 0.00 in0.0 mm 0.00 in0.0 mm 0.00 in0.0 mm
09:45 AM 69.7°F20.9°C 63.7°F17.6°C 68% 1.2 mph W1.9 kmh W 1.3 mph2.1 kmh 30.23 in1023.7 mb 0.00 in0.0 mm 0.00 in0.0 mm 0.00 in0.0 mm
09:50 AM 71.4°F21.9°C 63.6°F17.6°C 67% 0.8 mph WNW1.3 kmh WNW 0.8 mph1.3 kmh 30.22 in1023.4 mb 0.00 in0.0 mm 0.00 in0.0 mm 0.00 in0.0 mm
09:51 AM 71.5°F21.9°C 63.6°F17.6°C 67% 0.2 mph WNW0.3 kmh WNW 0.3 mph0.5 kmh 30.22 in1023.4 mb 0.00 in0.0 mm 0.00 in0.0 mm 0.00 in0.0 mm
09:53 AM 72.5°F22.5°C 64.4°F18.0°C 68% 3.2 mph NNW5.1 kmh NNW 3.3 mph5.3 kmh 30.22 in1023.4 mb 0.00 in0.0 mm 0.00 in0.0 mm 0.00 in0.0 mm
09:54 AM 72.6°F22.6°C 64.7°F18.2°C 68% 3.5 mph NNW5.6 kmh NNW 3.7 mph6.0 kmh 30.22 in1023.4 mb 0.00 in0.0 mm 0.00 in0.0 mm 0.00 in0.0 mm
09:56 AM 71.4°F21.9°C 64.2°F17.9°C 67% 3.6 mph SW5.8 kmh SW 3.6 mph5.8 kmh 30.22 in1023.4 mb 0.00 in0.0 mm 0.00 in0.0 mm 0.00 in0.0 mm
09:57 AM 71.5°F21.9°C 64.2°F17.9°C 66% 2.8 mph SW4.5 kmh SW 2.8 mph4.5 kmh 30.22 in1023.4 mb 0.00 in0.0 mm 0.00 in0.0 mm 0.00 in0.0 mm
09:59 AM 71.7°F22.1°C 64.3°F17.9°C 66% 3.6 mph SW5.8 kmh SW 3.7 mph6.0 kmh 30.22 in1023.4 mb 0.00 in0.0 mm 0.00 in0.0 mm 0.00 in0.0 mm
10:00 AM 71.7°F22.1°C 64.3°F17.9°C 66% 3.3 mph SW5.3 kmh SW 3.3 mph5.3 kmh 30.22 in1023.4 mb 0.00 in0.0 mm 0.00 in0.0 mm 0.00 in0.0 mm
10:02 AM 72.1°F22.3°C 64.4°F18.0°C 65% 1.2 mph SW1.9 kmh SW 1.2 mph1.9 kmh 30.22 in1023.4 mb 0.00 in0.0 mm 0.00 in0.0 mm 0.00 in0.0 mm
10:03 AM 71.9°F22.2°C 64.3°F17.9°C 66% 1.9 mph SW3.1 kmh SW 1.9 mph3.1 kmh 30.22 in1023.4 mb 0.00 in0.0 mm 0.00 in0.0 mm 0.00 in0.0 mm
10:05 AM 72.8°F22.7°C 65.1°F18.4°C 66% 4.0 mph W6.4 kmh W 4.1 mph6.6 kmh 30.22 in1023.4 mb 0.00 in0.0 mm 0.00 in0.0 mm 0.00 in0.0 mm
10:06 AM 73.0°F22.8°C 65.2°F18.4°C 66% 3.2 mph WNW5.1 kmh WNW 3.2 mph5.1 kmh 30.22 in1023.4 mb 0.00 in0.0 mm 0.00 in0.0 mm 0.00 in0.0 mm
10:08 AM 72.4°F22.4°C 65.5°F18.6°C 66% 2.0 mph W3.2 kmh W 2.0 mph3.2 kmh 30.22 in1023.4 mb 0.00 in0.0 mm 0.00 in0.0 mm 0.00 in0.0 mm
10:09 AM 72.4°F22.4°C 65.6°F18.7°C 66% 1.9 mph SW3.1 kmh SW 1.9 mph3.1 kmh 30.22 in1023.4 mb 0.00 in0.0 mm 0.00 in0.0 mm 0.00 in0.0 mm
10:11 AM 73.2°F22.9°C 65.8°F18.8°C 65% 1.5 mph NNW2.4 kmh NNW 1.6 mph2.6 kmh 30.22 in1023.4 mb 0.00 in0.0 mm 0.00 in0.0 mm 0.00 in0.0 mm
10:12 AM 73.2°F22.9°C 66.0°F18.9°C 65% 2.1 mph SW3.4 kmh SW 2.1 mph3.4 kmh 30.22 in1023.4 mb 0.00 in0.0 mm 0.00 in0.0 mm 0.00 in0.0 mm
10:14 AM 72.8°F22.7°C 65.5°F18.6°C 63% 2.0 mph SSW3.2 kmh SSW 2.0 mph3.2 kmh 30.21 in1023.0 mb 0.00 in0.0 mm 0.00 in0.0 mm 0.00 in0.0 mm
10:15 AM 72.8°F22.7°C 65.2°F18.4°C 63% 2.2 mph SSW3.5 kmh SSW 2.3 mph3.7 kmh 30.21 in1023.0 mb 0.00 in0.0 mm 0.00 in0.0 mm 0.00 in0.0 mm
10:17 AM 72.8°F22.7°C 65.4°F18.6°C 62% 1.6 mph NNW2.6 kmh NNW 1.6 mph2.6 kmh 30.21 in1023.0 mb 0.00 in0.0 mm 0.00 in0.0 mm 0.00 in0.0 mm
10:18 AM 72.8°F22.7°C 65.5°F18.6°C 63% 0.9 mph SSW1.4 kmh SSW 0.9 mph1.4 kmh 30.21 in1023.0 mb 0.00 in0.0 mm 0.00 in0.0 mm 0.00 in0.0 mm
10:20 AM 74.0°F23.3°C 66.1°F18.9°C 64% 0.8 mph WSW1.3 kmh WSW 0.8 mph1.3 kmh 30.22 in1023.4 mb 0.00 in0.0 mm 0.00 in0.0 mm 0.00 in0.0 mm
10:21 AM 73.9°F23.3°C 66.3°F19.1°C 64% 0.7 mph WSW1.1 kmh WSW 0.8 mph1.3 kmh 30.22 in1023.4 mb 0.00 in0.0 mm 0.00 in0.0 mm 0.00 in0.0 mm
10:23 AM 74.4°F23.6°C 65.5°F18.6°C 61% 2.0 mph WNW3.2 kmh WNW 2.0 mph3.2 kmh 30.21 in1023.0 mb 0.00 in0.0 mm 0.00 in0.0 mm 0.00 in0.0 mm
10:24 AM 74.5°F23.6°C 65.4°F18.6°C 61% 2.1 mph WNW3.4 kmh WNW 2.1 mph3.4 kmh 30.22 in1023.4 mb 0.00 in0.0 mm 0.00 in0.0 mm 0.00 in0.0 mm
10:26 AM 74.3°F23.5°C 65.1°F18.4°C 59% 1.6 mph W2.6 kmh W 1.6 mph2.6 kmh 30.21 in1023.0 mb 0.00 in0.0 mm 0.00 in0.0 mm 0.00 in0.0 mm
10:27 AM 74.4°F23.6°C 65.0°F18.3°C 59% 2.1 mph W3.4 kmh W 2.1 mph3.4 kmh 30.21 in1023.0 mb 0.00 in0.0 mm 0.00 in0.0 mm 0.00 in0.0 mm
10:29 AM 74.5°F23.6°C 66.1°F18.9°C 60% 1.2 mph W1.9 kmh W 1.2 mph1.9 kmh 30.21 in1023.0 mb 0.00 in0.0 mm 0.00 in0.0 mm 0.00 in0.0 mm
10:32 AM 73.9°F23.3°C 66.3°F19.1°C 60% 2.8 mph W4.5 kmh W 2.9 mph4.7 kmh 30.22 in1023.4 mb 0.00 in0.0 mm 0.00 in0.0 mm 0.00 in0.0 mm
10:33 AM 73.9°F23.3°C 66.0°F18.9°C 60% 2.3 mph WSW3.7 kmh WSW 2.4 mph3.9 kmh 30.21 in1023.0 mb 0.00 in0.0 mm 0.00 in0.0 mm 0.00 in0.0 mm
10:35 AM 75.1°F23.9°C 65.5°F18.6°C 58% 4.2 mph NNW6.8 kmh NNW 4.3 mph6.9 kmh 30.21 in1023.0 mb 0.00 in0.0 mm 0.00 in0.0 mm 0.00 in0.0 mm
10:36 AM 75.2°F24.0°C 65.7°F18.7°C 58% 3.8 mph WNW6.1 kmh WNW 3.9 mph6.3 kmh 30.21 in1023.0 mb 0.00 in0.0 mm 0.00 in0.0 mm 0.00 in0.0 mm
10:38 AM 76.1°F24.5°C 64.2°F17.9°C 55% 4.0 mph W6.4 kmh W 4.1 mph6.6 kmh 30.21 in1023.0 mb 0.00 in0.0 mm 0.00 in0.0 mm 0.00 in0.0 mm
10:39 AM 76.1°F24.5°C 64.3°F17.9°C 54% 5.8 mph W9.3 kmh W 5.8 mph9.3 kmh 30.21 in1023.0 mb 0.00 in0.0 mm 0.00 in0.0 mm 0.00 in0.0 mm
10:41 AM 74.5°F23.6°C 63.7°F17.6°C 53% 2.8 mph 4.5 kmh 2.9 mph4.7 kmh 30.21 in1023.0 mb 0.00 in0.0 mm 0.00 in0.0 mm 0.00 in0.0 mm
10:42 AM 74.5°F23.6°C 63.8°F17.7°C 53% 3.2 mph 5.1 kmh 3.2 mph5.1 kmh 30.21 in1023.0 mb 0.00 in0.0 mm 0.00 in0.0 mm 0.00 in0.0 mm
10:44 AM 74.6°F23.7°C 63.8°F17.7°C 52% 5.3 mph WNW8.5 kmh WNW 5.3 mph8.5 kmh 30.22 in1023.4 mb 0.00 in0.0 mm 0.00 in0.0 mm 0.00 in0.0 mm
10:45 AM 74.9°F23.8°C 63.4°F17.4°C 52% 4.8 mph WNW7.7 kmh WNW 4.8 mph7.7 kmh 30.21 in1023.0 mb 0.00 in0.0 mm 0.00 in0.0 mm 0.00 in0.0 mm
10:47 AM 74.4°F23.6°C 64.2°F17.9°C 52% 2.7 mph NNW4.3 kmh NNW 2.7 mph4.3 kmh 30.21 in1023.0 mb 0.00 in0.0 mm 0.00 in0.0 mm 0.00 in0.0 mm
10:48 AM 74.5°F23.6°C 64.4°F18.0°C 53% 3.4 mph 5.5 kmh 3.4 mph5.5 kmh 30.21 in1023.0 mb 0.00 in0.0 mm 0.00 in0.0 mm 0.00 in0.0 mm
10:50 AM 75.0°F23.9°C 63.5°F17.5°C 51% 5.7 mph 9.2 kmh 5.7 mph9.2 kmh 30.21 in1023.0 mb 0.00 in0.0 mm 0.00 in0.0 mm 0.00 in0.0 mm
10:51 AM 75.1°F23.9°C 63.7°F17.6°C 51% 4.6 mph NW7.4 kmh NW 4.6 mph7.4 kmh 30.21 in1023.0 mb 0.00 in0.0 mm 0.00 in0.0 mm 0.00 in0.0 mm
10:53 AM 76.7°F24.8°C 65.1°F18.4°C 53% 3.9 mph WNW6.3 kmh WNW 3.9 mph6.3 kmh 30.20 in1022.7 mb 0.00 in0.0 mm 0.00 in0.0 mm 0.00 in0.0 mm
10:54 AM 76.7°F24.8°C 64.9°F18.3°C 53% 3.3 mph WNW5.3 kmh WNW 3.3 mph5.3 kmh 30.21 in1023.0 mb 0.00 in0.0 mm 0.00 in0.0 mm 0.00 in0.0 mm
10:56 AM 75.5°F24.2°C 65.3°F18.5°C 53% 6.1 mph NE9.8 kmh NE 6.1 mph9.8 kmh 30.21 in1023.0 mb 0.00 in0.0 mm 0.00 in0.0 mm 0.00 in0.0 mm
10:57 AM 75.3°F24.1°C 65.5°F18.6°C 53% 5.5 mph 8.9 kmh 5.6 mph9.0 kmh 30.21 in1023.0 mb 0.00 in0.0 mm 0.00 in0.0 mm 0.00 in0.0 mm
10:59 AM 74.3°F23.5°C 65.0°F18.3°C 53% 4.6 mph NNW7.4 kmh NNW 4.6 mph7.4 kmh 30.21 in1023.0 mb 0.00 in0.0 mm 0.00 in0.0 mm 0.00 in0.0 mm
11:00 AM 74.3°F23.5°C 65.2°F18.4°C 53% 4.9 mph NNE7.9 kmh NNE 4.9 mph7.9 kmh 30.20 in1022.7 mb 0.00 in0.0 mm 0.00 in0.0 mm 0.00 in0.0 mm
11:02 AM 74.0°F23.3°C 64.1°F17.8°C 51% 5.2 mph NE8.4 kmh NE 5.3 mph8.5 kmh 30.20 in1022.7 mb 0.00 in0.0 mm 0.00 in0.0 mm 0.00 in0.0 mm
11:03 AM 74.0°F23.3°C 64.6°F18.1°C 52% 4.9 mph NE7.9 kmh NE 4.9 mph7.9 kmh 30.20 in1022.7 mb 0.00 in0.0 mm 0.00 in0.0 mm 0.00 in0.0 mm
11:05 AM 73.7°F23.2°C 65.2°F18.4°C 54% 4.2 mph NNE6.8 kmh NNE 4.2 mph6.8 kmh 30.20 in1022.7 mb 0.00 in0.0 mm 0.00 in0.0 mm 0.00 in0.0 mm
11:06 AM 73.7°F23.2°C 65.2°F18.4°C 53% 3.6 mph NNE5.8 kmh NNE 3.7 mph6.0 kmh 30.20 in1022.7 mb 0.00 in0.0 mm 0.00 in0.0 mm 0.00 in0.0 mm
11:08 AM 74.8°F23.8°C 65.9°F18.8°C 55% 2.4 mph 3.9 kmh 2.4 mph3.9 kmh 30.20 in1022.7 mb 0.00 in0.0 mm 0.00 in0.0 mm 0.00 in0.0 mm
11:09 AM 74.9°F23.8°C 65.9°F18.8°C 55% 2.3 mph 3.7 kmh 2.3 mph3.7 kmh 30.20 in1022.7 mb 0.00 in0.0 mm 0.00 in0.0 mm 0.00 in0.0 mm
11:11 AM 74.6°F23.7°C 65.3°F18.5°C 53% 4.8 mph NNW7.7 kmh NNW 4.8 mph7.7 kmh 30.20 in1022.7 mb 0.00 in0.0 mm 0.00 in0.0 mm 0.00 in0.0 mm
11:12 AM 74.6°F23.7°C 65.2°F18.4°C 53% 4.6 mph NNW7.4 kmh NNW 4.6 mph7.4 kmh 30.20 in1022.7 mb 0.00 in0.0 mm 0.00 in0.0 mm 0.00 in0.0 mm
11:14 AM 76.0°F24.4°C 65.7°F18.7°C 53% 0.8 mph S1.3 kmh S 0.8 mph1.3 kmh 30.20 in1022.7 mb 0.00 in0.0 mm 0.00 in0.0 mm 0.00 in0.0 mm
11:15 AM 75.9°F24.4°C 65.3°F18.5°C 53% 0.9 mph S1.4 kmh S 0.9 mph1.4 kmh 30.20 in1022.7 mb 0.00 in0.0 mm 0.00 in0.0 mm 0.00 in0.0 mm
11:17 AM 76.7°F24.8°C 65.4°F18.6°C 52% 2.4 mph SW3.9 kmh SW 2.4 mph3.9 kmh 30.20 in1022.7 mb 0.00 in0.0 mm 0.00 in0.0 mm 0.00 in0.0 mm
11:18 AM 76.7°F24.8°C 65.2°F18.4°C 52% 3.0 mph SSW4.8 kmh SSW 3.0 mph4.8 kmh 30.20 in1022.7 mb 0.00 in0.0 mm 0.00 in0.0 mm 0.00 in0.0 mm
11:20 AM 76.9°F24.9°C 64.3°F17.9°C 49% 4.0 mph WNW6.4 kmh WNW 4.0 mph6.4 kmh 30.20 in1022.7 mb 0.00 in0.0 mm 0.00 in0.0 mm 0.00 in0.0 mm
11:21 AM 76.9°F24.9°C 64.5°F18.1°C 49% 3.2 mph WNW5.1 kmh WNW 3.2 mph5.1 kmh 30.20 in1022.7 mb 0.00 in0.0 mm 0.00 in0.0 mm 0.00 in0.0 mm
11:23 AM 76.9°F24.9°C 65.2°F18.4°C 50% 1.6 mph W2.6 kmh W 1.6 mph2.6 kmh 30.20 in1022.7 mb 0.00 in0.0 mm 0.00 in0.0 mm 0.00 in0.0 mm
11:24 AM 76.9°F24.9°C 66.0°F18.9°C 51% 2.0 mph WSW3.2 kmh WSW 2.0 mph3.2 kmh 30.20 in1022.7 mb 0.00 in0.0 mm 0.00 in0.0 mm 0.00 in0.0 mm
11:26 AM 76.7°F24.8°C 65.8°F18.8°C 50% 3.6 mph SW5.8 kmh SW 3.7 mph6.0 kmh 30.20 in1022.7 mb 0.00 in0.0 mm 0.00 in0.0 mm 0.00 in0.0 mm
11:27 AM 76.7°F24.8°C 65.4°F18.6°C 50% 2.3 mph SW3.7 kmh SW 2.5 mph4.0 kmh 30.20 in1022.7 mb 0.00 in0.0 mm 0.00 in0.0 mm 0.00 in0.0 mm
11:29 AM 77.2°F25.1°C 66.7°F19.3°C 52% 3.6 mph SW5.8 kmh SW 3.6 mph5.8 kmh 30.20 in1022.7 mb 0.00 in0.0 mm 0.00 in0.0 mm 0.00 in0.0 mm
11:30 AM 77.1°F25.1°C 66.2°F19.0°C 51% 3.5 mph SW5.6 kmh SW 3.5 mph5.6 kmh 30.20 in1022.7 mb 0.00 in0.0 mm 0.00 in0.0 mm 0.00 in0.0 mm
11:32 AM 77.6°F25.3°C 64.8°F18.2°C 48% 1.2 mph W1.9 kmh W 1.2 mph1.9 kmh 30.20 in1022.7 mb 0.00 in0.0 mm 0.00 in0.0 mm 0.00 in0.0 mm
11:33 AM 77.6°F25.3°C 64.7°F18.2°C 48% 3.0 mph NW4.8 kmh NW 3.0 mph4.8 kmh 30.20 in1022.7 mb 0.00 in0.0 mm 0.00 in0.0 mm 0.00 in0.0 mm
11:35 AM 76.7°F24.8°C 65.5°F18.6°C 49% 1.6 mph W2.6 kmh W 1.6 mph2.6 kmh 30.20 in1022.7 mb 0.00 in0.0 mm 0.00 in0.0 mm 0.00 in0.0 mm
11:36 AM 76.7°F24.8°C 65.2°F18.4°C 49% 1.6 mph W2.6 kmh W 1.6 mph2.6 kmh 30.20 in1022.7 mb 0.00 in0.0 mm 0.00 in0.0 mm 0.00 in0.0 mm
11:38 AM 76.8°F24.9°C 64.4°F18.0°C 46% 4.4 mph NNW7.1 kmh NNW 4.4 mph7.1 kmh 30.20 in1022.7 mb 0.00 in0.0 mm 0.00 in0.0 mm 0.00 in0.0 mm
11:39 AM 76.9°F24.9°C 63.5°F17.5°C 46% 3.2 mph NW5.1 kmh NW 3.2 mph5.1 kmh 30.20 in1022.7 mb 0.00 in0.0 mm 0.00 in0.0 mm 0.00 in0.0 mm
11:41 AM 77.6°F25.3°C 64.7°F18.2°C 47% 3.6 mph NNW5.8 kmh NNW 3.6 mph5.8 kmh 30.20 in1022.7 mb 0.00 in0.0 mm 0.00 in0.0 mm 0.00 in0.0 mm
11:42 AM 77.6°F25.3°C 64.6°F18.1°C 47% 4.2 mph WNW6.8 kmh WNW 4.2 mph6.8 kmh 30.20 in1022.7 mb 0.00 in0.0 mm 0.00 in0.0 mm 0.00 in0.0 mm
11:44 AM 78.0°F25.6°C 64.7°F18.2°C 46% 2.0 mph NNW3.2 kmh NNW 2.0 mph3.2 kmh 30.20 in1022.7 mb 0.00 in0.0 mm 0.00 in0.0 mm 0.00 in0.0 mm
11:45 AM 78.0°F25.6°C 65.1°F18.4°C 47% 1.6 mph NW2.6 kmh NW 1.7 mph2.7 kmh 30.20 in1022.7 mb 0.00 in0.0 mm 0.00 in0.0 mm 0.00 in0.0 mm
11:47 AM 78.4°F25.8°C 64.7°F18.2°C 46% 1.2 mph W1.9 kmh W 1.2 mph1.9 kmh 30.20 in1022.7 mb 0.00 in0.0 mm 0.00 in0.0 mm 0.00 in0.0 mm
11:48 AM 78.4°F25.8°C 64.8°F18.2°C 46% 1.2 mph WNW1.9 kmh WNW 1.4 mph2.3 kmh 30.20 in1022.7 mb 0.00 in0.0 mm 0.00 in0.0 mm 0.00 in0.0 mm
11:50 AM 77.1°F25.1°C 64.9°F18.3°C 46% 0.8 mph WSW1.3 kmh WSW 0.8 mph1.3 kmh 30.20 in1022.7 mb 0.00 in0.0 mm 0.00 in0.0 mm 0.00 in0.0 mm
11:51 AM 77.1°F25.1°C 65.9°F18.8°C 47% Calm Calm -- 30.20 in1022.7 mb 0.00 in0.0 mm 0.00 in0.0 mm 0.00 in0.0 mm
11:53 AM 76.9°F24.9°C 65.5°F18.6°C 47% Calm Calm -- 30.20 in1022.7 mb 0.00 in0.0 mm 0.00 in0.0 mm 0.00 in0.0 mm
11:54 AM 76.9°F24.9°C 64.6°F18.1°C 46% 0.2 mph W0.3 kmh W 0.3 mph0.5 kmh 30.20 in1022.7 mb 0.00 in0.0 mm 0.00 in0.0 mm 0.00 in0.0 mm
11:56 AM 76.6°F24.8°C 65.3°F18.5°C 46% 1.9 mph NW3.1 kmh NW 1.9 mph3.1 kmh 30.20 in1022.7 mb 0.00 in0.0 mm 0.00 in0.0 mm 0.00 in0.0 mm
11:57 AM 76.7°F24.8°C 64.9°F18.3°C 46% 2.0 mph NW3.2 kmh NW 2.0 mph3.2 kmh 30.20 in1022.7 mb 0.00 in0.0 mm 0.00 in0.0 mm 0.00 in0.0 mm
11:59 AM 77.5°F25.3°C 63.5°F17.5°C 45% 2.4 mph NW3.9 kmh NW 2.4 mph3.9 kmh 30.20 in1022.7 mb 0.00 in0.0 mm 0.00 in0.0 mm 0.00 in0.0 mm
12:00 PM 77.5°F25.3°C 64.4°F18.0°C 45% 3.3 mph NW5.3 kmh NW 3.3 mph5.3 kmh 30.20 in1022.7 mb 0.00 in0.0 mm 0.00 in0.0 mm 0.00 in0.0 mm
12:02 PM 77.5°F25.3°C 65.1°F18.4°C 46% 1.6 mph SW2.6 kmh SW 1.6 mph2.6 kmh 30.20 in1022.7 mb 0.00 in0.0 mm 0.00 in0.0 mm 0.00 in0.0 mm
12:03 PM 77.3°F25.2°C 65.4°F18.6°C 46% 2.0 mph SW3.2 kmh SW 2.0 mph3.2 kmh 30.20 in1022.7 mb 0.00 in0.0 mm 0.00 in0.0 mm 0.00 in0.0 mm
12:05 PM 77.0°F25.0°C 64.7°F18.2°C 45% 2.0 mph NW3.2 kmh NW 2.0 mph3.2 kmh 30.20 in1022.7 mb 0.00 in0.0 mm 0.00 in0.0 mm 0.00 in0.0 mm
12:06 PM 77.0°F25.0°C 64.5°F18.1°C 45% 1.6 mph NW2.6 kmh NW 1.6 mph2.6 kmh 30.20 in1022.7 mb 0.00 in0.0 mm 0.00 in0.0 mm 0.00 in0.0 mm
12:08 PM 75.7°F24.3°C 65.3°F18.5°C 46% 3.2 mph W5.1 kmh W 3.2 mph5.1 kmh 30.20 in1022.7 mb 0.00 in0.0 mm 0.00 in0.0 mm 0.00 in0.0 mm
12:09 PM 75.7°F24.3°C 65.3°F18.5°C 46% 2.6 mph W4.2 kmh W 2.7 mph4.3 kmh 30.20 in1022.7 mb 0.00 in0.0 mm 0.00 in0.0 mm 0.00 in0.0 mm
12:11 PM 77.6°F25.3°C 65.4°F18.6°C 46% 1.6 mph NW2.6 kmh NW 1.6 mph2.6 kmh 30.20 in1022.7 mb 0.00 in0.0 mm 0.00 in0.0 mm 0.00 in0.0 mm
12:12 PM 77.6°F25.3°C 65.3°F18.5°C 46% 1.6 mph NW2.6 kmh NW 1.6 mph2.6 kmh 30.20 in1022.7 mb 0.00 in0.0 mm 0.00 in0.0 mm 0.00 in0.0 mm
12:14 PM 78.8°F26.0°C 65.3°F18.5°C 45% 3.0 mph NNW4.8 kmh NNW 3.0 mph4.8 kmh 30.19 in1022.4 mb 0.00 in0.0 mm 0.00 in0.0 mm 0.00 in0.0 mm
12:15 PM 78.7°F25.9°C 65.6°F18.7°C 45% 2.1 mph SSW3.4 kmh SSW 2.2 mph3.5 kmh 30.20 in1022.7 mb 0.00 in0.0 mm 0.00 in0.0 mm 0.00 in0.0 mm
12:17 PM 79.1°F26.2°C 66.5°F19.2°C 46% 2.4 mph NW3.9 kmh NW 2.4 mph3.9 kmh 30.20 in1022.7 mb 0.00 in0.0 mm 0.00 in0.0 mm 0.00 in0.0 mm
12:18 PM 79.1°F26.2°C 66.6°F19.2°C 46% 2.3 mph NNW3.7 kmh NNW 2.4 mph3.9 kmh 30.20 in1022.7 mb 0.00 in0.0 mm 0.00 in0.0 mm 0.00 in0.0 mm
12:20 PM 78.9°F26.1°C 65.4°F18.6°C 44% 3.2 mph NNW5.1 kmh NNW 3.2 mph5.1 kmh 30.19 in1022.4 mb 0.00 in0.0 mm 0.00 in0.0 mm 0.00 in0.0 mm
12:21 PM 78.8°F26.0°C 65.5°F18.6°C 43% 3.2 mph SW5.1 kmh SW 3.3 mph5.3 kmh 30.19 in1022.4 mb 0.00 in0.0 mm 0.00 in0.0 mm 0.00 in0.0 mm
12:23 PM 78.6°F25.9°C 65.3°F18.5°C 43% 3.2 mph SSW5.1 kmh SSW 3.3 mph5.3 kmh 30.19 in1022.4 mb 0.00 in0.0 mm 0.00 in0.0 mm 0.00 in0.0 mm
12:24 PM 78.6°F25.9°C 65.4°F18.6°C 43% 3.0 mph SSW4.8 kmh SSW 3.1 mph5.0 kmh 30.19 in1022.4 mb 0.00 in0.0 mm 0.00 in0.0 mm 0.00 in0.0 mm
12:26 PM 78.6°F25.9°C 66.2°F19.0°C 45% 2.0 mph SW3.2 kmh SW 2.0 mph3.2 kmh 30.19 in1022.4 mb 0.00 in0.0 mm 0.00 in0.0 mm 0.00 in0.0 mm
12:27 PM 78.7°F25.9°C 66.4°F19.1°C 45% 1.8 mph SW2.9 kmh SW 1.8 mph2.9 kmh 30.19 in1022.4 mb 0.00 in0.0 mm 0.00 in0.0 mm 0.00 in0.0 mm
12:29 PM 78.9°F26.1°C 65.6°F18.7°C 44% 1.6 mph SSW2.6 kmh SSW 1.6 mph2.6 kmh 30.19 in1022.4 mb 0.00 in0.0 mm 0.00 in0.0 mm 0.00 in0.0 mm
12:30 PM 79.0°F26.1°C 66.1°F18.9°C 44% 1.6 mph SSW2.6 kmh SSW 1.7 mph2.7 kmh 30.19 in1022.4 mb 0.00 in0.0 mm 0.00 in0.0 mm 0.00 in0.0 mm
12:32 PM 79.7°F26.5°C 66.9°F19.4°C 46% 1.9 mph NNW3.1 kmh NNW 2.0 mph3.2 kmh 30.19 in1022.4 mb 0.00 in0.0 mm 0.00 in0.0 mm 0.00 in0.0 mm
12:33 PM 79.8°F26.6°C 67.0°F19.4°C 45% 2.4 mph NNW3.9 kmh NNW 2.5 mph4.0 kmh 30.19 in1022.4 mb 0.00 in0.0 mm 0.00 in0.0 mm 0.00 in0.0 mm
12:35 PM 79.3°F26.3°C 65.6°F18.7°C 42% 2.4 mph SW3.9 kmh SW 2.4 mph3.9 kmh 30.19 in1022.4 mb 0.00 in0.0 mm 0.00 in0.0 mm 0.00 in0.0 mm
12:36 PM 79.4°F26.3°C 66.0°F18.9°C 43% 3.7 mph SSW6.0 kmh SSW 3.8 mph6.1 kmh 30.19 in1022.4 mb 0.00 in0.0 mm 0.00 in0.0 mm 0.00 in0.0 mm
12:38 PM 79.5°F26.4°C 65.5°F18.6°C 43% 3.6 mph WSW5.8 kmh WSW 3.6 mph5.8 kmh 30.19 in1022.4 mb 0.00 in0.0 mm 0.00 in0.0 mm 0.00 in0.0 mm
12:39 PM 79.7°F26.5°C 65.4°F18.6°C 43% 3.7 mph W6.0 kmh W 3.8 mph6.1 kmh 30.19 in1022.4 mb 0.00 in0.0 mm 0.00 in0.0 mm 0.00 in0.0 mm
12:41 PM 79.8°F26.6°C 66.1°F18.9°C 44% 1.1 mph WSW1.8 kmh WSW 1.1 mph1.8 kmh 30.19 in1022.4 mb 0.00 in0.0 mm 0.00 in0.0 mm 0.00 in0.0 mm
12:44 PM 78.0°F25.6°C 64.0°F17.8°C 40% Calm Calm -- 30.19 in1022.4 mb 0.00 in0.0 mm 0.00 in0.0 mm 0.00 in0.0 mm
12:45 PM 77.9°F25.5°C 64.2°F17.9°C 40% Calm Calm -- 30.18 in1022.0 mb 0.00 in0.0 mm 0.00 in0.0 mm 0.00 in0.0 mm
12:47 PM 77.0°F25.0°C 64.4°F18.0°C 41% Calm Calm -- 30.19 in1022.4 mb 0.00 in0.0 mm 0.00 in0.0 mm 0.00 in0.0 mm
12:48 PM 77.1°F25.1°C 64.1°F17.8°C 41% Calm Calm -- 30.19 in1022.4 mb 0.00 in0.0 mm 0.00 in0.0 mm 0.00 in0.0 mm
12:50 PM 77.5°F25.3°C 64.2°F17.9°C 41% 0.8 mph NW1.3 kmh NW 0.8 mph1.3 kmh 30.19 in1022.4 mb 0.00 in0.0 mm 0.00 in0.0 mm 0.00 in0.0 mm
12:51 PM 77.7°F25.4°C 63.8°F17.7°C 41% 1.7 mph NW2.7 kmh NW 1.7 mph2.7 kmh 30.19 in1022.4 mb 0.00 in0.0 mm 0.00 in0.0 mm 0.00 in0.0 mm
12:53 PM 78.9°F26.1°C 66.2°F19.0°C 43% 6.4 mph WSW10.3 kmh WSW 6.4 mph10.3 kmh 30.19 in1022.4 mb 0.00 in0.0 mm 0.00 in0.0 mm 0.00 in0.0 mm
12:54 PM 78.9°F26.1°C 65.6°F18.7°C 44% 5.0 mph W8.0 kmh W 5.0 mph8.0 kmh 30.19 in1022.4 mb 0.00 in0.0 mm 0.00 in0.0 mm 0.00 in0.0 mm
12:56 PM 80.3°F26.8°C 66.6°F19.2°C 44% 0.8 mph WNW1.3 kmh WNW 0.8 mph1.3 kmh 30.19 in1022.4 mb 0.00 in0.0 mm 0.00 in0.0 mm 0.00 in0.0 mm
12:57 PM 80.3°F26.8°C 66.2°F19.0°C 43% 0.9 mph WNW1.4 kmh WNW 0.9 mph1.4 kmh 30.19 in1022.4 mb 0.00 in0.0 mm 0.00 in0.0 mm 0.00 in0.0 mm
12:59 PM 77.7°F25.4°C 63.9°F17.7°C 40% 2.7 mph NNW4.3 kmh NNW 2.7 mph4.3 kmh 30.19 in1022.4 mb 0.00 in0.0 mm 0.00 in0.0 mm 0.00 in0.0 mm
01:00 PM 77.5°F25.3°C 63.8°F17.7°C 39% 2.6 mph SW4.2 kmh SW 2.8 mph4.5 kmh 30.19 in1022.4 mb 0.00 in0.0 mm 0.00 in0.0 mm 0.00 in0.0 mm
01:02 PM 78.8°F26.0°C 66.1°F18.9°C 43% 2.4 mph SW3.9 kmh SW 2.5 mph4.0 kmh 30.18 in1022.0 mb 0.00 in0.0 mm 0.00 in0.0 mm 0.00 in0.0 mm
01:03 PM 78.8°F26.0°C 66.2°F19.0°C 43% 2.1 mph SW3.4 kmh SW 2.2 mph3.5 kmh 30.18 in1022.0 mb 0.00 in0.0 mm 0.00 in0.0 mm 0.00 in0.0 mm
01:05 PM 78.9°F26.1°C 66.4°F19.1°C 43% 5.3 mph NNW8.5 kmh NNW 5.4 mph8.7 kmh 30.19 in1022.4 mb 0.00 in0.0 mm 0.00 in0.0 mm 0.00 in0.0 mm
01:06 PM 78.9°F26.1°C 65.9°F18.8°C 43% 6.1 mph WSW9.8 kmh WSW 6.1 mph9.8 kmh 30.18 in1022.0 mb 0.00 in0.0 mm 0.00 in0.0 mm 0.00 in0.0 mm
01:08 PM 79.1°F26.2°C 66.7°F19.3°C 43% 4.4 mph W7.1 kmh W 4.4 mph7.1 kmh 30.19 in1022.4 mb 0.00 in0.0 mm 0.00 in0.0 mm 0.00 in0.0 mm
01:09 PM 79.1°F26.2°C 66.7°F19.3°C 43% 3.6 mph WNW5.8 kmh WNW 3.6 mph5.8 kmh 30.18 in1022.0 mb 0.00 in0.0 mm 0.00 in0.0 mm 0.00 in0.0 mm
01:11 PM 79.6°F26.4°C 66.0°F18.9°C 42% 2.0 mph WSW3.2 kmh WSW 2.0 mph3.2 kmh 30.18 in1022.0 mb 0.00 in0.0 mm 0.00 in0.0 mm 0.00 in0.0 mm
01:12 PM 79.6°F26.4°C 66.2°F19.0°C 42% 2.6 mph WSW4.2 kmh WSW 2.7 mph4.3 kmh 30.19 in1022.4 mb 0.00 in0.0 mm 0.00 in0.0 mm 0.00 in0.0 mm
01:14 PM 78.2°F25.7°C 65.9°F18.8°C 42% 2.7 mph NNW4.3 kmh NNW 2.7 mph4.3 kmh 30.18 in1022.0 mb 0.00 in0.0 mm 0.00 in0.0 mm 0.00 in0.0 mm
01:15 PM 78.4°F25.8°C 65.8°F18.8°C 42% 1.8 mph NNE2.9 kmh NNE 1.8 mph2.9 kmh 30.18 in1022.0 mb 0.00 in0.0 mm 0.00 in0.0 mm 0.00 in0.0 mm
01:17 PM 78.5°F25.8°C 67.2°F19.6°C 43% 6.8 mph NNW10.9 kmh NNW 6.8 mph10.9 kmh 30.19 in1022.4 mb 0.00 in0.0 mm 0.00 in0.0 mm 0.00 in0.0 mm
01:18 PM 78.5°F25.8°C 66.5°F19.2°C 43% 6.2 mph 10.0 kmh 6.3 mph10.1 kmh 30.18 in1022.0 mb 0.00 in0.0 mm 0.00 in0.0 mm 0.00 in0.0 mm
01:20 PM 76.9°F24.9°C 66.1°F18.9°C 42% 5.1 mph 8.2 kmh 5.1 mph8.2 kmh 30.18 in1022.0 mb 0.00 in0.0 mm 0.00 in0.0 mm 0.00 in0.0 mm
01:21 PM 76.9°F24.9°C 65.6°F18.7°C 42% 4.5 mph 7.2 kmh 4.5 mph7.2 kmh 30.18 in1022.0 mb 0.00 in0.0 mm 0.00 in0.0 mm 0.00 in0.0 mm
01:23 PM 78.8°F26.0°C 67.2°F19.6°C 44% 2.0 mph NNW3.2 kmh NNW 2.0 mph3.2 kmh 30.18 in1022.0 mb 0.00 in0.0 mm 0.00 in0.0 mm 0.00 in0.0 mm
01:24 PM 78.8°F26.0°C 66.6°F19.2°C 44% 0.7 mph 1.1 kmh 0.7 mph1.1 kmh 30.18 in1022.0 mb 0.00 in0.0 mm 0.00 in0.0 mm 0.00 in0.0 mm
01:26 PM 79.9°F26.6°C 67.2°F19.6°C 44% 1.6 mph WNW2.6 kmh WNW 1.6 mph2.6 kmh 30.18 in1022.0 mb 0.00 in0.0 mm 0.00 in0.0 mm 0.00 in0.0 mm
01:27 PM 79.9°F26.6°C 67.2°F19.6°C 44% 1.6 mph WNW2.6 kmh WNW 1.6 mph2.6 kmh 30.18 in1022.0 mb 0.00 in0.0 mm 0.00 in0.0 mm 0.00 in0.0 mm
01:29 PM 78.6°F25.9°C 65.3°F18.5°C 41% 1.2 mph NNW1.9 kmh NNW 1.2 mph1.9 kmh 30.18 in1022.0 mb 0.00 in0.0 mm 0.00 in0.0 mm 0.00 in0.0 mm
01:30 PM 78.7°F25.9°C 65.5°F18.6°C 41% 3.0 mph NW4.8 kmh NW 3.0 mph4.8 kmh 30.18 in1022.0 mb 0.00 in0.0 mm 0.00 in0.0 mm 0.00 in0.0 mm
01:32 PM 79.0°F26.1°C 65.1°F18.4°C 40% 6.2 mph NNW10.0 kmh NNW 6.2 mph10.0 kmh 30.18 in1022.0 mb 0.00 in0.0 mm 0.00 in0.0 mm 0.00 in0.0 mm
01:33 PM 78.8°F26.0°C 65.9°F18.8°C 41% 5.9 mph NW9.5 kmh NW 6.2 mph10.0 kmh 30.18 in1022.0 mb 0.00 in0.0 mm 0.00 in0.0 mm 0.00 in0.0 mm
01:35 PM 77.7°F25.4°C 66.7°F19.3°C 42% 4.9 mph NNW7.9 kmh NNW 4.9 mph7.9 kmh 30.18 in1022.0 mb 0.00 in0.0 mm 0.00 in0.0 mm 0.00 in0.0 mm
01:36 PM 77.8°F25.4°C 66.5°F19.2°C 42% 4.9 mph NW7.9 kmh NW 4.9 mph7.9 kmh 30.18 in1022.0 mb 0.00 in0.0 mm 0.00 in0.0 mm 0.00 in0.0 mm
01:38 PM 79.3°F26.3°C 67.7°F19.8°C 44% 1.6 mph NNW2.6 kmh NNW 1.6 mph2.6 kmh 30.18 in1022.0 mb 0.00 in0.0 mm 0.00 in0.0 mm 0.00 in0.0 mm
01:39 PM 79.0°F26.1°C 66.8°F19.3°C 43% 1.8 mph WSW2.9 kmh WSW 2.0 mph3.2 kmh 30.18 in1022.0 mb 0.00 in0.0 mm 0.00 in0.0 mm 0.00 in0.0 mm
01:41 PM 78.1°F25.6°C 66.5°F19.2°C 43% 2.8 mph NNW4.5 kmh NNW 2.8 mph4.5 kmh 30.18 in1022.0 mb 0.00 in0.0 mm 0.00 in0.0 mm 0.00 in0.0 mm
01:42 PM 78.1°F25.6°C 66.4°F19.1°C 42% 2.1 mph NW3.4 kmh NW 2.1 mph3.4 kmh 30.18 in1022.0 mb 0.00 in0.0 mm 0.00 in0.0 mm 0.00 in0.0 mm
01:44 PM 77.0°F25.0°C 66.1°F18.9°C 42% 3.0 mph NNW4.8 kmh NNW 3.0 mph4.8 kmh 30.18 in1022.0 mb 0.00 in0.0 mm 0.00 in0.0 mm 0.00 in0.0 mm
01:45 PM 77.0°F25.0°C 66.4°F19.1°C 43% 2.1 mph WSW3.4 kmh WSW 2.2 mph3.5 kmh 30.18 in1022.0 mb 0.00 in0.0 mm 0.00 in0.0 mm 0.00 in0.0 mm
01:47 PM 75.7°F24.3°C 65.9°F18.8°C 43% 0.4 mph SW0.6 kmh SW 0.4 mph0.6 kmh 30.18 in1022.0 mb 0.00 in0.0 mm 0.00 in0.0 mm 0.00 in0.0 mm
01:48 PM 75.5°F24.2°C 65.9°F18.8°C 43% 0.2 mph SW0.3 kmh SW 0.2 mph0.3 kmh 30.18 in1022.0 mb 0.00 in0.0 mm 0.00 in0.0 mm 0.00 in0.0 mm
01:50 PM 75.2°F24.0°C 67.1°F19.5°C 46% Calm Calm -- 30.18 in1022.0 mb 0.00 in0.0 mm 0.00 in0.0 mm 0.00 in0.0 mm
01:51 PM 75.2°F24.0°C 67.0°F19.4°C 45% Calm Calm -- 30.18 in1022.0 mb 0.00 in0.0 mm 0.00 in0.0 mm 0.00 in0.0 mm
01:53 PM 77.1°F25.1°C 65.6°F18.7°C 44% 0.4 mph SW0.6 kmh SW 0.4 mph0.6 kmh 30.18 in1022.0 mb 0.00 in0.0 mm 0.00 in0.0 mm 0.00 in0.0 mm
01:54 PM 77.2°F25.1°C 66.4°F19.1°C 44% 0.7 mph SW1.1 kmh SW 0.7 mph1.1 kmh 30.18 in1022.0 mb 0.00 in0.0 mm 0.00 in0.0 mm 0.00 in0.0 mm
01:56 PM 78.7°F25.9°C 65.9°F18.8°C 44% 1.1 mph NNW1.8 kmh NNW 1.2 mph1.9 kmh 30.18 in1022.0 mb 0.00 in0.0 mm 0.00 in0.0 mm 0.00 in0.0 mm
01:57 PM 78.6°F25.9°C 65.7°F18.7°C 43% 0.4 mph NW0.6 kmh NW 0.5 mph0.8 kmh 30.18 in1022.0 mb 0.00 in0.0 mm 0.00 in0.0 mm 0.00 in0.0 mm
01:59 PM 77.8°F25.4°C 65.7°F18.7°C 43% 2.0 mph NNW3.2 kmh NNW 2.0 mph3.2 kmh 30.17 in1021.7 mb 0.00 in0.0 mm 0.00 in0.0 mm 0.00 in0.0 mm
02:00 PM 77.9°F25.5°C 66.2°F19.0°C 43% 1.3 mph NW2.1 kmh NW 1.5 mph2.4 kmh 30.18 in1022.0 mb 0.00 in0.0 mm 0.00 in0.0 mm 0.00 in0.0 mm
02:02 PM 77.8°F25.4°C 64.5°F18.1°C 42% 1.2 mph NNW1.9 kmh NNW 1.2 mph1.9 kmh 30.18 in1022.0 mb 0.00 in0.0 mm 0.00 in0.0 mm 0.00 in0.0 mm
02:03 PM 77.8°F25.4°C 65.0°F18.3°C 42% 1.6 mph NNW2.6 kmh NNW 1.6 mph2.6 kmh 30.17 in1021.7 mb 0.00 in0.0 mm 0.00 in0.0 mm 0.00 in0.0 mm
02:05 PM 78.5°F25.8°C 66.6°F19.2°C 44% 4.0 mph NNW6.4 kmh NNW 4.1 mph6.6 kmh 30.17 in1021.7 mb 0.00 in0.0 mm 0.00 in0.0 mm 0.00 in0.0 mm
02:06 PM 78.5°F25.8°C 66.7°F19.3°C 44% 3.3 mph 5.3 kmh 3.3 mph5.3 kmh 30.17 in1021.7 mb 0.00 in0.0 mm 0.00 in0.0 mm 0.00 in0.0 mm
02:08 PM 78.9°F26.1°C 65.7°F18.7°C 43% 1.9 mph 3.1 kmh 2.0 mph3.2 kmh 30.17 in1021.7 mb 0.00 in0.0 mm 0.00 in0.0 mm 0.00 in0.0 mm
02:09 PM 79.0°F26.1°C 65.4°F18.6°C 43% 1.8 mph 2.9 kmh 2.0 mph3.2 kmh 30.17 in1021.7 mb 0.00 in0.0 mm 0.00 in0.0 mm 0.00 in0.0 mm
02:11 PM 78.7°F25.9°C 66.0°F18.9°C 43% 2.0 mph NW3.2 kmh NW 2.0 mph3.2 kmh 30.16 in1021.3 mb 0.00 in0.0 mm 0.00 in0.0 mm 0.00 in0.0 mm
02:12 PM 78.7°F25.9°C 66.2°F19.0°C 43% 3.3 mph 5.3 kmh 3.3 mph5.3 kmh 30.16 in1021.3 mb 0.00 in0.0 mm 0.00 in0.0 mm 0.00 in0.0 mm
02:17 PM 78.8°F26.0°C 66.2°F19.0°C 43% 1.5 mph SW2.4 kmh SW 1.6 mph2.6 kmh 30.16 in1021.3 mb 0.00 in0.0 mm 0.00 in0.0 mm 0.00 in0.0 mm
02:18 PM 78.8°F26.0°C 65.6°F18.7°C 43% 1.4 mph SW2.3 kmh SW 1.4 mph2.3 kmh 30.16 in1021.3 mb 0.00 in0.0 mm 0.00 in0.0 mm 0.00 in0.0 mm
02:20 PM 79.7°F26.5°C 66.4°F19.1°C 43% 2.8 mph NW4.5 kmh NW 2.8 mph4.5 kmh 30.16 in1021.3 mb 0.00 in0.0 mm 0.00 in0.0 mm 0.00 in0.0 mm
02:21 PM 79.6°F26.4°C 66.3°F19.1°C 43% 2.8 mph NNW4.5 kmh NNW 3.0 mph4.8 kmh 30.16 in1021.3 mb 0.00 in0.0 mm 0.00 in0.0 mm 0.00 in0.0 mm
02:23 PM 80.0°F26.7°C 66.8°F19.3°C 42% 1.1 mph W1.8 kmh W 1.2 mph1.9 kmh 30.16 in1021.3 mb 0.00 in0.0 mm 0.00 in0.0 mm 0.00 in0.0 mm
02:24 PM 80.2°F26.8°C 65.8°F18.8°C 42% 2.1 mph W3.4 kmh W 2.1 mph3.4 kmh 30.16 in1021.3 mb 0.00 in0.0 mm 0.00 in0.0 mm 0.00 in0.0 mm
02:26 PM 80.4°F26.9°C 66.5°F19.2°C 42% 2.0 mph WNW3.2 kmh WNW 2.0 mph3.2 kmh 30.16 in1021.3 mb 0.00 in0.0 mm 0.00 in0.0 mm 0.00 in0.0 mm
02:27 PM 80.5°F26.9°C 66.4°F19.1°C 42% 2.3 mph WNW3.7 kmh WNW 2.4 mph3.9 kmh 30.16 in1021.3 mb 0.00 in0.0 mm 0.00 in0.0 mm 0.00 in0.0 mm
02:29 PM 80.6°F27.0°C 66.7°F19.3°C 43% 3.2 mph WNW5.1 kmh WNW 3.3 mph5.3 kmh 30.16 in1021.3 mb 0.00 in0.0 mm 0.00 in0.0 mm 0.00 in0.0 mm
02:30 PM 80.7°F27.1°C 67.5°F19.7°C 43% 3.0 mph WNW4.8 kmh WNW 3.0 mph4.8 kmh 30.16 in1021.3 mb 0.00 in0.0 mm 0.00 in0.0 mm 0.00 in0.0 mm
02:32 PM 80.6°F27.0°C 67.4°F19.7°C 43% Calm Calm -- 30.16 in1021.3 mb 0.00 in0.0 mm 0.00 in0.0 mm 0.00 in0.0 mm
02:33 PM 80.4°F26.9°C 67.1°F19.5°C 43% 0.5 mph W0.8 kmh W 0.5 mph0.8 kmh 30.16 in1021.3 mb 0.00 in0.0 mm 0.00 in0.0 mm 0.00 in0.0 mm
02:35 PM 82.2°F27.9°C 67.4°F19.7°C 43% 1.6 mph WSW2.6 kmh WSW 1.6 mph2.6 kmh 30.16 in1021.3 mb 0.00 in0.0 mm 0.00 in0.0 mm 0.00 in0.0 mm
02:36 PM 82.3°F27.9°C 67.5°F19.7°C 43% 1.4 mph WSW2.3 kmh WSW 1.4 mph2.3 kmh 30.16 in1021.3 mb 0.00 in0.0 mm 0.00 in0.0 mm 0.00 in0.0 mm
02:38 PM 79.8°F26.6°C 65.8°F18.8°C 41% Calm Calm -- 30.16 in1021.3 mb 0.00 in0.0 mm 0.00 in0.0 mm 0.00 in0.0 mm
02:39 PM 79.8°F26.6°C 66.0°F18.9°C 41% 0.7 mph NW1.1 kmh NW 0.7 mph1.1 kmh 30.16 in1021.3 mb 0.00 in0.0 mm 0.00 in0.0 mm 0.00 in0.0 mm
02:41 PM 81.4°F27.4°C 66.2°F19.0°C 41% 0.8 mph WNW1.3 kmh WNW 0.8 mph1.3 kmh 30.16 in1021.3 mb 0.00 in0.0 mm 0.00 in0.0 mm 0.00 in0.0 mm
02:42 PM 81.5°F27.5°C 66.5°F19.2°C 41% 1.0 mph WNW1.6 kmh WNW 1.0 mph1.6 kmh 30.16 in1021.3 mb 0.00 in0.0 mm 0.00 in0.0 mm 0.00 in0.0 mm
02:44 PM 81.8°F27.7°C 65.7°F18.7°C 40% Calm Calm -- 30.16 in1021.3 mb 0.00 in0.0 mm 0.00 in0.0 mm 0.00 in0.0 mm
02:45 PM 81.7°F27.6°C 65.8°F18.8°C 40% Calm Calm -- 30.16 in1021.3 mb 0.00 in0.0 mm 0.00 in0.0 mm 0.00 in0.0 mm
02:47 PM 81.2°F27.3°C 66.5°F19.2°C 41% 4.0 mph SW6.4 kmh SW 4.1 mph6.6 kmh 30.16 in1021.3 mb 0.00 in0.0 mm 0.00 in0.0 mm 0.00 in0.0 mm
02:48 PM 81.2°F27.3°C 67.2°F19.6°C 41% 4.6 mph SW7.4 kmh SW 4.7 mph7.6 kmh 30.16 in1021.3 mb 0.00 in0.0 mm 0.00 in0.0 mm 0.00 in0.0 mm
02:50 PM 80.3°F26.8°C 67.7°F19.8°C 43% 2.4 mph SW3.9 kmh SW 2.4 mph3.9 kmh 30.15 in1021.0 mb 0.00 in0.0 mm 0.00 in0.0 mm 0.00 in0.0 mm
02:51 PM 80.4°F26.9°C 66.9°F19.4°C 42% 2.2 mph SW3.5 kmh SW 2.4 mph3.9 kmh 30.16 in1021.3 mb 0.00 in0.0 mm 0.00 in0.0 mm 0.00 in0.0 mm
02:53 PM 79.5°F26.4°C 65.6°F18.7°C 41% 1.2 mph NNW1.9 kmh NNW 1.2 mph1.9 kmh 30.16 in1021.3 mb 0.00 in0.0 mm 0.00 in0.0 mm 0.00 in0.0 mm
02:54 PM 79.5°F26.4°C 66.3°F19.1°C 41% 0.9 mph SW1.4 kmh SW 1.1 mph1.8 kmh 30.15 in1021.0 mb 0.00 in0.0 mm 0.00 in0.0 mm 0.00 in0.0 mm
02:56 PM 80.6°F27.0°C 66.3°F19.1°C 41% 1.5 mph WSW2.4 kmh WSW 1.6 mph2.6 kmh 30.16 in1021.3 mb 0.00 in0.0 mm 0.00 in0.0 mm 0.00 in0.0 mm
02:57 PM 80.7°F27.1°C 66.1°F18.9°C 42% 1.1 mph WSW1.8 kmh WSW 1.2 mph1.9 kmh 30.16 in1021.3 mb 0.00 in0.0 mm 0.00 in0.0 mm 0.00 in0.0 mm
02:59 PM 78.5°F25.8°C 65.4°F18.6°C 41% 1.6 mph WSW2.6 kmh WSW 1.6 mph2.6 kmh 30.16 in1021.3 mb 0.00 in0.0 mm 0.00 in0.0 mm 0.00 in0.0 mm
03:00 PM 78.5°F25.8°C 65.1°F18.4°C 40% 1.6 mph WSW2.6 kmh WSW 1.6 mph2.6 kmh 30.16 in1021.3 mb 0.00 in0.0 mm 0.00 in0.0 mm 0.00 in0.0 mm
03:02 PM 78.4°F25.8°C 65.3°F18.5°C 42% 1.9 mph NNW3.1 kmh NNW 1.9 mph3.1 kmh 30.15 in1021.0 mb 0.00 in0.0 mm 0.00 in0.0 mm 0.00 in0.0 mm
03:03 PM 78.5°F25.8°C 65.1°F18.4°C 42% 1.6 mph SW2.6 kmh SW 1.7 mph2.7 kmh 30.15 in1021.0 mb 0.00 in0.0 mm 0.00 in0.0 mm 0.00 in0.0 mm
03:05 PM 78.1°F25.6°C 64.5°F18.1°C 40% Calm Calm -- 30.15 in1021.0 mb 0.00 in0.0 mm 0.00 in0.0 mm 0.00 in0.0 mm
03:06 PM 78.1°F25.6°C 63.9°F17.7°C 40% Calm Calm -- 30.15 in1021.0 mb 0.00 in0.0 mm 0.00 in0.0 mm 0.00 in0.0 mm
03:08 PM 76.9°F24.9°C 65.6°F18.7°C 43% 0.4 mph NNW0.6 kmh NNW 0.4 mph0.6 kmh 30.15 in1021.0 mb 0.00 in0.0 mm 0.00 in0.0 mm 0.00 in0.0 mm
03:09 PM 77.0°F25.0°C 65.5°F18.6°C 42% 0.7 mph NNW1.1 kmh NNW 0.8 mph1.3 kmh 30.15 in1021.0 mb 0.00 in0.0 mm 0.00 in0.0 mm 0.00 in0.0 mm
03:11 PM 77.7°F25.4°C 66.0°F18.9°C 43% 4.2 mph WSW6.8 kmh WSW 4.3 mph6.9 kmh 30.15 in1021.0 mb 0.00 in0.0 mm 0.00 in0.0 mm 0.00 in0.0 mm
03:12 PM 77.7°F25.4°C 65.4°F18.6°C 43% 3.9 mph SW6.3 kmh SW 3.9 mph6.3 kmh 30.15 in1021.0 mb 0.00 in0.0 mm 0.00 in0.0 mm 0.00 in0.0 mm
03:14 PM 77.7°F25.4°C 65.8°F18.8°C 44% 2.4 mph S3.9 kmh S 2.4 mph3.9 kmh 30.15 in1021.0 mb 0.00 in0.0 mm 0.00 in0.0 mm 0.00 in0.0 mm
03:15 PM 77.7°F25.4°C 65.7°F18.7°C 44% 2.1 mph S3.4 kmh S 2.2 mph3.5 kmh 30.15 in1021.0 mb 0.00 in0.0 mm 0.00 in0.0 mm 0.00 in0.0 mm
03:17 PM 78.8°F26.0°C 66.8°F19.3°C 45% 0.8 mph SW1.3 kmh SW 0.8 mph1.3 kmh 30.15 in1021.0 mb 0.00 in0.0 mm 0.00 in0.0 mm 0.00 in0.0 mm
03:18 PM 78.8°F26.0°C 66.4°F19.1°C 45% 0.5 mph SW0.8 kmh SW 0.5 mph0.8 kmh 30.15 in1021.0 mb 0.00 in0.0 mm 0.00 in0.0 mm 0.00 in0.0 mm
03:20 PM 79.8°F26.6°C 66.4°F19.1°C 45% 1.5 mph NW2.4 kmh NW 1.6 mph2.6 kmh 30.15 in1021.0 mb 0.00 in0.0 mm 0.00 in0.0 mm 0.00 in0.0 mm
03:21 PM 79.8°F26.6°C 66.7°F19.3°C 45% 1.2 mph WNW1.9 kmh WNW 1.3 mph2.1 kmh 30.15 in1021.0 mb 0.00 in0.0 mm 0.00 in0.0 mm 0.00 in0.0 mm
03:23 PM 79.9°F26.6°C 66.7°F19.3°C 44% 3.2 mph W5.1 kmh W 3.3 mph5.3 kmh 30.15 in1021.0 mb 0.00 in0.0 mm 0.00 in0.0 mm 0.00 in0.0 mm
03:24 PM 79.9°F26.6°C 65.8°F18.8°C 43% 3.2 mph W5.1 kmh W 3.2 mph5.1 kmh 30.15 in1021.0 mb 0.00 in0.0 mm 0.00 in0.0 mm 0.00 in0.0 mm
03:26 PM 81.3°F27.4°C 66.7°F19.3°C 44% 0.4 mph W0.6 kmh W 0.4 mph0.6 kmh 30.15 in1021.0 mb 0.00 in0.0 mm 0.00 in0.0 mm 0.00 in0.0 mm
03:27 PM 81.3°F27.4°C 66.1°F18.9°C 43% Calm Calm -- 30.15 in1021.0 mb 0.00 in0.0 mm 0.00 in0.0 mm 0.00 in0.0 mm
03:32 PM 82.4°F28.0°C 66.0°F18.9°C 42% 0.4 mph WNW0.6 kmh WNW 0.4 mph0.6 kmh 30.15 in1021.0 mb 0.00 in0.0 mm 0.00 in0.0 mm 0.00 in0.0 mm
03:33 PM 82.4°F28.0°C 65.7°F18.7°C 42% 1.4 mph WSW2.3 kmh WSW 1.4 mph2.3 kmh 30.15 in1021.0 mb 0.00 in0.0 mm 0.00 in0.0 mm 0.00 in0.0 mm
03:35 PM 80.9°F27.2°C 66.6°F19.2°C 43% 2.0 mph SW3.2 kmh SW 2.0 mph3.2 kmh 30.15 in1021.0 mb 0.00 in0.0 mm 0.00 in0.0 mm 0.00 in0.0 mm
03:36 PM 80.9°F27.2°C 66.7°F19.3°C 43% 1.2 mph SW1.9 kmh SW 1.3 mph2.1 kmh 30.15 in1021.0 mb 0.00 in0.0 mm 0.00 in0.0 mm 0.00 in0.0 mm
03:38 PM 80.4°F26.9°C 65.2°F18.4°C 41% 2.3 mph WSW3.7 kmh WSW 2.3 mph3.7 kmh 30.15 in1021.0 mb 0.00 in0.0 mm 0.00 in0.0 mm 0.00 in0.0 mm
03:39 PM 80.6°F27.0°C 64.6°F18.1°C 41% 1.8 mph WSW2.9 kmh WSW 1.9 mph3.1 kmh 30.15 in1021.0 mb 0.00 in0.0 mm 0.00 in0.0 mm 0.00 in0.0 mm
03:41 PM 80.6°F27.0°C 66.2°F19.0°C 43% 2.4 mph W3.9 kmh W 2.4 mph3.9 kmh 30.15 in1021.0 mb 0.00 in0.0 mm 0.00 in0.0 mm 0.00 in0.0 mm
03:42 PM 80.7°F27.1°C 65.9°F18.8°C 43% 2.3 mph W3.7 kmh W 2.3 mph3.7 kmh 30.15 in1021.0 mb 0.00 in0.0 mm 0.00 in0.0 mm 0.00 in0.0 mm
03:47 PM 80.6°F27.0°C 64.2°F17.9°C 42% 2.0 mph NNW3.2 kmh NNW 2.0 mph3.2 kmh 30.15 in1021.0 mb 0.00 in0.0 mm 0.00 in0.0 mm 0.00 in0.0 mm
03:48 PM 80.7°F27.1°C 65.0°F18.3°C 42% 3.2 mph NW5.1 kmh NW 3.4 mph5.5 kmh 30.15 in1021.0 mb 0.00 in0.0 mm 0.00 in0.0 mm 0.00 in0.0 mm
03:50 PM 82.5°F28.1°C 64.3°F17.9°C 41% 0.8 mph W1.3 kmh W 0.8 mph1.3 kmh 30.15 in1021.0 mb 0.00 in0.0 mm 0.00 in0.0 mm 0.00 in0.0 mm
03:51 PM 82.3°F27.9°C 63.8°F17.7°C 41% 0.7 mph W1.1 kmh W 0.8 mph1.3 kmh 30.15 in1021.0 mb 0.00 in0.0 mm 0.00 in0.0 mm 0.00 in0.0 mm
03:53 PM 80.8°F27.1°C 64.8°F18.2°C 41% 0.8 mph NE1.3 kmh NE 0.8 mph1.3 kmh 30.15 in1021.0 mb 0.00 in0.0 mm 0.00 in0.0 mm 0.00 in0.0 mm
03:54 PM 80.9°F27.2°C 64.5°F18.1°C 41% 0.5 mph NE0.8 kmh NE 0.5 mph0.8 kmh 30.15 in1021.0 mb 0.00 in0.0 mm 0.00 in0.0 mm 0.00 in0.0 mm
03:56 PM 82.1°F27.8°C 66.2°F19.0°C 43% 1.6 mph W2.6 kmh W 1.6 mph2.6 kmh 30.15 in1021.0 mb 0.00 in0.0 mm 0.00 in0.0 mm 0.00 in0.0 mm
03:57 PM 82.0°F27.8°C 65.9°F18.8°C 43% 1.6 mph W2.6 kmh W 1.6 mph2.6 kmh 30.15 in1021.0 mb 0.00 in0.0 mm 0.00 in0.0 mm 0.00 in0.0 mm
03:59 PM 82.5°F28.1°C 65.3°F18.5°C 41% 1.6 mph WSW2.6 kmh WSW 1.6 mph2.6 kmh 30.14 in1020.7 mb 0.00 in0.0 mm 0.00 in0.0 mm 0.00 in0.0 mm
04:00 PM 82.7°F28.2°C 65.4°F18.6°C 42% 2.0 mph NW3.2 kmh NW 2.0 mph3.2 kmh 30.15 in1021.0 mb 0.00 in0.0 mm 0.00 in0.0 mm 0.00 in0.0 mm
04:02 PM 83.0°F28.3°C 65.1°F18.4°C 41% 3.2 mph W5.1 kmh W 3.3 mph5.3 kmh 30.15 in1021.0 mb 0.00 in0.0 mm 0.00 in0.0 mm 0.00 in0.0 mm
04:05 PM 83.4°F28.6°C 66.2°F19.0°C 43% 3.6 mph NW5.8 kmh NW 3.6 mph5.8 kmh 30.15 in1021.0 mb 0.00 in0.0 mm 0.00 in0.0 mm 0.00 in0.0 mm
04:06 PM 83.5°F28.6°C 66.0°F18.9°C 42% 3.5 mph NW5.6 kmh NW 3.6 mph5.8 kmh 30.14 in1020.7 mb 0.00 in0.0 mm 0.00 in0.0 mm 0.00 in0.0 mm
04:08 PM 83.2°F28.4°C 66.1°F18.9°C 42% 2.8 mph NNW4.5 kmh NNW 2.9 mph4.7 kmh 30.15 in1021.0 mb 0.00 in0.0 mm 0.00 in0.0 mm 0.00 in0.0 mm
04:09 PM 82.7°F28.2°C 66.4°F19.1°C 42% 3.9 mph 6.3 kmh 3.9 mph6.3 kmh 30.14 in1020.7 mb 0.00 in0.0 mm 0.00 in0.0 mm 0.00 in0.0 mm
04:11 PM 79.7°F26.5°C 65.8°F18.8°C 43% 1.2 mph NNE1.9 kmh NNE 1.2 mph1.9 kmh 30.14 in1020.7 mb 0.00 in0.0 mm 0.00 in0.0 mm 0.00 in0.0 mm
04:12 PM 79.8°F26.6°C 65.3°F18.5°C 42% 1.2 mph NNE1.9 kmh NNE 1.3 mph2.1 kmh 30.14 in1020.7 mb 0.00 in0.0 mm 0.00 in0.0 mm 0.00 in0.0 mm
04:14 PM 80.0°F26.7°C 64.7°F18.2°C 41% 3.2 mph NNW5.1 kmh NNW 3.3 mph5.3 kmh 30.14 in1020.7 mb 0.00 in0.0 mm 0.00 in0.0 mm 0.00 in0.0 mm
04:15 PM 80.0°F26.7°C 64.9°F18.3°C 42% 2.3 mph NW3.7 kmh NW 2.4 mph3.9 kmh 30.14 in1020.7 mb 0.00 in0.0 mm 0.00 in0.0 mm 0.00 in0.0 mm
04:17 PM 77.5°F25.3°C 65.4°F18.6°C 43% 5.8 mph 9.3 kmh 5.9 mph9.5 kmh 30.14 in1020.7 mb 0.00 in0.0 mm 0.00 in0.0 mm 0.00 in0.0 mm
04:18 PM 77.3°F25.2°C 64.4°F18.0°C 42% 6.1 mph NNW9.8 kmh NNW 6.2 mph10.0 kmh 30.15 in1021.0 mb 0.00 in0.0 mm 0.00 in0.0 mm 0.00 in0.0 mm
04:20 PM 77.5°F25.3°C 65.4°F18.6°C 44% 2.8 mph NNW4.5 kmh NNW 2.9 mph4.7 kmh 30.14 in1020.7 mb 0.00 in0.0 mm 0.00 in0.0 mm 0.00 in0.0 mm
04:21 PM 77.6°F25.3°C 65.3°F18.5°C 44% 2.7 mph NNW4.3 kmh NNW 2.7 mph4.3 kmh 30.14 in1020.7 mb 0.00 in0.0 mm 0.00 in0.0 mm 0.00 in0.0 mm
04:23 PM 76.9°F24.9°C 65.4°F18.6°C 45% 2.4 mph 3.9 kmh 2.4 mph3.9 kmh 30.14 in1020.7 mb 0.00 in0.0 mm 0.00 in0.0 mm 0.00 in0.0 mm
04:24 PM 76.9°F24.9°C 64.9°F18.3°C 45% 2.6 mph 4.2 kmh 2.7 mph4.3 kmh 30.14 in1020.7 mb 0.00 in0.0 mm 0.00 in0.0 mm 0.00 in0.0 mm
04:26 PM 79.0°F26.1°C 66.4°F19.1°C 47% 1.6 mph 2.6 kmh 1.6 mph2.6 kmh 30.14 in1020.7 mb 0.00 in0.0 mm 0.00 in0.0 mm 0.00 in0.0 mm
04:27 PM 79.0°F26.1°C 66.0°F18.9°C 46% 2.0 mph 3.2 kmh 2.0 mph3.2 kmh 30.14 in1020.7 mb 0.00 in0.0 mm 0.00 in0.0 mm 0.00 in0.0 mm
04:29 PM 79.6°F26.4°C 65.3°F18.5°C 44% 1.1 mph NNW1.8 kmh NNW 1.2 mph1.9 kmh 30.14 in1020.7 mb 0.00 in0.0 mm 0.00 in0.0 mm 0.00 in0.0 mm
04:30 PM 79.7°F26.5°C 65.2°F18.4°C 44% 0.9 mph NNW1.4 kmh NNW 1.0 mph1.6 kmh 30.14 in1020.7 mb 0.00 in0.0 mm 0.00 in0.0 mm 0.00 in0.0 mm
04:32 PM 78.9°F26.1°C 64.8°F18.2°C 44% Calm Calm -- 30.14 in1020.7 mb 0.00 in0.0 mm 0.00 in0.0 mm 0.00 in0.0 mm
04:33 PM 78.9°F26.1°C 63.8°F17.7°C 43% Calm Calm -- 30.14 in1020.7 mb 0.00 in0.0 mm 0.00 in0.0 mm 0.00 in0.0 mm
04:38 PM 82.2°F27.9°C 65.5°F18.6°C 44% 1.6 mph NW2.6 kmh NW 1.6 mph2.6 kmh 30.14 in1020.7 mb 0.00 in0.0 mm 0.00 in0.0 mm 0.00 in0.0 mm
04:39 PM 82.3°F27.9°C 64.9°F18.3°C 44% 1.2 mph NW1.9 kmh NW 1.3 mph2.1 kmh 30.14 in1020.7 mb 0.00 in0.0 mm 0.00 in0.0 mm 0.00 in0.0 mm
04:41 PM 82.7°F28.2°C 65.0°F18.3°C 44% Calm Calm -- 30.14 in1020.7 mb 0.00 in0.0 mm 0.00 in0.0 mm 0.00 in0.0 mm
04:42 PM 82.9°F28.3°C 65.4°F18.6°C 44% Calm Calm -- 30.14 in1020.7 mb 0.00 in0.0 mm 0.00 in0.0 mm 0.00 in0.0 mm
04:44 PM 83.0°F28.3°C 66.6°F19.2°C 45% Calm Calm -- 30.14 in1020.7 mb 0.00 in0.0 mm 0.00 in0.0 mm 0.00 in0.0 mm
04:45 PM 83.1°F28.4°C 66.3°F19.1°C 45% Calm Calm -- 30.14 in1020.7 mb 0.00 in0.0 mm 0.00 in0.0 mm 0.00 in0.0 mm
04:47 PM 82.7°F28.2°C 66.0°F18.9°C 45% 2.0 mph NNW3.2 kmh NNW 2.0 mph3.2 kmh 30.14 in1020.7 mb 0.00 in0.0 mm 0.00 in0.0 mm 0.00 in0.0 mm
04:48 PM 82.6°F28.1°C 66.3°F19.1°C 44% 2.0 mph 3.2 kmh 2.0 mph3.2 kmh 30.14 in1020.7 mb 0.00 in0.0 mm 0.00 in0.0 mm 0.00 in0.0 mm
04:50 PM 82.2°F27.9°C 64.7°F18.2°C 43% 4.0 mph WNW6.4 kmh WNW 4.0 mph6.4 kmh 30.14 in1020.7 mb 0.00 in0.0 mm 0.00 in0.0 mm 0.00 in0.0 mm
04:51 PM 82.2°F27.9°C 65.2°F18.4°C 43% 3.3 mph NW5.3 kmh NW 3.4 mph5.5 kmh 30.14 in1020.7 mb 0.00 in0.0 mm 0.00 in0.0 mm 0.00 in0.0 mm
04:53 PM 80.2°F26.8°C 65.1°F18.4°C 44% 3.8 mph 6.1 kmh 3.9 mph6.3 kmh 30.14 in1020.7 mb 0.00 in0.0 mm 0.00 in0.0 mm 0.00 in0.0 mm
04:54 PM 80.4°F26.9°C 64.7°F18.2°C 44% 4.1 mph NNW6.6 kmh NNW 4.1 mph6.6 kmh 30.14 in1020.7 mb 0.00 in0.0 mm 0.00 in0.0 mm 0.00 in0.0 mm
04:56 PM 80.4°F26.9°C 65.8°F18.8°C 45% 1.6 mph 2.6 kmh 1.6 mph2.6 kmh 30.14 in1020.7 mb 0.00 in0.0 mm 0.00 in0.0 mm 0.00 in0.0 mm
04:57 PM 80.3°F26.8°C 65.3°F18.5°C 45% 2.1 mph 3.4 kmh 2.1 mph3.4 kmh 30.14 in1020.7 mb 0.00 in0.0 mm 0.00 in0.0 mm 0.00 in0.0 mm
04:59 PM 80.6°F27.0°C 66.2°F19.0°C 46% 2.6 mph 4.2 kmh 2.6 mph4.2 kmh 30.14 in1020.7 mb 0.00 in0.0 mm 0.00 in0.0 mm 0.00 in0.0 mm
05:00 PM 80.7°F27.1°C 66.2°F19.0°C 46% 2.6 mph 4.2 kmh 2.7 mph4.3 kmh 30.14 in1020.7 mb 0.00 in0.0 mm 0.00 in0.0 mm 0.00 in0.0 mm
05:02 PM 80.8°F27.1°C 66.1°F18.9°C 45% 3.2 mph NNW5.1 kmh NNW 3.3 mph5.3 kmh 30.14 in1020.7 mb 0.00 in0.0 mm 0.00 in0.0 mm 0.00 in0.0 mm
05:03 PM 80.8°F27.1°C 65.5°F18.6°C 45% 3.5 mph 5.6 kmh 3.5 mph5.6 kmh 30.14 in1020.7 mb 0.00 in0.0 mm 0.00 in0.0 mm 0.00 in0.0 mm
05:05 PM 80.9°F27.2°C 66.3°F19.1°C 46% 2.0 mph NNE3.2 kmh NNE 2.0 mph3.2 kmh 30.14 in1020.7 mb 0.00 in0.0 mm 0.00 in0.0 mm 0.00 in0.0 mm
05:06 PM 80.8°F27.1°C 66.3°F19.1°C 46% 1.6 mph 2.6 kmh 1.6 mph2.6 kmh 30.14 in1020.7 mb 0.00 in0.0 mm 0.00 in0.0 mm 0.00 in0.0 mm
05:08 PM 80.9°F27.2°C 66.1°F18.9°C 46% 2.7 mph 4.3 kmh 2.7 mph4.3 kmh 30.14 in1020.7 mb 0.00 in0.0 mm 0.00 in0.0 mm 0.00 in0.0 mm
05:09 PM 80.9°F27.2°C 65.6°F18.7°C 45% 2.0 mph 3.2 kmh 2.2 mph3.5 kmh 30.14 in1020.7 mb 0.00 in0.0 mm 0.00 in0.0 mm 0.00 in0.0 mm
05:11 PM 80.8°F27.1°C 65.8°F18.8°C 45% 1.6 mph 2.6 kmh 1.6 mph2.6 kmh 30.14 in1020.7 mb 0.00 in0.0 mm 0.00 in0.0 mm 0.00 in0.0 mm
05:12 PM 80.8°F27.1°C 65.7°F18.7°C 45% 2.0 mph 3.2 kmh 2.0 mph3.2 kmh 30.14 in1020.7 mb 0.00 in0.0 mm 0.00 in0.0 mm 0.00 in0.0 mm
05:14 PM 81.3°F27.4°C 65.6°F18.7°C 45% 2.8 mph NW4.5 kmh NW 2.8 mph4.5 kmh 30.14 in1020.7 mb 0.00 in0.0 mm 0.00 in0.0 mm 0.00 in0.0 mm
05:15 PM 81.3°F27.4°C 64.7°F18.2°C 44% 3.1 mph NW5.0 kmh NW 3.2 mph5.1 kmh 30.14 in1020.7 mb 0.00 in0.0 mm 0.00 in0.0 mm 0.00 in0.0 mm
05:17 PM 83.0°F28.3°C 65.8°F18.8°C 45% 1.2 mph WNW1.9 kmh WNW 1.2 mph1.9 kmh 30.14 in1020.7 mb 0.00 in0.0 mm 0.00 in0.0 mm 0.00 in0.0 mm
05:18 PM 83.1°F28.4°C 65.7°F18.7°C 45% 1.6 mph WNW2.6 kmh WNW 1.6 mph2.6 kmh 30.14 in1020.7 mb 0.00 in0.0 mm 0.00 in0.0 mm 0.00 in0.0 mm
05:20 PM 82.9°F28.3°C 65.3°F18.5°C 45% 1.2 mph WSW1.9 kmh WSW 1.2 mph1.9 kmh 30.14 in1020.7 mb 0.00 in0.0 mm 0.00 in0.0 mm 0.00 in0.0 mm
05:21 PM 82.7°F28.2°C 65.3°F18.5°C 45% 1.6 mph WSW2.6 kmh WSW 1.6 mph2.6 kmh 30.14 in1020.7 mb 0.00 in0.0 mm 0.00 in0.0 mm 0.00 in0.0 mm
05:23 PM 83.1°F28.4°C 65.5°F18.6°C 45% 0.4 mph NNW0.6 kmh NNW 0.4 mph0.6 kmh 30.13 in1020.3 mb 0.00 in0.0 mm 0.00 in0.0 mm 0.00 in0.0 mm
05:24 PM 83.2°F28.4°C 65.5°F18.6°C 45% Calm Calm -- 30.14 in1020.7 mb 0.00 in0.0 mm 0.00 in0.0 mm 0.00 in0.0 mm
05:26 PM 82.1°F27.8°C 65.5°F18.6°C 44% Calm Calm -- 30.14 in1020.7 mb 0.00 in0.0 mm 0.00 in0.0 mm 0.00 in0.0 mm
05:29 PM 82.0°F27.8°C 66.6°F19.2°C 46% 3.9 mph NNW6.3 kmh NNW 3.9 mph6.3 kmh 30.13 in1020.3 mb 0.00 in0.0 mm 0.00 in0.0 mm 0.00 in0.0 mm
05:32 PM 80.7°F27.1°C 65.3°F18.5°C 45% 1.6 mph NNW2.6 kmh NNW 1.6 mph2.6 kmh 30.14 in1020.7 mb 0.00 in0.0 mm 0.00 in0.0 mm 0.00 in0.0 mm
05:33 PM 80.8°F27.1°C 65.3°F18.5°C 45% 0.7 mph NW1.1 kmh NW 0.8 mph1.3 kmh 30.13 in1020.3 mb 0.00 in0.0 mm 0.00 in0.0 mm 0.00 in0.0 mm
05:35 PM 81.6°F27.6°C 65.5°F18.6°C 45% 2.8 mph WNW4.5 kmh WNW 2.9 mph4.7 kmh 30.13 in1020.3 mb 0.00 in0.0 mm 0.00 in0.0 mm 0.00 in0.0 mm
05:36 PM 81.6°F27.6°C 65.6°F18.7°C 45% 2.4 mph WNW3.9 kmh WNW 2.5 mph4.0 kmh 30.14 in1020.7 mb 0.00 in0.0 mm 0.00 in0.0 mm 0.00 in0.0 mm
05:41 PM 79.8°F26.6°C 65.3°F18.5°C 46% Calm Calm -- 30.13 in1020.3 mb 0.00 in0.0 mm 0.00 in0.0 mm 0.00 in0.0 mm
05:42 PM 79.8°F26.6°C 65.1°F18.4°C 45% Calm Calm -- 30.14 in1020.7 mb 0.00 in0.0 mm 0.00 in0.0 mm 0.00 in0.0 mm
05:44 PM 79.5°F26.4°C 65.1°F18.4°C 46% 0.4 mph WSW0.6 kmh WSW 0.4 mph0.6 kmh 30.14 in1020.7 mb 0.00 in0.0 mm 0.00 in0.0 mm 0.00 in0.0 mm
05:45 PM 79.5°F26.4°C 64.9°F18.3°C 46% 0.2 mph WSW0.3 kmh WSW 0.2 mph0.3 kmh 30.13 in1020.3 mb 0.00 in0.0 mm 0.00 in0.0 mm 0.00 in0.0 mm
05:47 PM 78.9°F26.1°C 65.3°F18.5°C 46% 2.0 mph WSW3.2 kmh WSW 2.0 mph3.2 kmh 30.13 in1020.3 mb 0.00 in0.0 mm 0.00 in0.0 mm 0.00 in0.0 mm
05:48 PM 78.9°F26.1°C 65.1°F18.4°C 46% 2.3 mph WSW3.7 kmh WSW 2.5 mph4.0 kmh 30.13 in1020.3 mb 0.00 in0.0 mm 0.00 in0.0 mm 0.00 in0.0 mm
05:50 PM 78.5°F25.8°C 64.3°F17.9°C 46% 3.6 mph WSW5.8 kmh WSW 3.6 mph5.8 kmh 30.12 in1020.0 mb 0.00 in0.0 mm 0.00 in0.0 mm 0.00 in0.0 mm
05:51 PM 78.5°F25.8°C 64.1°F17.8°C 46% 2.8 mph WSW4.5 kmh WSW 2.8 mph4.5 kmh 30.13 in1020.3 mb 0.00 in0.0 mm 0.00 in0.0 mm 0.00 in0.0 mm
05:53 PM 78.7°F25.9°C 64.4°F18.0°C 46% 1.1 mph NNW1.8 kmh NNW 1.2 mph1.9 kmh 30.12 in1020.0 mb 0.00 in0.0 mm 0.00 in0.0 mm 0.00 in0.0 mm
05:54 PM 78.8°F26.0°C 64.2°F17.9°C 46% 1.5 mph NNW2.4 kmh NNW 1.5 mph2.4 kmh 30.12 in1020.0 mb 0.00 in0.0 mm 0.00 in0.0 mm 0.00 in0.0 mm
05:56 PM 79.5°F26.4°C 65.7°F18.7°C 47% 2.0 mph WSW3.2 kmh WSW 2.0 mph3.2 kmh 30.13 in1020.3 mb 0.00 in0.0 mm 0.00 in0.0 mm 0.00 in0.0 mm
05:57 PM 79.5°F26.4°C 65.2°F18.4°C 48% 2.3 mph WSW3.7 kmh WSW 2.3 mph3.7 kmh 30.12 in1020.0 mb 0.00 in0.0 mm 0.00 in0.0 mm 0.00 in0.0 mm
05:59 PM 79.7°F26.5°C 65.9°F18.8°C 48% 0.8 mph NNW1.3 kmh NNW 0.8 mph1.3 kmh 30.12 in1020.0 mb 0.00 in0.0 mm 0.00 in0.0 mm 0.00 in0.0 mm
06:00 PM 79.7°F26.5°C 65.3°F18.5°C 47% 1.6 mph WSW2.6 kmh WSW 1.6 mph2.6 kmh 30.12 in1020.0 mb 0.00 in0.0 mm 0.00 in0.0 mm 0.00 in0.0 mm
06:02 PM 78.8°F26.0°C 63.8°F17.7°C 46% 2.4 mph SW3.9 kmh SW 2.5 mph4.0 kmh 30.12 in1020.0 mb 0.00 in0.0 mm 0.00 in0.0 mm 0.00 in0.0 mm
06:03 PM 78.8°F26.0°C 64.0°F17.8°C 46% 2.6 mph SW4.2 kmh SW 2.6 mph4.2 kmh 30.12 in1020.0 mb 0.00 in0.0 mm 0.00 in0.0 mm 0.00 in0.0 mm
06:05 PM 79.0°F26.1°C 64.0°F17.8°C 46% 1.6 mph SW2.6 kmh SW 1.6 mph2.6 kmh 30.12 in1020.0 mb 0.00 in0.0 mm 0.00 in0.0 mm 0.00 in0.0 mm
06:06 PM 79.1°F26.2°C 63.5°F17.5°C 45% 1.4 mph SW2.3 kmh SW 1.5 mph2.4 kmh 30.12 in1020.0 mb 0.00 in0.0 mm 0.00 in0.0 mm 0.00 in0.0 mm
06:08 PM 80.2°F26.8°C 64.6°F18.1°C 46% Calm Calm -- 30.12 in1020.0 mb 0.00 in0.0 mm 0.00 in0.0 mm 0.00 in0.0 mm
06:09 PM 80.2°F26.8°C 64.5°F18.1°C 46% Calm Calm -- 30.12 in1020.0 mb 0.00 in0.0 mm 0.00 in0.0 mm 0.00 in0.0 mm
06:11 PM 79.4°F26.3°C 64.2°F17.9°C 46% 1.1 mph NNW1.8 kmh NNW 1.2 mph1.9 kmh 30.12 in1020.0 mb 0.00 in0.0 mm 0.00 in0.0 mm 0.00 in0.0 mm
06:12 PM 79.4°F26.3°C 63.7°F17.6°C 46% 0.9 mph WSW1.4 kmh WSW 1.0 mph1.6 kmh 30.12 in1020.0 mb 0.00 in0.0 mm 0.00 in0.0 mm 0.00 in0.0 mm
06:14 PM 79.8°F26.6°C 65.3°F18.5°C 47% 3.2 mph WSW5.1 kmh WSW 3.2 mph5.1 kmh 30.12 in1020.0 mb 0.00 in0.0 mm 0.00 in0.0 mm 0.00 in0.0 mm
06:15 PM 79.7°F26.5°C 64.8°F18.2°C 47% 3.2 mph WSW5.1 kmh WSW 3.3 mph5.3 kmh 30.12 in1020.0 mb 0.00 in0.0 mm 0.00 in0.0 mm 0.00 in0.0 mm
06:17 PM 80.0°F26.7°C 65.2°F18.4°C 47% Calm Calm -- 30.12 in1020.0 mb 0.00 in0.0 mm 0.00 in0.0 mm 0.00 in0.0 mm
06:18 PM 80.0°F26.7°C 65.0°F18.3°C 47% Calm Calm -- 30.12 in1020.0 mb 0.00 in0.0 mm 0.00 in0.0 mm 0.00 in0.0 mm
06:20 PM 79.8°F26.6°C 65.5°F18.6°C 47% 3.1 mph NW5.0 kmh NW 3.3 mph5.3 kmh 30.12 in1020.0 mb 0.00 in0.0 mm 0.00 in0.0 mm 0.00 in0.0 mm
06:21 PM 79.9°F26.6°C 65.6°F18.7°C 47% 3.4 mph NW5.5 kmh NW 3.5 mph5.6 kmh 30.12 in1020.0 mb 0.00 in0.0 mm 0.00 in0.0 mm 0.00 in0.0 mm
06:23 PM 79.4°F26.3°C 65.0°F18.3°C 46% 1.6 mph NNW2.6 kmh NNW 1.6 mph2.6 kmh 30.12 in1020.0 mb 0.00 in0.0 mm 0.00 in0.0 mm 0.00 in0.0 mm
06:24 PM 79.4°F26.3°C 65.0°F18.3°C 46% 1.2 mph NNW1.9 kmh NNW 1.3 mph2.1 kmh 30.12 in1020.0 mb 0.00 in0.0 mm 0.00 in0.0 mm 0.00 in0.0 mm
06:26 PM 79.4°F26.3°C 64.5°F18.1°C 46% 0.8 mph NNW1.3 kmh NNW 0.8 mph1.3 kmh 30.12 in1020.0 mb 0.00 in0.0 mm 0.00 in0.0 mm 0.00 in0.0 mm
06:27 PM 79.4°F26.3°C 64.6°F18.1°C 46% 0.5 mph NNW0.8 kmh NNW 0.5 mph0.8 kmh 30.12 in1020.0 mb 0.00 in0.0 mm 0.00 in0.0 mm 0.00 in0.0 mm
06:29 PM 79.0°F26.1°C 64.9°F18.3°C 46% 0.4 mph WNW0.6 kmh WNW 0.4 mph0.6 kmh 30.12 in1020.0 mb 0.00 in0.0 mm 0.00 in0.0 mm 0.00 in0.0 mm
06:30 PM 79.0°F26.1°C 64.7°F18.2°C 46% Calm Calm -- 30.12 in1020.0 mb 0.00 in0.0 mm 0.00 in0.0 mm 0.00 in0.0 mm
06:32 PM 78.8°F26.0°C 64.3°F17.9°C 46% 1.2 mph W1.9 kmh W 1.2 mph1.9 kmh 30.12 in1020.0 mb 0.00 in0.0 mm 0.00 in0.0 mm 0.00 in0.0 mm
06:33 PM 78.8°F26.0°C 64.5°F18.1°C 46% 1.6 mph WSW2.6 kmh WSW 1.6 mph2.6 kmh 30.12 in1020.0 mb 0.00 in0.0 mm 0.00 in0.0 mm 0.00 in0.0 mm
06:35 PM 78.6°F25.9°C 65.4°F18.6°C 47% 1.6 mph WSW2.6 kmh WSW 1.6 mph2.6 kmh 30.12 in1020.0 mb 0.00 in0.0 mm 0.00 in0.0 mm 0.00 in0.0 mm
06:36 PM 78.5°F25.8°C 64.5°F18.1°C 47% 1.1 mph WSW1.8 kmh WSW 1.2 mph1.9 kmh 30.12 in1020.0 mb 0.00 in0.0 mm 0.00 in0.0 mm 0.00 in0.0 mm
06:38 PM 77.8°F25.4°C 64.4°F18.0°C 47% 0.8 mph WSW1.3 kmh WSW 0.8 mph1.3 kmh 30.12 in1020.0 mb 0.00 in0.0 mm 0.00 in0.0 mm 0.00 in0.0 mm
06:39 PM 77.9°F25.5°C 63.9°F17.7°C 46% 0.5 mph WSW0.8 kmh WSW 0.5 mph0.8 kmh 30.12 in1020.0 mb 0.00 in0.0 mm 0.00 in0.0 mm 0.00 in0.0 mm
06:41 PM 78.6°F25.9°C 64.7°F18.2°C 48% Calm Calm -- 30.12 in1020.0 mb 0.00 in0.0 mm 0.00 in0.0 mm 0.00 in0.0 mm
06:42 PM 78.6°F25.9°C 65.6°F18.7°C 48% Calm Calm -- 30.12 in1020.0 mb 0.00 in0.0 mm 0.00 in0.0 mm 0.00 in0.0 mm
06:44 PM 77.5°F25.3°C 64.8°F18.2°C 47% 2.8 mph WNW4.5 kmh WNW 2.9 mph4.7 kmh 30.12 in1020.0 mb 0.00 in0.0 mm 0.00 in0.0 mm 0.00 in0.0 mm
06:45 PM 77.5°F25.3°C 63.9°F17.7°C 47% 2.1 mph WNW3.4 kmh WNW 2.1 mph3.4 kmh 30.12 in1020.0 mb 0.00 in0.0 mm 0.00 in0.0 mm 0.00 in0.0 mm
06:47 PM 78.1°F25.6°C 65.2°F18.4°C 48% 0.4 mph W0.6 kmh W 0.4 mph0.6 kmh 30.12 in1020.0 mb 0.00 in0.0 mm 0.00 in0.0 mm 0.00 in0.0 mm
06:48 PM 78.1°F25.6°C 64.7°F18.2°C 47% 0.5 mph W0.8 kmh W 0.5 mph0.8 kmh 30.12 in1020.0 mb 0.00 in0.0 mm 0.00 in0.0 mm 0.00 in0.0 mm
06:50 PM 77.2°F25.1°C 64.8°F18.2°C 47% 1.5 mph NNW2.4 kmh NNW 1.5 mph2.4 kmh 30.12 in1020.0 mb 0.00 in0.0 mm 0.00 in0.0 mm 0.00 in0.0 mm
06:51 PM 77.2°F25.1°C 65.1°F18.4°C 47% 0.9 mph NNW1.4 kmh NNW 0.9 mph1.4 kmh 30.12 in1020.0 mb 0.00 in0.0 mm 0.00 in0.0 mm 0.00 in0.0 mm
06:53 PM 77.3°F25.2°C 65.0°F18.3°C 48% 1.6 mph NW2.6 kmh NW 1.6 mph2.6 kmh 30.12 in1020.0 mb 0.00 in0.0 mm 0.00 in0.0 mm 0.00 in0.0 mm
06:54 PM 77.3°F25.2°C 64.4°F18.0°C 48% 1.7 mph NW2.7 kmh NW 1.7 mph2.7 kmh 30.12 in1020.0 mb 0.00 in0.0 mm 0.00 in0.0 mm 0.00 in0.0 mm
06:56 PM 77.1°F25.1°C 65.3°F18.5°C 48% 0.8 mph NNW1.3 kmh NNW 0.8 mph1.3 kmh 30.12 in1020.0 mb 0.00 in0.0 mm 0.00 in0.0 mm 0.00 in0.0 mm
06:57 PM 77.1°F25.1°C 64.4°F18.0°C 47% 0.7 mph NNW1.1 kmh NNW 0.7 mph1.1 kmh 30.12 in1020.0 mb 0.00 in0.0 mm 0.00 in0.0 mm 0.00 in0.0 mm
06:59 PM 76.8°F24.9°C 64.8°F18.2°C 47% 1.6 mph NW2.6 kmh NW 1.6 mph2.6 kmh 30.12 in1020.0 mb 0.00 in0.0 mm 0.00 in0.0 mm 0.00 in0.0 mm
07:00 PM 76.7°F24.8°C 64.9°F18.3°C 47% 1.6 mph NW2.6 kmh NW 1.6 mph2.6 kmh 30.12 in1020.0 mb 0.00 in0.0 mm 0.00 in0.0 mm 0.00 in0.0 mm
07:02 PM 77.0°F25.0°C 64.0°F17.8°C 47% 1.5 mph NW2.4 kmh NW 1.5 mph2.4 kmh 30.12 in1020.0 mb 0.00 in0.0 mm 0.00 in0.0 mm 0.00 in0.0 mm
07:03 PM 77.1°F25.1°C 64.9°F18.3°C 48% 2.1 mph NW3.4 kmh NW 2.1 mph3.4 kmh 30.12 in1020.0 mb 0.00 in0.0 mm 0.00 in0.0 mm 0.00 in0.0 mm
07:05 PM 77.2°F25.1°C 64.5°F18.1°C 47% 2.4 mph NNW3.9 kmh NNW 2.5 mph4.0 kmh 30.12 in1020.0 mb 0.00 in0.0 mm 0.00 in0.0 mm 0.00 in0.0 mm
07:08 PM 76.3°F24.6°C 63.5°F17.5°C 47% 2.4 mph NW3.9 kmh NW 2.4 mph3.9 kmh 30.12 in1020.0 mb 0.00 in0.0 mm 0.00 in0.0 mm 0.00 in0.0 mm
07:09 PM 76.3°F24.6°C 63.8°F17.7°C 46% 2.5 mph NNW4.0 kmh NNW 2.7 mph4.3 kmh 30.12 in1020.0 mb 0.00 in0.0 mm 0.00 in0.0 mm 0.00 in0.0 mm
07:11 PM 76.1°F24.5°C 64.4°F18.0°C 47% 0.8 mph 1.3 kmh 0.8 mph1.3 kmh 30.12 in1020.0 mb 0.00 in0.0 mm 0.00 in0.0 mm 0.00 in0.0 mm
07:12 PM 76.1°F24.5°C 64.4°F18.0°C 47% 1.8 mph 2.9 kmh 1.9 mph3.1 kmh 30.12 in1020.0 mb 0.00 in0.0 mm 0.00 in0.0 mm 0.00 in0.0 mm
07:14 PM 75.8°F24.3°C 64.3°F17.9°C 47% 1.2 mph NW1.9 kmh NW 1.2 mph1.9 kmh 30.12 in1020.0 mb 0.00 in0.0 mm 0.00 in0.0 mm 0.00 in0.0 mm
07:15 PM 75.9°F24.4°C 64.1°F17.8°C 47% 2.1 mph NW3.4 kmh NW 2.2 mph3.5 kmh 30.12 in1020.0 mb 0.00 in0.0 mm 0.00 in0.0 mm 0.00 in0.0 mm
07:17 PM 75.4°F24.1°C 63.9°F17.7°C 48% 2.0 mph NW3.2 kmh NW 2.0 mph3.2 kmh 30.12 in1020.0 mb 0.00 in0.0 mm 0.00 in0.0 mm 0.00 in0.0 mm
07:18 PM 75.4°F24.1°C 64.2°F17.9°C 48% 1.8 mph 2.9 kmh 1.9 mph3.1 kmh 30.12 in1020.0 mb 0.00 in0.0 mm 0.00 in0.0 mm 0.00 in0.0 mm
07:20 PM 75.3°F24.1°C 64.1°F17.8°C 48% 2.0 mph NNW3.2 kmh NNW 2.0 mph3.2 kmh 30.12 in1020.0 mb 0.00 in0.0 mm 0.00 in0.0 mm 0.00 in0.0 mm
07:21 PM 75.3°F24.1°C 64.1°F17.8°C 48% 2.3 mph NW3.7 kmh NW 2.3 mph3.7 kmh 30.12 in1020.0 mb 0.00 in0.0 mm 0.00 in0.0 mm 0.00 in0.0 mm
07:23 PM 75.4°F24.1°C 63.8°F17.7°C 47% 2.7 mph NW4.3 kmh NW 2.8 mph4.5 kmh 30.12 in1020.0 mb 0.00 in0.0 mm 0.00 in0.0 mm 0.00 in0.0 mm
07:24 PM 75.4°F24.1°C 63.2°F17.3°C 47% 3.2 mph NW5.1 kmh NW 3.4 mph5.5 kmh 30.12 in1020.0 mb 0.00 in0.0 mm 0.00 in0.0 mm 0.00 in0.0 mm
07:26 PM 75.2°F24.0°C 64.2°F17.9°C 48% 2.0 mph NW3.2 kmh NW 2.0 mph3.2 kmh 30.12 in1020.0 mb 0.00 in0.0 mm 0.00 in0.0 mm 0.00 in0.0 mm
07:27 PM 75.2°F24.0°C 63.7°F17.6°C 47% 2.1 mph NW3.4 kmh NW 2.2 mph3.5 kmh 30.12 in1020.0 mb 0.00 in0.0 mm 0.00 in0.0 mm 0.00 in0.0 mm
07:29 PM 74.9°F23.8°C 62.9°F17.2°C 47% 0.4 mph NNW0.6 kmh NNW 0.4 mph0.6 kmh 30.12 in1020.0 mb 0.00 in0.0 mm 0.00 in0.0 mm 0.00 in0.0 mm
07:30 PM 74.9°F23.8°C 63.8°F17.7°C 47% 0.9 mph NNW1.4 kmh NNW 0.9 mph1.4 kmh 30.12 in1020.0 mb 0.00 in0.0 mm 0.00 in0.0 mm 0.00 in0.0 mm
07:32 PM 74.1°F23.4°C 64.2°F17.9°C 48% 1.6 mph 2.6 kmh 1.6 mph2.6 kmh 30.12 in1020.0 mb 0.00 in0.0 mm 0.00 in0.0 mm 0.00 in0.0 mm
07:35 PM 73.7°F23.2°C 64.0°F17.8°C 49% Calm Calm -- 30.12 in1020.0 mb 0.00 in0.0 mm 0.00 in0.0 mm 0.00 in0.0 mm
07:38 PM 73.3°F22.9°C 64.4°F18.0°C 49% Calm Calm -- 30.12 in1020.0 mb 0.00 in0.0 mm 0.00 in0.0 mm 0.00 in0.0 mm
07:39 PM 73.3°F22.9°C 64.5°F18.1°C 49% Calm Calm -- 30.12 in1020.0 mb 0.00 in0.0 mm 0.00 in0.0 mm 0.00 in0.0 mm
07:41 PM 71.7°F22.1°C 63.8°F17.7°C 50% Calm Calm -- 30.12 in1020.0 mb 0.00 in0.0 mm 0.00 in0.0 mm 0.00 in0.0 mm
07:42 PM 71.6°F22.0°C 64.5°F18.1°C 50% Calm Calm -- 30.12 in1020.0 mb 0.00 in0.0 mm 0.00 in0.0 mm 0.00 in0.0 mm
07:44 PM 71.0°F21.7°C 64.8°F18.2°C 51% 1.2 mph 1.9 kmh 1.2 mph1.9 kmh 30.12 in1020.0 mb 0.00 in0.0 mm 0.00 in0.0 mm 0.00 in0.0 mm
07:45 PM 71.0°F21.7°C 64.8°F18.2°C 51% 1.2 mph 1.9 kmh 1.2 mph1.9 kmh 30.12 in1020.0 mb 0.00 in0.0 mm 0.00 in0.0 mm 0.00 in0.0 mm
07:47 PM 69.9°F21.1°C 64.8°F18.2°C 51% 0.8 mph NNE1.3 kmh NNE 0.8 mph1.3 kmh 30.12 in1020.0 mb 0.00 in0.0 mm 0.00 in0.0 mm 0.00 in0.0 mm
07:48 PM 69.9°F21.1°C 64.9°F18.3°C 51% 0.9 mph NNE1.4 kmh NNE 0.9 mph1.4 kmh 30.12 in1020.0 mb 0.00 in0.0 mm 0.00 in0.0 mm 0.00 in0.0 mm
07:50 PM 69.4°F20.8°C 64.5°F18.1°C 52% 0.8 mph NNE1.3 kmh NNE 0.8 mph1.3 kmh 30.12 in1020.0 mb 0.00 in0.0 mm 0.00 in0.0 mm 0.00 in0.0 mm
07:51 PM 69.4°F20.8°C 64.0°F17.8°C 52% 0.9 mph NNE1.4 kmh NNE 0.9 mph1.4 kmh 30.12 in1020.0 mb 0.00 in0.0 mm 0.00 in0.0 mm 0.00 in0.0 mm
07:53 PM 68.8°F20.4°C 65.1°F18.4°C 53% Calm Calm -- 30.12 in1020.0 mb 0.00 in0.0 mm 0.00 in0.0 mm 0.00 in0.0 mm
07:54 PM 68.8°F20.4°C 64.6°F18.1°C 53% Calm Calm -- 30.12 in1020.0 mb 0.00 in0.0 mm 0.00 in0.0 mm 0.00 in0.0 mm
07:56 PM 68.7°F20.4°C 65.1°F18.4°C 53% Calm Calm -- 30.12 in1020.0 mb 0.00 in0.0 mm 0.00 in0.0 mm 0.00 in0.0 mm
07:57 PM 68.8°F20.4°C 64.6°F18.1°C 53% Calm Calm -- 30.12 in1020.0 mb 0.00 in0.0 mm 0.00 in0.0 mm 0.00 in0.0 mm
07:59 PM 68.2°F20.1°C 64.5°F18.1°C 55% Calm Calm -- 30.12 in1020.0 mb 0.00 in0.0 mm 0.00 in0.0 mm 0.00 in0.0 mm
08:02 PM 67.8°F19.9°C 65.1°F18.4°C 56% Calm Calm -- 30.12 in1020.0 mb 0.00 in0.0 mm 0.00 in0.0 mm 0.00 in0.0 mm
08:03 PM 67.8°F19.9°C 65.6°F18.7°C 56% Calm Calm -- 30.12 in1020.0 mb 0.00 in0.0 mm 0.00 in0.0 mm 0.00 in0.0 mm
08:05 PM 68.8°F20.4°C 63.8°F17.7°C 54% Calm Calm -- 30.12 in1020.0 mb 0.00 in0.0 mm 0.00 in0.0 mm 0.00 in0.0 mm
08:06 PM 68.8°F20.4°C 64.6°F18.1°C 55% Calm Calm -- 30.12 in1020.0 mb 0.00 in0.0 mm 0.00 in0.0 mm 0.00 in0.0 mm
08:11 PM 67.6°F19.8°C 64.7°F18.2°C 56% Calm Calm -- 30.12 in1020.0 mb 0.00 in0.0 mm 0.00 in0.0 mm 0.00 in0.0 mm
08:12 PM 67.6°F19.8°C 64.0°F17.8°C 56% Calm Calm -- 30.12 in1020.0 mb 0.00 in0.0 mm 0.00 in0.0 mm 0.00 in0.0 mm
08:14 PM 66.8°F19.3°C 64.2°F17.9°C 57% Calm Calm -- 30.12 in1020.0 mb 0.00 in0.0 mm 0.00 in0.0 mm 0.00 in0.0 mm
08:15 PM 66.8°F19.3°C 65.1°F18.4°C 57% Calm Calm -- 30.12 in1020.0 mb 0.00 in0.0 mm 0.00 in0.0 mm 0.00 in0.0 mm
08:17 PM 66.1°F18.9°C 64.9°F18.3°C 58% Calm Calm -- 30.12 in1020.0 mb 0.00 in0.0 mm 0.00 in0.0 mm 0.00 in0.0 mm
08:18 PM 66.0°F18.9°C 64.6°F18.1°C 58% Calm Calm -- 30.12 in1020.0 mb 0.00 in0.0 mm 0.00 in0.0 mm 0.00 in0.0 mm
08:20 PM 65.6°F18.7°C 64.4°F18.0°C 58% Calm Calm -- 30.12 in1020.0 mb 0.00 in0.0 mm 0.00 in0.0 mm 0.00 in0.0 mm
08:21 PM 65.6°F18.7°C 63.9°F17.7°C 58% Calm Calm -- 30.12 in1020.0 mb 0.00 in0.0 mm 0.00 in0.0 mm 0.00 in0.0 mm
08:23 PM 65.3°F18.5°C 63.5°F17.5°C 58% Calm Calm -- 30.12 in1020.0 mb 0.00 in0.0 mm 0.00 in0.0 mm 0.00 in0.0 mm
08:24 PM 65.3°F18.5°C 64.0°F17.8°C 58% Calm Calm -- 30.12 in1020.0 mb 0.00 in0.0 mm 0.00 in0.0 mm 0.00 in0.0 mm
08:26 PM 64.5°F18.1°C 64.0°F17.8°C 59% Calm Calm -- 30.12 in1020.0 mb 0.00 in0.0 mm 0.00 in0.0 mm 0.00 in0.0 mm
08:27 PM 64.6°F18.1°C 64.2°F17.9°C 59% Calm Calm -- 30.12 in1020.0 mb 0.00 in0.0 mm 0.00 in0.0 mm 0.00 in0.0 mm
08:29 PM 64.7°F18.2°C 63.7°F17.6°C 60% Calm Calm -- 30.12 in1020.0 mb 0.00 in0.0 mm 0.00 in0.0 mm 0.00 in0.0 mm
08:30 PM 64.9°F18.3°C 64.1°F17.8°C 60% Calm Calm -- 30.12 in1020.0 mb 0.00 in0.0 mm 0.00 in0.0 mm 0.00 in0.0 mm
08:32 PM 63.2°F17.3°C 64.1°F17.8°C 60% Calm Calm -- 30.12 in1020.0 mb 0.00 in0.0 mm 0.00 in0.0 mm 0.00 in0.0 mm
08:33 PM 63.1°F17.3°C 64.3°F17.9°C 60% Calm Calm -- 30.12 in1020.0 mb 0.00 in0.0 mm 0.00 in0.0 mm 0.00 in0.0 mm
08:35 PM 63.4°F17.4°C 63.1°F17.3°C 60% Calm Calm -- 30.12 in1020.0 mb 0.00 in0.0 mm 0.00 in0.0 mm 0.00 in0.0 mm
08:36 PM 63.4°F17.4°C 64.1°F17.8°C 61% Calm Calm -- 30.12 in1020.0 mb 0.00 in0.0 mm 0.00 in0.0 mm 0.00 in0.0 mm
08:38 PM 63.4°F17.4°C 63.1°F17.3°C 61% Calm Calm -- 30.12 in1020.0 mb 0.00 in0.0 mm 0.00 in0.0 mm 0.00 in0.0 mm
08:39 PM 63.4°F17.4°C 63.5°F17.5°C 61% Calm Calm -- 30.12 in1020.0 mb 0.00 in0.0 mm 0.00 in0.0 mm 0.00 in0.0 mm
08:41 PM 63.1°F17.3°C 62.7°F17.1°C 61% Calm Calm -- 30.13 in1020.3 mb 0.00 in0.0 mm 0.00 in0.0 mm 0.00 in0.0 mm
08:42 PM 63.1°F17.3°C 63.7°F17.6°C 61% Calm Calm -- 30.13 in1020.3 mb 0.00 in0.0 mm 0.00 in0.0 mm 0.00 in0.0 mm
08:44 PM 62.6°F17.0°C 63.1°F17.3°C 62% Calm Calm -- 30.13 in1020.3 mb 0.00 in0.0 mm 0.00 in0.0 mm 0.00 in0.0 mm
08:45 PM 62.7°F17.1°C 63.0°F17.2°C 62% Calm Calm -- 30.13 in1020.3 mb 0.00 in0.0 mm 0.00 in0.0 mm 0.00 in0.0 mm
08:47 PM 62.0°F16.7°C 63.9°F17.7°C 63% Calm Calm -- 30.13 in1020.3 mb 0.00 in0.0 mm 0.00 in0.0 mm 0.00 in0.0 mm
08:48 PM 62.0°F16.7°C 63.7°F17.6°C 63% Calm Calm -- 30.13 in1020.3 mb 0.00 in0.0 mm 0.00 in0.0 mm 0.00 in0.0 mm
08:50 PM 61.5°F16.4°C 62.9°F17.2°C 62% Calm Calm -- 30.13 in1020.3 mb 0.00 in0.0 mm 0.00 in0.0 mm 0.00 in0.0 mm
08:51 PM 61.5°F16.4°C 63.4°F17.4°C 62% Calm Calm -- 30.12 in1020.0 mb 0.00 in0.0 mm 0.00 in0.0 mm 0.00 in0.0 mm
08:53 PM 61.7°F16.5°C 63.2°F17.3°C 63% Calm Calm -- 30.13 in1020.3 mb 0.00 in0.0 mm 0.00 in0.0 mm 0.00 in0.0 mm
08:54 PM 61.7°F16.5°C 62.6°F17.0°C 62% Calm Calm -- 30.13 in1020.3 mb 0.00 in0.0 mm 0.00 in0.0 mm 0.00 in0.0 mm
08:56 PM 61.7°F16.5°C 62.9°F17.2°C 63% Calm Calm -- 30.13 in1020.3 mb 0.00 in0.0 mm 0.00 in0.0 mm 0.00 in0.0 mm
08:57 PM 61.8°F16.6°C 63.2°F17.3°C 63% Calm Calm -- 30.13 in1020.3 mb 0.00 in0.0 mm 0.00 in0.0 mm 0.00 in0.0 mm
08:59 PM 61.9°F16.6°C 62.5°F16.9°C 63% Calm Calm -- 30.12 in1020.0 mb 0.00 in0.0 mm 0.00 in0.0 mm 0.00 in0.0 mm
09:00 PM 61.8°F16.6°C 62.7°F17.1°C 63% Calm Calm -- 30.13 in1020.3 mb 0.00 in0.0 mm 0.00 in0.0 mm 0.00 in0.0 mm
09:02 PM 60.8°F16.0°C 62.7°F17.1°C 63% Calm Calm -- 30.13 in1020.3 mb 0.00 in0.0 mm 0.00 in0.0 mm 0.00 in0.0 mm
09:03 PM 60.7°F15.9°C 63.1°F17.3°C 64% Calm Calm -- 30.13 in1020.3 mb 0.00 in0.0 mm 0.00 in0.0 mm 0.00 in0.0 mm
09:05 PM 60.2°F15.7°C 62.1°F16.7°C 64% Calm Calm -- 30.13 in1020.3 mb 0.00 in0.0 mm 0.00 in0.0 mm 0.00 in0.0 mm
09:06 PM 60.2°F15.7°C 62.5°F16.9°C 64% Calm Calm -- 30.13 in1020.3 mb 0.00 in0.0 mm 0.00 in0.0 mm 0.00 in0.0 mm
09:08 PM 60.8°F16.0°C 62.3°F16.8°C 64% Calm Calm -- 30.13 in1020.3 mb 0.00 in0.0 mm 0.00 in0.0 mm 0.00 in0.0 mm
09:09 PM 60.8°F16.0°C 62.2°F16.8°C 64% Calm Calm -- 30.13 in1020.3 mb 0.00 in0.0 mm 0.00 in0.0 mm 0.00 in0.0 mm
09:11 PM 60.5°F15.8°C 62.1°F16.7°C 64% Calm Calm -- 30.13 in1020.3 mb 0.00 in0.0 mm 0.00 in0.0 mm 0.00 in0.0 mm
09:12 PM 60.5°F15.8°C 61.9°F16.6°C 65% Calm Calm -- 30.13 in1020.3 mb 0.00 in0.0 mm 0.00 in0.0 mm 0.00 in0.0 mm
09:14 PM 60.1°F15.6°C 61.8°F16.6°C 65% Calm Calm -- 30.13 in1020.3 mb 0.00 in0.0 mm 0.00 in0.0 mm 0.00 in0.0 mm
09:15 PM 60.1°F15.6°C 61.8°F16.6°C 65% Calm Calm -- 30.13 in1020.3 mb 0.00 in0.0 mm 0.00 in0.0 mm 0.00 in0.0 mm
09:17 PM 60.0°F15.6°C 61.7°F16.5°C 64% Calm Calm -- 30.13 in1020.3 mb 0.00 in0.0 mm 0.00 in0.0 mm 0.00 in0.0 mm
09:18 PM 60.0°F15.6°C 62.1°F16.7°C 65% Calm Calm -- 30.13 in1020.3 mb 0.00 in0.0 mm 0.00 in0.0 mm 0.00 in0.0 mm
09:20 PM 59.8°F15.4°C 61.5°F16.4°C 64% Calm Calm -- 30.14 in1020.7 mb 0.00 in0.0 mm 0.00 in0.0 mm 0.00 in0.0 mm
09:21 PM 59.7°F15.4°C 61.9°F16.6°C 64% Calm Calm -- 30.13 in1020.3 mb 0.00 in0.0 mm 0.00 in0.0 mm 0.00 in0.0 mm
09:26 PM 59.7°F15.4°C 61.3°F16.3°C 65% Calm Calm -- 30.13 in1020.3 mb 0.00 in0.0 mm 0.00 in0.0 mm 0.00 in0.0 mm
09:27 PM 59.7°F15.4°C 61.4°F16.3°C 65% Calm Calm -- 30.13 in1020.3 mb 0.00 in0.0 mm 0.00 in0.0 mm 0.00 in0.0 mm
09:29 PM 59.1°F15.1°C 61.1°F16.2°C 65% Calm Calm -- 30.13 in1020.3 mb 0.00 in0.0 mm 0.00 in0.0 mm 0.00 in0.0 mm
09:30 PM 59.0°F15.0°C 61.4°F16.3°C 65% Calm Calm -- 30.13 in1020.3 mb 0.00 in0.0 mm 0.00 in0.0 mm 0.00 in0.0 mm
09:32 PM 59.0°F15.0°C 61.3°F16.3°C 66% Calm Calm -- 30.14 in1020.7 mb 0.00 in0.0 mm 0.00 in0.0 mm 0.00 in0.0 mm
09:33 PM 59.0°F15.0°C 61.3°F16.3°C 66% Calm Calm -- 30.14 in1020.7 mb 0.00 in0.0 mm 0.00 in0.0 mm 0.00 in0.0 mm
09:35 PM 59.3°F15.2°C 61.5°F16.4°C 67% Calm Calm -- 30.14 in1020.7 mb 0.00 in0.0 mm 0.00 in0.0 mm 0.00 in0.0 mm
09:36 PM 59.3°F15.2°C 61.6°F16.4°C 67% Calm Calm -- 30.13 in1020.3 mb 0.00 in0.0 mm 0.00 in0.0 mm 0.00 in0.0 mm
09:38 PM 59.2°F15.1°C 61.5°F16.4°C 66% Calm Calm -- 30.13 in1020.3 mb 0.00 in0.0 mm 0.00 in0.0 mm 0.00 in0.0 mm
09:39 PM 59.3°F15.2°C 61.5°F16.4°C 67% Calm Calm -- 30.14 in1020.7 mb 0.00 in0.0 mm 0.00 in0.0 mm 0.00 in0.0 mm
09:41 PM 58.7°F14.8°C 61.1°F16.2°C 66% Calm Calm -- 30.14 in1020.7 mb 0.00 in0.0 mm 0.00 in0.0 mm 0.00 in0.0 mm
09:42 PM 58.6°F14.8°C 61.2°F16.2°C 66% Calm Calm -- 30.14 in1020.7 mb 0.00 in0.0 mm 0.00 in0.0 mm 0.00 in0.0 mm
09:44 PM 58.9°F14.9°C 61.2°F16.2°C 66% Calm Calm -- 30.14 in1020.7 mb 0.00 in0.0 mm 0.00 in0.0 mm 0.00 in0.0 mm
09:45 PM 58.8°F14.9°C 61.2°F16.2°C 66% Calm Calm -- 30.14 in1020.7 mb 0.00 in0.0 mm 0.00 in0.0 mm 0.00 in0.0 mm
09:47 PM 59.3°F15.2°C 61.0°F16.1°C 66% Calm Calm -- 30.14 in1020.7 mb 0.00 in0.0 mm 0.00 in0.0 mm 0.00 in0.0 mm
09:48 PM 59.3°F15.2°C 60.8°F16.0°C 66% Calm Calm -- 30.14 in1020.7 mb 0.00 in0.0 mm 0.00 in0.0 mm 0.00 in0.0 mm
09:50 PM 58.2°F14.6°C 60.4°F15.8°C 66% Calm Calm -- 30.14 in1020.7 mb 0.00 in0.0 mm 0.00 in0.0 mm 0.00 in0.0 mm
09:51 PM 58.2°F14.6°C 60.5°F15.8°C 66% Calm Calm -- 30.14 in1020.7 mb 0.00 in0.0 mm 0.00 in0.0 mm 0.00 in0.0 mm
09:53 PM 57.9°F14.4°C 60.1°F15.6°C 66% Calm Calm -- 30.14 in1020.7 mb 0.00 in0.0 mm 0.00 in0.0 mm 0.00 in0.0 mm
09:54 PM 58.0°F14.4°C 60.0°F15.6°C 66% Calm Calm -- 30.14 in1020.7 mb 0.00 in0.0 mm 0.00 in0.0 mm 0.00 in0.0 mm
09:56 PM 57.9°F14.4°C 59.9°F15.5°C 66% Calm Calm -- 30.14 in1020.7 mb 0.00 in0.0 mm 0.00 in0.0 mm 0.00 in0.0 mm
09:57 PM 57.8°F14.3°C 60.0°F15.6°C 66% Calm Calm -- 30.14 in1020.7 mb 0.00 in0.0 mm 0.00 in0.0 mm 0.00 in0.0 mm
09:59 PM 58.2°F14.6°C 60.2°F15.7°C 67% Calm Calm -- 30.14 in1020.7 mb 0.00 in0.0 mm 0.00 in0.0 mm 0.00 in0.0 mm
10:00 PM 58.1°F14.5°C 60.0°F15.6°C 67% Calm Calm -- 30.14 in1020.7 mb 0.00 in0.0 mm 0.00 in0.0 mm 0.00 in0.0 mm
10:02 PM 57.9°F14.4°C 60.1°F15.6°C 66% Calm Calm -- 30.13 in1020.3 mb 0.00 in0.0 mm 0.00 in0.0 mm 0.00 in0.0 mm
10:03 PM 57.8°F14.3°C 59.7°F15.4°C 66% Calm Calm -- 30.13 in1020.3 mb 0.00 in0.0 mm 0.00 in0.0 mm 0.00 in0.0 mm
10:05 PM 57.7°F14.3°C 60.0°F15.6°C 67% Calm Calm -- 30.13 in1020.3 mb 0.00 in0.0 mm 0.00 in0.0 mm 0.00 in0.0 mm
10:06 PM 57.7°F14.3°C 59.9°F15.5°C 67% Calm Calm -- 30.13 in1020.3 mb 0.00 in0.0 mm 0.00 in0.0 mm 0.00 in0.0 mm
10:08 PM 57.9°F14.4°C 59.5°F15.3°C 67% Calm Calm -- 30.13 in1020.3 mb 0.00 in0.0 mm 0.00 in0.0 mm 0.00 in0.0 mm
10:09 PM 57.8°F14.3°C 59.7°F15.4°C 67% Calm Calm -- 30.14 in1020.7 mb 0.00 in0.0 mm 0.00 in0.0 mm 0.00 in0.0 mm
10:11 PM 57.2°F14.0°C 59.8°F15.4°C 67% Calm Calm -- 30.14 in1020.7 mb 0.00 in0.0 mm 0.00 in0.0 mm 0.00 in0.0 mm
10:12 PM 57.2°F14.0°C 59.5°F15.3°C 67% Calm Calm -- 30.14 in1020.7 mb 0.00 in0.0 mm 0.00 in0.0 mm 0.00 in0.0 mm
10:14 PM 57.4°F14.1°C 59.8°F15.4°C 68% Calm Calm -- 30.14 in1020.7 mb 0.00 in0.0 mm 0.00 in0.0 mm 0.00 in0.0 mm
10:17 PM 57.2°F14.0°C 59.8°F15.4°C 69% Calm Calm -- 30.13 in1020.3 mb 0.00 in0.0 mm 0.00 in0.0 mm 0.00 in0.0 mm
10:18 PM 57.2°F14.0°C 60.0°F15.6°C 69% Calm Calm -- 30.14 in1020.7 mb 0.00 in0.0 mm 0.00 in0.0 mm 0.00 in0.0 mm
10:20 PM 57.5°F14.2°C 59.9°F15.5°C 69% Calm Calm -- 30.14 in1020.7 mb 0.00 in0.0 mm 0.00 in0.0 mm 0.00 in0.0 mm
10:21 PM 57.5°F14.2°C 59.8°F15.4°C 69% Calm Calm -- 30.14 in1020.7 mb 0.00 in0.0 mm 0.00 in0.0 mm 0.00 in0.0 mm
10:23 PM 57.8°F14.3°C 59.8°F15.4°C 69% 0.4 mph SW0.6 kmh SW 0.4 mph0.6 kmh 30.14 in1020.7 mb 0.00 in0.0 mm 0.00 in0.0 mm 0.00 in0.0 mm
10:24 PM 57.9°F14.4°C 60.0°F15.6°C 70% Calm Calm -- 30.14 in1020.7 mb 0.00 in0.0 mm 0.00 in0.0 mm 0.00 in0.0 mm
10:26 PM 57.7°F14.3°C 59.9°F15.5°C 70% Calm Calm -- 30.14 in1020.7 mb 0.00 in0.0 mm 0.00 in0.0 mm 0.00 in0.0 mm
10:27 PM 57.7°F14.3°C 59.8°F15.4°C 70% Calm Calm -- 30.14 in1020.7 mb 0.00 in0.0 mm 0.00 in0.0 mm 0.00 in0.0 mm
10:29 PM 56.9°F13.8°C 59.6°F15.3°C 70% Calm Calm -- 30.14 in1020.7 mb 0.00 in0.0 mm 0.00 in0.0 mm 0.00 in0.0 mm
10:32 PM 56.9°F13.8°C 59.7°F15.4°C 70% Calm Calm -- 30.13 in1020.3 mb 0.00 in0.0 mm 0.00 in0.0 mm 0.00 in0.0 mm
10:33 PM 56.9°F13.8°C 59.8°F15.4°C 70% Calm Calm -- 30.14 in1020.7 mb 0.00 in0.0 mm 0.00 in0.0 mm 0.00 in0.0 mm
10:35 PM 56.6°F13.7°C 59.4°F15.2°C 70% Calm Calm -- 30.14 in1020.7 mb 0.00 in0.0 mm 0.00 in0.0 mm 0.00 in0.0 mm
10:36 PM 56.6°F13.7°C 59.6°F15.3°C 70% Calm Calm -- 30.14 in1020.7 mb 0.00 in0.0 mm 0.00 in0.0 mm 0.00 in0.0 mm
10:38 PM 56.5°F13.6°C 59.3°F15.2°C 70% Calm Calm -- 30.13 in1020.3 mb 0.00 in0.0 mm 0.00 in0.0 mm 0.00 in0.0 mm
10:39 PM 56.6°F13.7°C 59.6°F15.3°C 70% Calm Calm -- 30.13 in1020.3 mb 0.00 in0.0 mm 0.00 in0.0 mm 0.00 in0.0 mm
10:41 PM 56.4°F13.6°C 59.1°F15.1°C 70% Calm Calm -- 30.13 in1020.3 mb 0.00 in0.0 mm 0.00 in0.0 mm 0.00 in0.0 mm
10:42 PM 56.4°F13.6°C 58.9°F14.9°C 69% Calm Calm -- 30.14 in1020.7 mb 0.00 in0.0 mm 0.00 in0.0 mm 0.00 in0.0 mm
10:44 PM 56.8°F13.8°C 59.2°F15.1°C 70% Calm Calm -- 30.14 in1020.7 mb 0.00 in0.0 mm 0.00 in0.0 mm 0.00 in0.0 mm
10:45 PM 56.9°F13.8°C 59.1°F15.1°C 70% Calm Calm -- 30.14 in1020.7 mb 0.00 in0.0 mm 0.00 in0.0 mm 0.00 in0.0 mm
10:47 PM 56.3°F13.5°C 59.3°F15.2°C 70% Calm Calm -- 30.14 in1020.7 mb 0.00 in0.0 mm 0.00 in0.0 mm 0.00 in0.0 mm
10:48 PM 56.4°F13.6°C 59.2°F15.1°C 70% Calm Calm -- 30.14 in1020.7 mb 0.00 in0.0 mm 0.00 in0.0 mm 0.00 in0.0 mm
10:50 PM 56.2°F13.4°C 59.3°F15.2°C 71% Calm Calm -- 30.14 in1020.7 mb 0.00 in0.0 mm 0.00 in0.0 mm 0.00 in0.0 mm
10:51 PM 56.2°F13.4°C 59.3°F15.2°C 71% Calm Calm -- 30.13 in1020.3 mb 0.00 in0.0 mm 0.00 in0.0 mm 0.00 in0.0 mm
10:53 PM 56.2°F13.4°C 59.2°F15.1°C 71% Calm Calm -- 30.14 in1020.7 mb 0.00 in0.0 mm 0.00 in0.0 mm 0.00 in0.0 mm
10:54 PM 56.2°F13.4°C 58.9°F14.9°C 71% Calm Calm -- 30.14 in1020.7 mb 0.00 in0.0 mm 0.00 in0.0 mm 0.00 in0.0 mm
10:56 PM 55.6°F13.1°C 59.0°F15.0°C 70% Calm Calm -- 30.14 in1020.7 mb 0.00 in0.0 mm 0.00 in0.0 mm 0.00 in0.0 mm
10:57 PM 55.6°F13.1°C 58.9°F14.9°C 70% Calm Calm -- 30.14 in1020.7 mb 0.00 in0.0 mm 0.00 in0.0 mm 0.00 in0.0 mm
10:59 PM 55.4°F13.0°C 58.8°F14.9°C 71% Calm Calm -- 30.14 in1020.7 mb 0.00 in0.0 mm 0.00 in0.0 mm 0.00 in0.0 mm
11:00 PM 55.6°F13.1°C 58.5°F14.7°C 70% Calm Calm -- 30.14 in1020.7 mb 0.00 in0.0 mm 0.00 in0.0 mm 0.00 in0.0 mm
11:02 PM 55.7°F13.2°C 58.7°F14.8°C 71% Calm Calm -- 30.14 in1020.7 mb 0.00 in0.0 mm 0.00 in0.0 mm 0.00 in0.0 mm
11:03 PM 56.0°F13.3°C 58.9°F14.9°C 71% Calm Calm -- 30.14 in1020.7 mb 0.00 in0.0 mm 0.00 in0.0 mm 0.00 in0.0 mm
11:05 PM 55.5°F13.1°C 58.9°F14.9°C 72% Calm Calm -- 30.14 in1020.7 mb 0.00 in0.0 mm 0.00 in0.0 mm 0.00 in0.0 mm
11:06 PM 55.7°F13.2°C 58.5°F14.7°C 72% Calm Calm -- 30.14 in1020.7 mb 0.00 in0.0 mm 0.00 in0.0 mm 0.00 in0.0 mm
11:08 PM 55.6°F13.1°C 58.8°F14.9°C 72% Calm Calm -- 30.14 in1020.7 mb 0.00 in0.0 mm 0.00 in0.0 mm 0.00 in0.0 mm
11:09 PM 55.7°F13.2°C 58.5°F14.7°C 71% Calm Calm -- 30.14 in1020.7 mb 0.00 in0.0 mm 0.00 in0.0 mm 0.00 in0.0 mm
11:11 PM 55.4°F13.0°C 58.3°F14.6°C 71% Calm Calm -- 30.14 in1020.7 mb 0.00 in0.0 mm 0.00 in0.0 mm 0.00 in0.0 mm
11:12 PM 55.4°F13.0°C 58.3°F14.6°C 71% Calm Calm -- 30.14 in1020.7 mb 0.00 in0.0 mm 0.00 in0.0 mm 0.00 in0.0 mm
11:14 PM 55.2°F12.9°C 58.1°F14.5°C 71% Calm Calm -- 30.14 in1020.7 mb 0.00 in0.0 mm 0.00 in0.0 mm 0.00 in0.0 mm
11:17 PM 55.1°F12.8°C 57.8°F14.3°C 71% Calm Calm -- 30.14 in1020.7 mb 0.00 in0.0 mm 0.00 in0.0 mm 0.00 in0.0 mm
11:18 PM 55.2°F12.9°C 57.9°F14.4°C 71% Calm Calm -- 30.14 in1020.7 mb 0.00 in0.0 mm 0.00 in0.0 mm 0.00 in0.0 mm
11:20 PM 54.8°F12.7°C 57.9°F14.4°C 71% Calm Calm -- 30.14 in1020.7 mb 0.00 in0.0 mm 0.00 in0.0 mm 0.00 in0.0 mm
11:21 PM 54.8°F12.7°C 58.0°F14.4°C 71% Calm Calm -- 30.14 in1020.7 mb 0.00 in0.0 mm 0.00 in0.0 mm 0.00 in0.0 mm
11:23 PM 54.8°F12.7°C 57.8°F14.3°C 71% Calm Calm -- 30.14 in1020.7 mb 0.00 in0.0 mm 0.00 in0.0 mm 0.00 in0.0 mm
11:24 PM 54.8°F12.7°C 57.6°F14.2°C 71% Calm Calm -- 30.14 in1020.7 mb 0.00 in0.0 mm 0.00 in0.0 mm 0.00 in0.0 mm
11:26 PM 55.0°F12.8°C 57.3°F14.1°C 71% Calm Calm -- 30.14 in1020.7 mb 0.00 in0.0 mm 0.00 in0.0 mm 0.00 in0.0 mm
11:27 PM 55.0°F12.8°C 57.3°F14.1°C 70% Calm Calm -- 30.14 in1020.7 mb 0.00 in0.0 mm 0.00 in0.0 mm 0.00 in0.0 mm
11:29 PM 54.6°F12.6°C 57.2°F14.0°C 71% Calm Calm -- 30.14 in1020.7 mb 0.00 in0.0 mm 0.00 in0.0 mm 0.00 in0.0 mm
11:32 PM 54.8°F12.7°C 57.1°F13.9°C 71% Calm Calm -- 30.14 in1020.7 mb 0.00 in0.0 mm 0.00 in0.0 mm 0.00 in0.0 mm
11:33 PM 54.8°F12.7°C 57.1°F13.9°C 71% Calm Calm -- 30.14 in1020.7 mb 0.00 in0.0 mm 0.00 in0.0 mm 0.00 in0.0 mm
11:35 PM 54.6°F12.6°C 57.4°F14.1°C 72% Calm Calm -- 30.14 in1020.7 mb 0.00 in0.0 mm 0.00 in0.0 mm 0.00 in0.0 mm
11:36 PM 54.6°F12.6°C 57.4°F14.1°C 71% Calm Calm -- 30.14 in1020.7 mb 0.00 in0.0 mm 0.00 in0.0 mm 0.00 in0.0 mm
11:38 PM 54.3°F12.4°C 57.0°F13.9°C 71% Calm Calm -- 30.14 in1020.7 mb 0.00 in0.0 mm 0.00 in0.0 mm 0.00 in0.0 mm
11:39 PM 54.4°F12.4°C 57.3°F14.1°C 71% Calm Calm -- 30.14 in1020.7 mb 0.00 in0.0 mm 0.00 in0.0 mm 0.00 in0.0 mm
11:41 PM 54.3°F12.4°C 57.3°F14.1°C 71% Calm Calm -- 30.14 in1020.7 mb 0.00 in0.0 mm 0.00 in0.0 mm 0.00 in0.0 mm
11:42 PM 54.5°F12.5°C 56.9°F13.8°C 71% Calm Calm -- 30.14 in1020.7 mb 0.00 in0.0 mm 0.00 in0.0 mm 0.00 in0.0 mm
11:44 PM 54.5°F12.5°C 57.0°F13.9°C 72% Calm Calm -- 30.14 in1020.7 mb 0.00 in0.0 mm 0.00 in0.0 mm 0.00 in0.0 mm
11:45 PM 54.6°F12.6°C 57.1°F13.9°C 71% Calm Calm -- 30.14 in1020.7 mb 0.00 in0.0 mm 0.00 in0.0 mm 0.00 in0.0 mm
11:47 PM 54.5°F12.5°C 57.2°F14.0°C 72% Calm Calm -- 30.13 in1020.3 mb 0.00 in0.0 mm 0.00 in0.0 mm 0.00 in0.0 mm
11:48 PM 54.6°F12.6°C 57.2°F14.0°C 72% Calm Calm -- 30.13 in1020.3 mb 0.00 in0.0 mm 0.00 in0.0 mm 0.00 in0.0 mm
11:50 PM 54.5°F12.5°C 57.2°F14.0°C 72% Calm Calm -- 30.13 in1020.3 mb 0.00 in0.0 mm 0.00 in0.0 mm 0.00 in0.0 mm
11:51 PM 54.5°F12.5°C 57.2°F14.0°C 73% Calm Calm -- 30.13 in1020.3 mb 0.00 in0.0 mm 0.00 in0.0 mm 0.00 in0.0 mm
11:53 PM 54.2°F12.3°C 57.2°F14.0°C 73% Calm Calm -- 30.14 in1020.7 mb 0.00 in0.0 mm 0.00 in0.0 mm 0.00 in0.0 mm
11:54 PM 53.9°F12.2°C 57.0°F13.9°C 72% Calm Calm -- 30.13 in1020.3 mb 0.00 in0.0 mm 0.00 in0.0 mm 0.00 in0.0 mm
11:56 PM 54.2°F12.3°C 57.0°F13.9°C 73% Calm Calm -- 30.13 in1020.3 mb 0.00 in0.0 mm 0.00 in0.0 mm 0.00 in0.0 mm
11:57 PM 53.9°F12.2°C 57.2°F14.0°C 73% Calm Calm -- 30.13 in1020.3 mb 0.00 in0.0 mm 0.00 in0.0 mm 0.00 in0.0 mm
11:59 PM 53.7°F12.1°C 56.8°F13.8°C 73% Calm Calm -- 30.13 in1020.3 mb 0.00 in0.0 mm 0.00 in0.0 mm 0.00 in0.0 mm